<?xml version="1.0" encoding="UTF-8" standalone="no" ?>
<gpx xmlns="http://www.topografix.com/GPX/1/1" xmlns:xsi="http://www.w3.org/2001/XMLSchema-instance" xsi:schemaLocation="http://www.topografix.com/GPX/1/1 http://www.topografix.com/GPX/1/1/gpx.xsd" version="1.1" creator="VisuGPX - https://www.visugpx.com">
  <metadata>
    <name>Rando : Le Puy Gros</name>
  </metadata>
  <trk>
    <name><![CDATA[Le Puy Gros]]></name>
    <trkseg>
      <trkpt lat="45.57424" lon="2.80875">
        <ele>1036.4000244141</ele>
        <time>2013-08-17T07:26:17.000Z</time>
      </trkpt>
      <trkpt lat="45.57422" lon="2.80875">
        <ele>1036.4000244141</ele>
        <time>2013-08-17T07:26:31.000Z</time>
      </trkpt>
      <trkpt lat="45.57422" lon="2.80878">
        <ele>1036.5999755859</ele>
        <time>2013-08-17T07:26:57.000Z</time>
      </trkpt>
      <trkpt lat="45.5742" lon="2.80879">
        <ele>1036.5999755859</ele>
        <time>2013-08-17T07:27:20.000Z</time>
      </trkpt>
      <trkpt lat="45.57392" lon="2.80863">
        <ele>1037</ele>
        <time>2013-08-17T07:27:49.000Z</time>
      </trkpt>
      <trkpt lat="45.57381" lon="2.80862">
        <ele>1037.4000244141</ele>
        <time>2013-08-17T07:28:16.000Z</time>
      </trkpt>
      <trkpt lat="45.57412" lon="2.80883">
        <ele>1037.1999511719</ele>
        <time>2013-08-17T07:28:39.000Z</time>
      </trkpt>
      <trkpt lat="45.57415" lon="2.80883">
        <ele>1037</ele>
        <time>2013-08-17T07:29:00.000Z</time>
      </trkpt>
      <trkpt lat="45.57423" lon="2.80889">
        <ele>1037</ele>
        <time>2013-08-17T07:29:23.000Z</time>
      </trkpt>
      <trkpt lat="45.57427" lon="2.80883">
        <ele>1036.5999755859</ele>
        <time>2013-08-17T07:29:56.000Z</time>
      </trkpt>
      <trkpt lat="45.57427" lon="2.80879">
        <ele>1036.5999755859</ele>
        <time>2013-08-17T07:30:21.000Z</time>
      </trkpt>
      <trkpt lat="45.57436" lon="2.809">
        <ele>1037</ele>
        <time>2013-08-17T07:30:47.000Z</time>
      </trkpt>
      <trkpt lat="45.57426" lon="2.80892">
        <ele>1037</ele>
        <time>2013-08-17T07:31:04.000Z</time>
      </trkpt>
      <trkpt lat="45.57422" lon="2.809">
        <ele>1037.5999755859</ele>
        <time>2013-08-17T07:31:45.000Z</time>
      </trkpt>
      <trkpt lat="45.57443" lon="2.80917">
        <ele>1037.5999755859</ele>
        <time>2013-08-17T07:32:14.000Z</time>
      </trkpt>
      <trkpt lat="45.57444" lon="2.80906">
        <ele>1037</ele>
        <time>2013-08-17T07:32:51.000Z</time>
      </trkpt>
      <trkpt lat="45.57474" lon="2.80938">
        <ele>1038</ele>
        <time>2013-08-17T07:33:26.000Z</time>
      </trkpt>
      <trkpt lat="45.57467" lon="2.80929">
        <ele>1037.4000244141</ele>
        <time>2013-08-17T07:33:53.000Z</time>
      </trkpt>
      <trkpt lat="45.57468" lon="2.80929">
        <ele>1037.4000244141</ele>
        <time>2013-08-17T07:33:55.000Z</time>
      </trkpt>
      <trkpt lat="45.57452" lon="2.80916">
        <ele>1037.1999511719</ele>
        <time>2013-08-17T07:34:20.000Z</time>
      </trkpt>
      <trkpt lat="45.57451" lon="2.80916">
        <ele>1037.4000244141</ele>
        <time>2013-08-17T07:34:43.000Z</time>
      </trkpt>
      <trkpt lat="45.57429" lon="2.80889">
        <ele>1036.8000488281</ele>
        <time>2013-08-17T07:35:08.000Z</time>
      </trkpt>
      <trkpt lat="45.5742" lon="2.80879">
        <ele>1036.5999755859</ele>
        <time>2013-08-17T07:35:31.000Z</time>
      </trkpt>
      <trkpt lat="45.57414" lon="2.80869">
        <ele>1036.4000244141</ele>
        <time>2013-08-17T07:35:57.000Z</time>
      </trkpt>
      <trkpt lat="45.57427" lon="2.80878">
        <ele>1036.5999755859</ele>
        <time>2013-08-17T07:36:25.000Z</time>
      </trkpt>
      <trkpt lat="45.57456" lon="2.80902">
        <ele>1036.8000488281</ele>
        <time>2013-08-17T07:38:28.000Z</time>
      </trkpt>
      <trkpt lat="45.57458" lon="2.80904">
        <ele>1036.8000488281</ele>
        <time>2013-08-17T07:38:30.000Z</time>
      </trkpt>
      <trkpt lat="45.57462" lon="2.80903">
        <ele>1037</ele>
        <time>2013-08-17T07:38:33.000Z</time>
      </trkpt>
      <trkpt lat="45.57475" lon="2.80904">
        <ele>1036.5999755859</ele>
        <time>2013-08-17T07:38:51.000Z</time>
      </trkpt>
      <trkpt lat="45.57495" lon="2.80899">
        <ele>1035.4000244141</ele>
        <time>2013-08-17T07:39:06.000Z</time>
      </trkpt>
      <trkpt lat="45.57509" lon="2.80909">
        <ele>1034.5999755859</ele>
        <time>2013-08-17T07:39:24.000Z</time>
      </trkpt>
      <trkpt lat="45.57529" lon="2.80891">
        <ele>1033</ele>
        <time>2013-08-17T07:39:38.000Z</time>
      </trkpt>
      <trkpt lat="45.5754" lon="2.80885">
        <ele>1031.8000488281</ele>
        <time>2013-08-17T07:39:54.000Z</time>
      </trkpt>
      <trkpt lat="45.57549" lon="2.80885">
        <ele>1031</ele>
        <time>2013-08-17T07:40:13.000Z</time>
      </trkpt>
      <trkpt lat="45.57552" lon="2.80881">
        <ele>1030.5999755859</ele>
        <time>2013-08-17T07:40:17.000Z</time>
      </trkpt>
      <trkpt lat="45.57572" lon="2.80868">
        <ele>1029.8000488281</ele>
        <time>2013-08-17T07:40:32.000Z</time>
      </trkpt>
      <trkpt lat="45.57581" lon="2.80853">
        <ele>1028.8000488281</ele>
        <time>2013-08-17T07:40:43.000Z</time>
      </trkpt>
      <trkpt lat="45.57594" lon="2.80827">
        <ele>1027</ele>
        <time>2013-08-17T07:41:01.000Z</time>
      </trkpt>
      <trkpt lat="45.5761" lon="2.80829">
        <ele>1026.5999755859</ele>
        <time>2013-08-17T07:41:08.000Z</time>
      </trkpt>
      <trkpt lat="45.57627" lon="2.80813">
        <ele>1025.4000244141</ele>
        <time>2013-08-17T07:41:25.000Z</time>
      </trkpt>
      <trkpt lat="45.57646" lon="2.80798">
        <ele>1024.8000488281</ele>
        <time>2013-08-17T07:41:41.000Z</time>
      </trkpt>
      <trkpt lat="45.57656" lon="2.80781">
        <ele>1024.4000244141</ele>
        <time>2013-08-17T07:41:56.000Z</time>
      </trkpt>
      <trkpt lat="45.57657" lon="2.8078">
        <ele>1024.4000244141</ele>
        <time>2013-08-17T07:41:57.000Z</time>
      </trkpt>
      <trkpt lat="45.5767" lon="2.80755">
        <ele>1022.200012207</ele>
        <time>2013-08-17T07:42:13.000Z</time>
      </trkpt>
      <trkpt lat="45.57674" lon="2.80749">
        <ele>1022</ele>
        <time>2013-08-17T07:42:19.000Z</time>
      </trkpt>
      <trkpt lat="45.57693" lon="2.80745">
        <ele>1021.4000244141</ele>
        <time>2013-08-17T07:42:35.000Z</time>
      </trkpt>
      <trkpt lat="45.57699" lon="2.80743">
        <ele>1021.200012207</ele>
        <time>2013-08-17T07:42:41.000Z</time>
      </trkpt>
      <trkpt lat="45.57718" lon="2.80719">
        <ele>1019.799987793</ele>
        <time>2013-08-17T07:42:59.000Z</time>
      </trkpt>
      <trkpt lat="45.57735" lon="2.80703">
        <ele>1018.799987793</ele>
        <time>2013-08-17T07:43:14.000Z</time>
      </trkpt>
      <trkpt lat="45.57749" lon="2.80686">
        <ele>1017.5999755859</ele>
        <time>2013-08-17T07:43:32.000Z</time>
      </trkpt>
      <trkpt lat="45.57766" lon="2.80676">
        <ele>1016.4000244141</ele>
        <time>2013-08-17T07:43:52.000Z</time>
      </trkpt>
      <trkpt lat="45.57776" lon="2.80661">
        <ele>1015.5999755859</ele>
        <time>2013-08-17T07:44:06.000Z</time>
      </trkpt>
      <trkpt lat="45.57797" lon="2.80645">
        <ele>1014.799987793</ele>
        <time>2013-08-17T07:44:22.000Z</time>
      </trkpt>
      <trkpt lat="45.57816" lon="2.80627">
        <ele>1014.4000244141</ele>
        <time>2013-08-17T07:44:38.000Z</time>
      </trkpt>
      <trkpt lat="45.57831" lon="2.80603">
        <ele>1013.4000244141</ele>
        <time>2013-08-17T07:44:54.000Z</time>
      </trkpt>
      <trkpt lat="45.57851" lon="2.80583">
        <ele>1011.4000244141</ele>
        <time>2013-08-17T07:45:09.000Z</time>
      </trkpt>
      <trkpt lat="45.57854" lon="2.80571">
        <ele>1010.5999755859</ele>
        <time>2013-08-17T07:45:15.000Z</time>
      </trkpt>
      <trkpt lat="45.57866" lon="2.80551">
        <ele>1009.5999755859</ele>
        <time>2013-08-17T07:45:31.000Z</time>
      </trkpt>
      <trkpt lat="45.57886" lon="2.80537">
        <ele>1008.799987793</ele>
        <time>2013-08-17T07:45:50.000Z</time>
      </trkpt>
      <trkpt lat="45.57888" lon="2.80532">
        <ele>1008.5999755859</ele>
        <time>2013-08-17T07:45:53.000Z</time>
      </trkpt>
      <trkpt lat="45.57904" lon="2.80516">
        <ele>1008.4000244141</ele>
        <time>2013-08-17T07:46:08.000Z</time>
      </trkpt>
      <trkpt lat="45.57916" lon="2.80525">
        <ele>1008.799987793</ele>
        <time>2013-08-17T07:46:20.000Z</time>
      </trkpt>
      <trkpt lat="45.57912" lon="2.80558">
        <ele>1009.5999755859</ele>
        <time>2013-08-17T07:46:39.000Z</time>
      </trkpt>
      <trkpt lat="45.57904" lon="2.80589">
        <ele>1010.200012207</ele>
        <time>2013-08-17T07:46:57.000Z</time>
      </trkpt>
      <trkpt lat="45.57901" lon="2.80602">
        <ele>1011.4000244141</ele>
        <time>2013-08-17T07:47:06.000Z</time>
      </trkpt>
      <trkpt lat="45.57892" lon="2.80633">
        <ele>1013</ele>
        <time>2013-08-17T07:47:24.000Z</time>
      </trkpt>
      <trkpt lat="45.57888" lon="2.80654">
        <ele>1014</ele>
        <time>2013-08-17T07:47:38.000Z</time>
      </trkpt>
      <trkpt lat="45.57886" lon="2.80675">
        <ele>1015.5999755859</ele>
        <time>2013-08-17T07:47:54.000Z</time>
      </trkpt>
      <trkpt lat="45.57895" lon="2.80694">
        <ele>1019.200012207</ele>
        <time>2013-08-17T07:48:12.000Z</time>
      </trkpt>
      <trkpt lat="45.57899" lon="2.80699">
        <ele>1020.4000244141</ele>
        <time>2013-08-17T07:48:21.000Z</time>
      </trkpt>
      <trkpt lat="45.57918" lon="2.8069">
        <ele>1020.200012207</ele>
        <time>2013-08-17T07:48:40.000Z</time>
      </trkpt>
      <trkpt lat="45.57937" lon="2.80677">
        <ele>1018</ele>
        <time>2013-08-17T07:48:56.000Z</time>
      </trkpt>
      <trkpt lat="45.57959" lon="2.80671">
        <ele>1017.5999755859</ele>
        <time>2013-08-17T07:49:15.000Z</time>
      </trkpt>
      <trkpt lat="45.57979" lon="2.80668">
        <ele>1018.4000244141</ele>
        <time>2013-08-17T07:49:31.000Z</time>
      </trkpt>
      <trkpt lat="45.58002" lon="2.80659">
        <ele>1019.4000244141</ele>
        <time>2013-08-17T07:49:51.000Z</time>
      </trkpt>
      <trkpt lat="45.58016" lon="2.80648">
        <ele>1019.4000244141</ele>
        <time>2013-08-17T07:50:03.000Z</time>
      </trkpt>
      <trkpt lat="45.58021" lon="2.80644">
        <ele>1019.5999755859</ele>
        <time>2013-08-17T07:50:07.000Z</time>
      </trkpt>
      <trkpt lat="45.58041" lon="2.80632">
        <ele>1017.200012207</ele>
        <time>2013-08-17T07:50:26.000Z</time>
      </trkpt>
      <trkpt lat="45.58055" lon="2.80622">
        <ele>1016.200012207</ele>
        <time>2013-08-17T07:50:40.000Z</time>
      </trkpt>
      <trkpt lat="45.58076" lon="2.80609">
        <ele>1018.5999755859</ele>
        <time>2013-08-17T07:51:00.000Z</time>
      </trkpt>
      <trkpt lat="45.58082" lon="2.80604">
        <ele>1017</ele>
        <time>2013-08-17T07:51:12.000Z</time>
      </trkpt>
      <trkpt lat="45.58086" lon="2.806">
        <ele>1016</ele>
        <time>2013-08-17T07:51:37.000Z</time>
      </trkpt>
      <trkpt lat="45.58101" lon="2.8059">
        <ele>1013.799987793</ele>
        <time>2013-08-17T07:51:55.000Z</time>
      </trkpt>
      <trkpt lat="45.58115" lon="2.80576">
        <ele>1013.799987793</ele>
        <time>2013-08-17T07:52:12.000Z</time>
      </trkpt>
      <trkpt lat="45.58133" lon="2.80568">
        <ele>1012.799987793</ele>
        <time>2013-08-17T07:52:31.000Z</time>
      </trkpt>
      <trkpt lat="45.5815" lon="2.80527">
        <ele>1011.4000244141</ele>
        <time>2013-08-17T07:52:51.000Z</time>
      </trkpt>
      <trkpt lat="45.58168" lon="2.80512">
        <ele>1009.200012207</ele>
        <time>2013-08-17T07:53:09.000Z</time>
      </trkpt>
      <trkpt lat="45.58186" lon="2.80506">
        <ele>1009</ele>
        <time>2013-08-17T07:53:28.000Z</time>
      </trkpt>
      <trkpt lat="45.58203" lon="2.80474">
        <ele>1008</ele>
        <time>2013-08-17T07:53:44.000Z</time>
      </trkpt>
      <trkpt lat="45.58218" lon="2.80447">
        <ele>1003.799987793</ele>
        <time>2013-08-17T07:54:01.000Z</time>
      </trkpt>
      <trkpt lat="45.58239" lon="2.80424">
        <ele>1003.799987793</ele>
        <time>2013-08-17T07:54:23.000Z</time>
      </trkpt>
      <trkpt lat="45.58256" lon="2.80404">
        <ele>1004.5999755859</ele>
        <time>2013-08-17T07:54:41.000Z</time>
      </trkpt>
      <trkpt lat="45.58269" lon="2.80391">
        <ele>1006</ele>
        <time>2013-08-17T07:54:55.000Z</time>
      </trkpt>
      <trkpt lat="45.58287" lon="2.80372">
        <ele>1002.5999755859</ele>
        <time>2013-08-17T07:55:14.000Z</time>
      </trkpt>
      <trkpt lat="45.58304" lon="2.80346">
        <ele>998.40002441406</ele>
        <time>2013-08-17T07:55:29.000Z</time>
      </trkpt>
      <trkpt lat="45.58314" lon="2.80337">
        <ele>997.59997558594</ele>
        <time>2013-08-17T07:55:42.000Z</time>
      </trkpt>
      <trkpt lat="45.5833" lon="2.80326">
        <ele>999</ele>
        <time>2013-08-17T07:55:59.000Z</time>
      </trkpt>
      <trkpt lat="45.5833" lon="2.80325">
        <ele>999</ele>
        <time>2013-08-17T07:56:00.000Z</time>
      </trkpt>
      <trkpt lat="45.58343" lon="2.80314">
        <ele>1000</ele>
        <time>2013-08-17T07:56:13.000Z</time>
      </trkpt>
      <trkpt lat="45.58352" lon="2.80304">
        <ele>1000.4000244141</ele>
        <time>2013-08-17T07:56:25.000Z</time>
      </trkpt>
      <trkpt lat="45.58354" lon="2.80301">
        <ele>999.79998779297</ele>
        <time>2013-08-17T07:56:29.000Z</time>
      </trkpt>
      <trkpt lat="45.58375" lon="2.80283">
        <ele>997</ele>
        <time>2013-08-17T07:56:49.000Z</time>
      </trkpt>
      <trkpt lat="45.58395" lon="2.80264">
        <ele>996</ele>
        <time>2013-08-17T07:57:06.000Z</time>
      </trkpt>
      <trkpt lat="45.58412" lon="2.80243">
        <ele>995</ele>
        <time>2013-08-17T07:57:26.000Z</time>
      </trkpt>
      <trkpt lat="45.58425" lon="2.80233">
        <ele>996.20001220703</ele>
        <time>2013-08-17T07:57:41.000Z</time>
      </trkpt>
      <trkpt lat="45.58437" lon="2.80222">
        <ele>997</ele>
        <time>2013-08-17T07:57:59.000Z</time>
      </trkpt>
      <trkpt lat="45.58458" lon="2.80207">
        <ele>995.20001220703</ele>
        <time>2013-08-17T07:58:16.000Z</time>
      </trkpt>
      <trkpt lat="45.58481" lon="2.80182">
        <ele>994.59997558594</ele>
        <time>2013-08-17T07:58:34.000Z</time>
      </trkpt>
      <trkpt lat="45.585" lon="2.80173">
        <ele>995</ele>
        <time>2013-08-17T07:58:52.000Z</time>
      </trkpt>
      <trkpt lat="45.58517" lon="2.80165">
        <ele>996.59997558594</ele>
        <time>2013-08-17T07:59:12.000Z</time>
      </trkpt>
      <trkpt lat="45.58529" lon="2.80155">
        <ele>997.79998779297</ele>
        <time>2013-08-17T07:59:24.000Z</time>
      </trkpt>
      <trkpt lat="45.58544" lon="2.80141">
        <ele>995.79998779297</ele>
        <time>2013-08-17T07:59:42.000Z</time>
      </trkpt>
      <trkpt lat="45.58557" lon="2.80124">
        <ele>993.20001220703</ele>
        <time>2013-08-17T07:59:58.000Z</time>
      </trkpt>
      <trkpt lat="45.58573" lon="2.801">
        <ele>991.40002441406</ele>
        <time>2013-08-17T08:00:17.000Z</time>
      </trkpt>
      <trkpt lat="45.58583" lon="2.80083">
        <ele>991.40002441406</ele>
        <time>2013-08-17T08:00:31.000Z</time>
      </trkpt>
      <trkpt lat="45.58599" lon="2.80056">
        <ele>993.79998779297</ele>
        <time>2013-08-17T08:00:49.000Z</time>
      </trkpt>
      <trkpt lat="45.58614" lon="2.80031">
        <ele>991.40002441406</ele>
        <time>2013-08-17T08:01:08.000Z</time>
      </trkpt>
      <trkpt lat="45.58626" lon="2.8001">
        <ele>989</ele>
        <time>2013-08-17T08:01:25.000Z</time>
      </trkpt>
      <trkpt lat="45.58637" lon="2.79995">
        <ele>988.20001220703</ele>
        <time>2013-08-17T08:01:42.000Z</time>
      </trkpt>
      <trkpt lat="45.58649" lon="2.79978">
        <ele>987.79998779297</ele>
        <time>2013-08-17T08:01:54.000Z</time>
      </trkpt>
      <trkpt lat="45.5866" lon="2.79964">
        <ele>987.59997558594</ele>
        <time>2013-08-17T08:02:09.000Z</time>
      </trkpt>
      <trkpt lat="45.58673" lon="2.79949">
        <ele>986.79998779297</ele>
        <time>2013-08-17T08:02:27.000Z</time>
      </trkpt>
      <trkpt lat="45.58688" lon="2.79933">
        <ele>984.59997558594</ele>
        <time>2013-08-17T08:02:46.000Z</time>
      </trkpt>
      <trkpt lat="45.58695" lon="2.79917">
        <ele>982.79998779297</ele>
        <time>2013-08-17T08:02:57.000Z</time>
      </trkpt>
      <trkpt lat="45.58707" lon="2.79881">
        <ele>982</ele>
        <time>2013-08-17T08:03:18.000Z</time>
      </trkpt>
      <trkpt lat="45.58709" lon="2.79854">
        <ele>980.59997558594</ele>
        <time>2013-08-17T08:03:36.000Z</time>
      </trkpt>
      <trkpt lat="45.5871" lon="2.79824">
        <ele>979.40002441406</ele>
        <time>2013-08-17T08:03:57.000Z</time>
      </trkpt>
      <trkpt lat="45.58711" lon="2.79823">
        <ele>979.40002441406</ele>
        <time>2013-08-17T08:03:58.000Z</time>
      </trkpt>
      <trkpt lat="45.58717" lon="2.7981">
        <ele>979.40002441406</ele>
        <time>2013-08-17T08:04:05.000Z</time>
      </trkpt>
      <trkpt lat="45.58715" lon="2.79791">
        <ele>978.79998779297</ele>
        <time>2013-08-17T08:04:22.000Z</time>
      </trkpt>
      <trkpt lat="45.58714" lon="2.79788">
        <ele>978.59997558594</ele>
        <time>2013-08-17T08:04:25.000Z</time>
      </trkpt>
      <trkpt lat="45.58714" lon="2.79784">
        <ele>978.59997558594</ele>
        <time>2013-08-17T08:04:27.000Z</time>
      </trkpt>
      <trkpt lat="45.58718" lon="2.79774">
        <ele>978.40002441406</ele>
        <time>2013-08-17T08:04:45.000Z</time>
      </trkpt>
      <trkpt lat="45.58729" lon="2.79758">
        <ele>979.40002441406</ele>
        <time>2013-08-17T08:05:01.000Z</time>
      </trkpt>
      <trkpt lat="45.5873" lon="2.79756">
        <ele>979.40002441406</ele>
        <time>2013-08-17T08:05:02.000Z</time>
      </trkpt>
      <trkpt lat="45.58746" lon="2.79752">
        <ele>981.20001220703</ele>
        <time>2013-08-17T08:05:15.000Z</time>
      </trkpt>
      <trkpt lat="45.58745" lon="2.79754">
        <ele>981.20001220703</ele>
        <time>2013-08-17T08:05:41.000Z</time>
      </trkpt>
      <trkpt lat="45.58748" lon="2.79752">
        <ele>981.40002441406</ele>
        <time>2013-08-17T08:06:04.000Z</time>
      </trkpt>
      <trkpt lat="45.58754" lon="2.79747">
        <ele>982.20001220703</ele>
        <time>2013-08-17T08:06:15.000Z</time>
      </trkpt>
      <trkpt lat="45.58775" lon="2.79732">
        <ele>984.59997558594</ele>
        <time>2013-08-17T08:06:34.000Z</time>
      </trkpt>
      <trkpt lat="45.58794" lon="2.79738">
        <ele>986.59997558594</ele>
        <time>2013-08-17T08:06:52.000Z</time>
      </trkpt>
      <trkpt lat="45.58815" lon="2.79741">
        <ele>990.20001220703</ele>
        <time>2013-08-17T08:07:11.000Z</time>
      </trkpt>
      <trkpt lat="45.58817" lon="2.7974">
        <ele>990.59997558594</ele>
        <time>2013-08-17T08:07:13.000Z</time>
      </trkpt>
      <trkpt lat="45.58835" lon="2.79747">
        <ele>994.59997558594</ele>
        <time>2013-08-17T08:07:31.000Z</time>
      </trkpt>
      <trkpt lat="45.58851" lon="2.79753">
        <ele>998</ele>
        <time>2013-08-17T08:07:49.000Z</time>
      </trkpt>
      <trkpt lat="45.58858" lon="2.79759">
        <ele>999.79998779297</ele>
        <time>2013-08-17T08:08:01.000Z</time>
      </trkpt>
      <trkpt lat="45.58859" lon="2.79764">
        <ele>1000.200012207</ele>
        <time>2013-08-17T08:08:05.000Z</time>
      </trkpt>
      <trkpt lat="45.5886" lon="2.79769">
        <ele>1000.5999755859</ele>
        <time>2013-08-17T08:08:09.000Z</time>
      </trkpt>
      <trkpt lat="45.58864" lon="2.79807">
        <ele>1003.4000244141</ele>
        <time>2013-08-17T08:08:31.000Z</time>
      </trkpt>
      <trkpt lat="45.58867" lon="2.79833">
        <ele>1004.799987793</ele>
        <time>2013-08-17T08:08:48.000Z</time>
      </trkpt>
      <trkpt lat="45.58869" lon="2.79856">
        <ele>1005.799987793</ele>
        <time>2013-08-17T08:09:03.000Z</time>
      </trkpt>
      <trkpt lat="45.58872" lon="2.79881">
        <ele>1007</ele>
        <time>2013-08-17T08:09:20.000Z</time>
      </trkpt>
      <trkpt lat="45.58871" lon="2.79884">
        <ele>1007</ele>
        <time>2013-08-17T08:09:37.000Z</time>
      </trkpt>
      <trkpt lat="45.58871" lon="2.79886">
        <ele>1007</ele>
        <time>2013-08-17T08:09:39.000Z</time>
      </trkpt>
      <trkpt lat="45.58879" lon="2.79914">
        <ele>1009.4000244141</ele>
        <time>2013-08-17T08:09:59.000Z</time>
      </trkpt>
      <trkpt lat="45.58886" lon="2.79938">
        <ele>1011</ele>
        <time>2013-08-17T08:10:17.000Z</time>
      </trkpt>
      <trkpt lat="45.58897" lon="2.7996">
        <ele>1013.5999755859</ele>
        <time>2013-08-17T08:10:35.000Z</time>
      </trkpt>
      <trkpt lat="45.589" lon="2.79965">
        <ele>1014.200012207</ele>
        <time>2013-08-17T08:10:40.000Z</time>
      </trkpt>
      <trkpt lat="45.58915" lon="2.79992">
        <ele>1017.799987793</ele>
        <time>2013-08-17T08:11:01.000Z</time>
      </trkpt>
      <trkpt lat="45.58926" lon="2.80009">
        <ele>1020.799987793</ele>
        <time>2013-08-17T08:11:18.000Z</time>
      </trkpt>
      <trkpt lat="45.58935" lon="2.80029">
        <ele>1022.5999755859</ele>
        <time>2013-08-17T08:11:37.000Z</time>
      </trkpt>
      <trkpt lat="45.58941" lon="2.80038">
        <ele>1024</ele>
        <time>2013-08-17T08:11:52.000Z</time>
      </trkpt>
      <trkpt lat="45.58958" lon="2.80052">
        <ele>1028.4000244141</ele>
        <time>2013-08-17T08:12:10.000Z</time>
      </trkpt>
      <trkpt lat="45.58963" lon="2.80053">
        <ele>1029.8000488281</ele>
        <time>2013-08-17T08:12:26.000Z</time>
      </trkpt>
      <trkpt lat="45.58966" lon="2.80034">
        <ele>1031.1999511719</ele>
        <time>2013-08-17T08:12:43.000Z</time>
      </trkpt>
      <trkpt lat="45.58968" lon="2.80033">
        <ele>1032</ele>
        <time>2013-08-17T08:13:04.000Z</time>
      </trkpt>
      <trkpt lat="45.58968" lon="2.80034">
        <ele>1031.8000488281</ele>
        <time>2013-08-17T08:13:34.000Z</time>
      </trkpt>
      <trkpt lat="45.58966" lon="2.80033">
        <ele>1031.4000244141</ele>
        <time>2013-08-17T08:14:01.000Z</time>
      </trkpt>
      <trkpt lat="45.58967" lon="2.80033">
        <ele>1031.5999755859</ele>
        <time>2013-08-17T08:14:21.000Z</time>
      </trkpt>
      <trkpt lat="45.58967" lon="2.80033">
        <ele>1031.5999755859</ele>
        <time>2013-08-17T08:14:32.000Z</time>
      </trkpt>
      <trkpt lat="45.58966" lon="2.80029">
        <ele>1031.4000244141</ele>
        <time>2013-08-17T08:14:35.000Z</time>
      </trkpt>
      <trkpt lat="45.58964" lon="2.80015">
        <ele>1031.4000244141</ele>
        <time>2013-08-17T08:14:44.000Z</time>
      </trkpt>
      <trkpt lat="45.58971" lon="2.79997">
        <ele>1033.5999755859</ele>
        <time>2013-08-17T08:15:00.000Z</time>
      </trkpt>
      <trkpt lat="45.58974" lon="2.79994">
        <ele>1034.8000488281</ele>
        <time>2013-08-17T08:15:05.000Z</time>
      </trkpt>
      <trkpt lat="45.58987" lon="2.79985">
        <ele>1038.8000488281</ele>
        <time>2013-08-17T08:15:23.000Z</time>
      </trkpt>
      <trkpt lat="45.58988" lon="2.79985">
        <ele>1039</ele>
        <time>2013-08-17T08:15:25.000Z</time>
      </trkpt>
      <trkpt lat="45.59006" lon="2.79988">
        <ele>1044.8000488281</ele>
        <time>2013-08-17T08:15:45.000Z</time>
      </trkpt>
      <trkpt lat="45.5902" lon="2.7999">
        <ele>1049.5999755859</ele>
        <time>2013-08-17T08:16:02.000Z</time>
      </trkpt>
      <trkpt lat="45.59029" lon="2.79995">
        <ele>1052.4000244141</ele>
        <time>2013-08-17T08:16:17.000Z</time>
      </trkpt>
      <trkpt lat="45.59031" lon="2.8">
        <ele>1053.1999511719</ele>
        <time>2013-08-17T08:16:21.000Z</time>
      </trkpt>
      <trkpt lat="45.59032" lon="2.80004">
        <ele>1053.8000488281</ele>
        <time>2013-08-17T08:16:24.000Z</time>
      </trkpt>
      <trkpt lat="45.59039" lon="2.80025">
        <ele>1055.5999755859</ele>
        <time>2013-08-17T08:16:40.000Z</time>
      </trkpt>
      <trkpt lat="45.59041" lon="2.80027">
        <ele>1056.1999511719</ele>
        <time>2013-08-17T08:16:54.000Z</time>
      </trkpt>
      <trkpt lat="45.59041" lon="2.80027">
        <ele>1056.1999511719</ele>
        <time>2013-08-17T08:17:09.000Z</time>
      </trkpt>
      <trkpt lat="45.59043" lon="2.80029">
        <ele>1056.8000488281</ele>
        <time>2013-08-17T08:17:27.000Z</time>
      </trkpt>
      <trkpt lat="45.59043" lon="2.8003">
        <ele>1056.8000488281</ele>
        <time>2013-08-17T08:17:46.000Z</time>
      </trkpt>
      <trkpt lat="45.59043" lon="2.8003">
        <ele>1056.8000488281</ele>
        <time>2013-08-17T08:18:06.000Z</time>
      </trkpt>
      <trkpt lat="45.59043" lon="2.8003">
        <ele>1056.8000488281</ele>
        <time>2013-08-17T08:18:25.000Z</time>
      </trkpt>
      <trkpt lat="45.59042" lon="2.80031">
        <ele>1056.5999755859</ele>
        <time>2013-08-17T08:18:52.000Z</time>
      </trkpt>
      <trkpt lat="45.59041" lon="2.80031">
        <ele>1056.1999511719</ele>
        <time>2013-08-17T08:19:27.000Z</time>
      </trkpt>
      <trkpt lat="45.5904" lon="2.80031">
        <ele>1056</ele>
        <time>2013-08-17T08:19:59.000Z</time>
      </trkpt>
      <trkpt lat="45.5904" lon="2.80031">
        <ele>1056.1999511719</ele>
        <time>2013-08-17T08:20:24.000Z</time>
      </trkpt>
      <trkpt lat="45.59041" lon="2.80031">
        <ele>1056.1999511719</ele>
        <time>2013-08-17T08:20:50.000Z</time>
      </trkpt>
      <trkpt lat="45.59041" lon="2.8003">
        <ele>1056.4000244141</ele>
        <time>2013-08-17T08:21:24.000Z</time>
      </trkpt>
      <trkpt lat="45.59041" lon="2.8003">
        <ele>1056.4000244141</ele>
        <time>2013-08-17T08:21:51.000Z</time>
      </trkpt>
      <trkpt lat="45.59041" lon="2.80031">
        <ele>1056.1999511719</ele>
        <time>2013-08-17T08:22:30.000Z</time>
      </trkpt>
      <trkpt lat="45.5904" lon="2.80036">
        <ele>1055.8000488281</ele>
        <time>2013-08-17T08:22:35.000Z</time>
      </trkpt>
      <trkpt lat="45.5904" lon="2.80059">
        <ele>1055.5999755859</ele>
        <time>2013-08-17T08:22:54.000Z</time>
      </trkpt>
      <trkpt lat="45.59044" lon="2.80085">
        <ele>1056.4000244141</ele>
        <time>2013-08-17T08:23:13.000Z</time>
      </trkpt>
      <trkpt lat="45.59048" lon="2.80109">
        <ele>1057.1999511719</ele>
        <time>2013-08-17T08:23:30.000Z</time>
      </trkpt>
      <trkpt lat="45.59053" lon="2.80141">
        <ele>1058.8000488281</ele>
        <time>2013-08-17T08:23:51.000Z</time>
      </trkpt>
      <trkpt lat="45.59057" lon="2.80168">
        <ele>1060</ele>
        <time>2013-08-17T08:24:10.000Z</time>
      </trkpt>
      <trkpt lat="45.59058" lon="2.80194">
        <ele>1060</ele>
        <time>2013-08-17T08:24:29.000Z</time>
      </trkpt>
      <trkpt lat="45.5906" lon="2.80224">
        <ele>1060.8000488281</ele>
        <time>2013-08-17T08:24:50.000Z</time>
      </trkpt>
      <trkpt lat="45.59059" lon="2.80242">
        <ele>1060.4000244141</ele>
        <time>2013-08-17T08:25:09.000Z</time>
      </trkpt>
      <trkpt lat="45.5906" lon="2.80245">
        <ele>1060.8000488281</ele>
        <time>2013-08-17T08:25:33.000Z</time>
      </trkpt>
      <trkpt lat="45.59062" lon="2.80259">
        <ele>1061.1999511719</ele>
        <time>2013-08-17T08:25:53.000Z</time>
      </trkpt>
      <trkpt lat="45.59062" lon="2.80289">
        <ele>1060.5999755859</ele>
        <time>2013-08-17T08:26:14.000Z</time>
      </trkpt>
      <trkpt lat="45.59063" lon="2.80303">
        <ele>1060.8000488281</ele>
        <time>2013-08-17T08:26:33.000Z</time>
      </trkpt>
      <trkpt lat="45.59063" lon="2.80305">
        <ele>1060.5999755859</ele>
        <time>2013-08-17T08:26:53.000Z</time>
      </trkpt>
      <trkpt lat="45.59063" lon="2.80309">
        <ele>1061</ele>
        <time>2013-08-17T08:27:20.000Z</time>
      </trkpt>
      <trkpt lat="45.59064" lon="2.80316">
        <ele>1061.1999511719</ele>
        <time>2013-08-17T08:27:47.000Z</time>
      </trkpt>
      <trkpt lat="45.59063" lon="2.80336">
        <ele>1060.5999755859</ele>
        <time>2013-08-17T08:28:06.000Z</time>
      </trkpt>
      <trkpt lat="45.59064" lon="2.80348">
        <ele>1059.5999755859</ele>
        <time>2013-08-17T08:28:24.000Z</time>
      </trkpt>
      <trkpt lat="45.59065" lon="2.8035">
        <ele>1059.8000488281</ele>
        <time>2013-08-17T08:28:52.000Z</time>
      </trkpt>
      <trkpt lat="45.59067" lon="2.80363">
        <ele>1060</ele>
        <time>2013-08-17T08:29:05.000Z</time>
      </trkpt>
      <trkpt lat="45.5907" lon="2.80391">
        <ele>1060.1999511719</ele>
        <time>2013-08-17T08:29:23.000Z</time>
      </trkpt>
      <trkpt lat="45.59072" lon="2.80418">
        <ele>1059.8000488281</ele>
        <time>2013-08-17T08:29:43.000Z</time>
      </trkpt>
      <trkpt lat="45.59079" lon="2.80446">
        <ele>1063.4000244141</ele>
        <time>2013-08-17T08:30:04.000Z</time>
      </trkpt>
      <trkpt lat="45.59082" lon="2.80471">
        <ele>1063.5999755859</ele>
        <time>2013-08-17T08:30:21.000Z</time>
      </trkpt>
      <trkpt lat="45.59081" lon="2.80487">
        <ele>1062.4000244141</ele>
        <time>2013-08-17T08:30:41.000Z</time>
      </trkpt>
      <trkpt lat="45.5909" lon="2.80517">
        <ele>1066.5999755859</ele>
        <time>2013-08-17T08:31:02.000Z</time>
      </trkpt>
      <trkpt lat="45.59098" lon="2.80531">
        <ele>1072</ele>
        <time>2013-08-17T08:31:19.000Z</time>
      </trkpt>
      <trkpt lat="45.591" lon="2.80539">
        <ele>1073.8000488281</ele>
        <time>2013-08-17T08:31:37.000Z</time>
      </trkpt>
      <trkpt lat="45.59107" lon="2.8056">
        <ele>1079.4000244141</ele>
        <time>2013-08-17T08:31:52.000Z</time>
      </trkpt>
      <trkpt lat="45.59114" lon="2.80588">
        <ele>1082.1999511719</ele>
        <time>2013-08-17T08:32:10.000Z</time>
      </trkpt>
      <trkpt lat="45.59119" lon="2.8061">
        <ele>1082.8000488281</ele>
        <time>2013-08-17T08:32:25.000Z</time>
      </trkpt>
      <trkpt lat="45.59123" lon="2.80627">
        <ele>1084</ele>
        <time>2013-08-17T08:32:41.000Z</time>
      </trkpt>
      <trkpt lat="45.59127" lon="2.80643">
        <ele>1084.8000488281</ele>
        <time>2013-08-17T08:32:57.000Z</time>
      </trkpt>
      <trkpt lat="45.59135" lon="2.8066">
        <ele>1087.8000488281</ele>
        <time>2013-08-17T08:33:14.000Z</time>
      </trkpt>
      <trkpt lat="45.59139" lon="2.80673">
        <ele>1088.8000488281</ele>
        <time>2013-08-17T08:33:29.000Z</time>
      </trkpt>
      <trkpt lat="45.59137" lon="2.80694">
        <ele>1084.5999755859</ele>
        <time>2013-08-17T08:33:45.000Z</time>
      </trkpt>
      <trkpt lat="45.5914" lon="2.80716">
        <ele>1082.8000488281</ele>
        <time>2013-08-17T08:34:01.000Z</time>
      </trkpt>
      <trkpt lat="45.59139" lon="2.80732">
        <ele>1080</ele>
        <time>2013-08-17T08:34:18.000Z</time>
      </trkpt>
      <trkpt lat="45.59139" lon="2.80736">
        <ele>1079.4000244141</ele>
        <time>2013-08-17T08:34:38.000Z</time>
      </trkpt>
      <trkpt lat="45.59144" lon="2.80754">
        <ele>1078.8000488281</ele>
        <time>2013-08-17T08:34:54.000Z</time>
      </trkpt>
      <trkpt lat="45.59151" lon="2.80769">
        <ele>1080.1999511719</ele>
        <time>2013-08-17T08:35:12.000Z</time>
      </trkpt>
      <trkpt lat="45.59153" lon="2.80793">
        <ele>1080.5999755859</ele>
        <time>2013-08-17T08:35:29.000Z</time>
      </trkpt>
      <trkpt lat="45.59147" lon="2.80816">
        <ele>1078.1999511719</ele>
        <time>2013-08-17T08:35:46.000Z</time>
      </trkpt>
      <trkpt lat="45.59142" lon="2.80846">
        <ele>1076.1999511719</ele>
        <time>2013-08-17T08:36:05.000Z</time>
      </trkpt>
      <trkpt lat="45.59138" lon="2.80874">
        <ele>1076.1999511719</ele>
        <time>2013-08-17T08:36:23.000Z</time>
      </trkpt>
      <trkpt lat="45.59136" lon="2.80897">
        <ele>1076.5999755859</ele>
        <time>2013-08-17T08:36:42.000Z</time>
      </trkpt>
      <trkpt lat="45.59137" lon="2.80911">
        <ele>1077</ele>
        <time>2013-08-17T08:37:00.000Z</time>
      </trkpt>
      <trkpt lat="45.59139" lon="2.80933">
        <ele>1077.5999755859</ele>
        <time>2013-08-17T08:37:17.000Z</time>
      </trkpt>
      <trkpt lat="45.59142" lon="2.80946">
        <ele>1078</ele>
        <time>2013-08-17T08:37:32.000Z</time>
      </trkpt>
      <trkpt lat="45.59144" lon="2.80953">
        <ele>1078.4000244141</ele>
        <time>2013-08-17T08:37:37.000Z</time>
      </trkpt>
      <trkpt lat="45.59155" lon="2.80979">
        <ele>1079.8000488281</ele>
        <time>2013-08-17T08:37:55.000Z</time>
      </trkpt>
      <trkpt lat="45.59163" lon="2.8099">
        <ele>1081</ele>
        <time>2013-08-17T08:38:11.000Z</time>
      </trkpt>
      <trkpt lat="45.59165" lon="2.80992">
        <ele>1081.4000244141</ele>
        <time>2013-08-17T08:38:36.000Z</time>
      </trkpt>
      <trkpt lat="45.59166" lon="2.80993">
        <ele>1081.4000244141</ele>
        <time>2013-08-17T08:39:08.000Z</time>
      </trkpt>
      <trkpt lat="45.59166" lon="2.80997">
        <ele>1081.5999755859</ele>
        <time>2013-08-17T08:39:35.000Z</time>
      </trkpt>
      <trkpt lat="45.5917" lon="2.81009">
        <ele>1081.5999755859</ele>
        <time>2013-08-17T08:39:51.000Z</time>
      </trkpt>
      <trkpt lat="45.59172" lon="2.81012">
        <ele>1081.4000244141</ele>
        <time>2013-08-17T08:40:16.000Z</time>
      </trkpt>
      <trkpt lat="45.59182" lon="2.81028">
        <ele>1080.4000244141</ele>
        <time>2013-08-17T08:40:31.000Z</time>
      </trkpt>
      <trkpt lat="45.59189" lon="2.81034">
        <ele>1080.8000488281</ele>
        <time>2013-08-17T08:40:39.000Z</time>
      </trkpt>
      <trkpt lat="45.59209" lon="2.81042">
        <ele>1082.4000244141</ele>
        <time>2013-08-17T08:40:56.000Z</time>
      </trkpt>
      <trkpt lat="45.59229" lon="2.81047">
        <ele>1084.5999755859</ele>
        <time>2013-08-17T08:41:16.000Z</time>
      </trkpt>
      <trkpt lat="45.59245" lon="2.81047">
        <ele>1087.1999511719</ele>
        <time>2013-08-17T08:41:34.000Z</time>
      </trkpt>
      <trkpt lat="45.59258" lon="2.81046">
        <ele>1089.1999511719</ele>
        <time>2013-08-17T08:41:50.000Z</time>
      </trkpt>
      <trkpt lat="45.59278" lon="2.81045">
        <ele>1092.1999511719</ele>
        <time>2013-08-17T08:42:11.000Z</time>
      </trkpt>
      <trkpt lat="45.5929" lon="2.81041">
        <ele>1094.1999511719</ele>
        <time>2013-08-17T08:42:27.000Z</time>
      </trkpt>
      <trkpt lat="45.59304" lon="2.81043">
        <ele>1096.1999511719</ele>
        <time>2013-08-17T08:42:42.000Z</time>
      </trkpt>
      <trkpt lat="45.59312" lon="2.81032">
        <ele>1099.5999755859</ele>
        <time>2013-08-17T08:42:58.000Z</time>
      </trkpt>
      <trkpt lat="45.59316" lon="2.81037">
        <ele>1100.1999511719</ele>
        <time>2013-08-17T08:43:20.000Z</time>
      </trkpt>
      <trkpt lat="45.59317" lon="2.81047">
        <ele>1099.4000244141</ele>
        <time>2013-08-17T08:43:38.000Z</time>
      </trkpt>
      <trkpt lat="45.59314" lon="2.81052">
        <ele>1097.8000488281</ele>
        <time>2013-08-17T08:43:46.000Z</time>
      </trkpt>
      <trkpt lat="45.59309" lon="2.81057">
        <ele>1095.8000488281</ele>
        <time>2013-08-17T08:43:53.000Z</time>
      </trkpt>
      <trkpt lat="45.59293" lon="2.8107">
        <ele>1091</ele>
        <time>2013-08-17T08:44:11.000Z</time>
      </trkpt>
      <trkpt lat="45.59284" lon="2.8108">
        <ele>1088.4000244141</ele>
        <time>2013-08-17T08:44:28.000Z</time>
      </trkpt>
      <trkpt lat="45.59274" lon="2.81088">
        <ele>1086</ele>
        <time>2013-08-17T08:44:47.000Z</time>
      </trkpt>
      <trkpt lat="45.59263" lon="2.81106">
        <ele>1083.1999511719</ele>
        <time>2013-08-17T08:45:03.000Z</time>
      </trkpt>
      <trkpt lat="45.59259" lon="2.81133">
        <ele>1081.4000244141</ele>
        <time>2013-08-17T08:45:22.000Z</time>
      </trkpt>
      <trkpt lat="45.59258" lon="2.81154">
        <ele>1081.5999755859</ele>
        <time>2013-08-17T08:45:36.000Z</time>
      </trkpt>
      <trkpt lat="45.59254" lon="2.81172">
        <ele>1081.4000244141</ele>
        <time>2013-08-17T08:45:54.000Z</time>
      </trkpt>
      <trkpt lat="45.59239" lon="2.81191">
        <ele>1083</ele>
        <time>2013-08-17T08:46:11.000Z</time>
      </trkpt>
      <trkpt lat="45.59225" lon="2.81197">
        <ele>1082.5999755859</ele>
        <time>2013-08-17T08:46:27.000Z</time>
      </trkpt>
      <trkpt lat="45.59223" lon="2.81202">
        <ele>1083.1999511719</ele>
        <time>2013-08-17T08:46:43.000Z</time>
      </trkpt>
      <trkpt lat="45.59229" lon="2.81214">
        <ele>1085.5999755859</ele>
        <time>2013-08-17T08:46:58.000Z</time>
      </trkpt>
      <trkpt lat="45.59241" lon="2.81223">
        <ele>1088.1999511719</ele>
        <time>2013-08-17T08:47:18.000Z</time>
      </trkpt>
      <trkpt lat="45.59251" lon="2.81242">
        <ele>1092</ele>
        <time>2013-08-17T08:47:35.000Z</time>
      </trkpt>
      <trkpt lat="45.59259" lon="2.81259">
        <ele>1095.4000244141</ele>
        <time>2013-08-17T08:47:56.000Z</time>
      </trkpt>
      <trkpt lat="45.59264" lon="2.81273">
        <ele>1098.1999511719</ele>
        <time>2013-08-17T08:48:16.000Z</time>
      </trkpt>
      <trkpt lat="45.59269" lon="2.81292">
        <ele>1101.5999755859</ele>
        <time>2013-08-17T08:48:36.000Z</time>
      </trkpt>
      <trkpt lat="45.59271" lon="2.81307">
        <ele>1104</ele>
        <time>2013-08-17T08:48:56.000Z</time>
      </trkpt>
      <trkpt lat="45.59276" lon="2.81324">
        <ele>1105.8000488281</ele>
        <time>2013-08-17T08:49:14.000Z</time>
      </trkpt>
      <trkpt lat="45.59281" lon="2.81336">
        <ele>1107.5999755859</ele>
        <time>2013-08-17T08:49:33.000Z</time>
      </trkpt>
      <trkpt lat="45.59292" lon="2.81347">
        <ele>1110.1999511719</ele>
        <time>2013-08-17T08:49:52.000Z</time>
      </trkpt>
      <trkpt lat="45.59303" lon="2.81356">
        <ele>1112.8000488281</ele>
        <time>2013-08-17T08:50:10.000Z</time>
      </trkpt>
      <trkpt lat="45.5931" lon="2.8136">
        <ele>1114</ele>
        <time>2013-08-17T08:50:29.000Z</time>
      </trkpt>
      <trkpt lat="45.59311" lon="2.81361">
        <ele>1114.1999511719</ele>
        <time>2013-08-17T08:50:50.000Z</time>
      </trkpt>
      <trkpt lat="45.59313" lon="2.8136">
        <ele>1114.4000244141</ele>
        <time>2013-08-17T08:51:18.000Z</time>
      </trkpt>
      <trkpt lat="45.59314" lon="2.81361">
        <ele>1114.5999755859</ele>
        <time>2013-08-17T08:51:50.000Z</time>
      </trkpt>
      <trkpt lat="45.59314" lon="2.81362">
        <ele>1114.5999755859</ele>
        <time>2013-08-17T08:52:22.000Z</time>
      </trkpt>
      <trkpt lat="45.59314" lon="2.81361">
        <ele>1114.5999755859</ele>
        <time>2013-08-17T08:52:52.000Z</time>
      </trkpt>
      <trkpt lat="45.59314" lon="2.81362">
        <ele>1114.5999755859</ele>
        <time>2013-08-17T08:53:25.000Z</time>
      </trkpt>
      <trkpt lat="45.59314" lon="2.81361">
        <ele>1114.5999755859</ele>
        <time>2013-08-17T08:53:57.000Z</time>
      </trkpt>
      <trkpt lat="45.59311" lon="2.81365">
        <ele>1114.4000244141</ele>
        <time>2013-08-17T08:54:21.000Z</time>
      </trkpt>
      <trkpt lat="45.59304" lon="2.81363">
        <ele>1113.1999511719</ele>
        <time>2013-08-17T08:54:32.000Z</time>
      </trkpt>
      <trkpt lat="45.59312" lon="2.81361">
        <ele>1114.4000244141</ele>
        <time>2013-08-17T08:54:58.000Z</time>
      </trkpt>
      <trkpt lat="45.5931" lon="2.81365">
        <ele>1114.1999511719</ele>
        <time>2013-08-17T08:55:32.000Z</time>
      </trkpt>
      <trkpt lat="45.59311" lon="2.81362">
        <ele>1114.1999511719</ele>
        <time>2013-08-17T08:56:02.000Z</time>
      </trkpt>
      <trkpt lat="45.59313" lon="2.81361">
        <ele>1114.4000244141</ele>
        <time>2013-08-17T08:56:35.000Z</time>
      </trkpt>
      <trkpt lat="45.59318" lon="2.81365">
        <ele>1115.4000244141</ele>
        <time>2013-08-17T08:57:00.000Z</time>
      </trkpt>
      <trkpt lat="45.5932" lon="2.81367">
        <ele>1115.8000488281</ele>
        <time>2013-08-17T08:57:27.000Z</time>
      </trkpt>
      <trkpt lat="45.59332" lon="2.81372">
        <ele>1117.5999755859</ele>
        <time>2013-08-17T08:57:43.000Z</time>
      </trkpt>
      <trkpt lat="45.59341" lon="2.81377">
        <ele>1119</ele>
        <time>2013-08-17T08:58:00.000Z</time>
      </trkpt>
      <trkpt lat="45.59355" lon="2.81385">
        <ele>1121</ele>
        <time>2013-08-17T08:58:16.000Z</time>
      </trkpt>
      <trkpt lat="45.59363" lon="2.81393">
        <ele>1122.1999511719</ele>
        <time>2013-08-17T08:58:32.000Z</time>
      </trkpt>
      <trkpt lat="45.59376" lon="2.81402">
        <ele>1124.1999511719</ele>
        <time>2013-08-17T08:58:49.000Z</time>
      </trkpt>
      <trkpt lat="45.59379" lon="2.81405">
        <ele>1124.8000488281</ele>
        <time>2013-08-17T08:58:53.000Z</time>
      </trkpt>
      <trkpt lat="45.59389" lon="2.81414">
        <ele>1127</ele>
        <time>2013-08-17T08:59:08.000Z</time>
      </trkpt>
      <trkpt lat="45.59394" lon="2.81423">
        <ele>1128.8000488281</ele>
        <time>2013-08-17T08:59:22.000Z</time>
      </trkpt>
      <trkpt lat="45.59396" lon="2.81437">
        <ele>1129.1999511719</ele>
        <time>2013-08-17T08:59:37.000Z</time>
      </trkpt>
      <trkpt lat="45.59399" lon="2.81444">
        <ele>1130</ele>
        <time>2013-08-17T08:59:50.000Z</time>
      </trkpt>
      <trkpt lat="45.59401" lon="2.81453">
        <ele>1130.8000488281</ele>
        <time>2013-08-17T09:00:06.000Z</time>
      </trkpt>
      <trkpt lat="45.59405" lon="2.81466">
        <ele>1132</ele>
        <time>2013-08-17T09:00:19.000Z</time>
      </trkpt>
      <trkpt lat="45.59408" lon="2.81478">
        <ele>1133.1999511719</ele>
        <time>2013-08-17T09:00:36.000Z</time>
      </trkpt>
      <trkpt lat="45.59411" lon="2.81499">
        <ele>1134.8000488281</ele>
        <time>2013-08-17T09:00:54.000Z</time>
      </trkpt>
      <trkpt lat="45.59421" lon="2.81521">
        <ele>1136.1999511719</ele>
        <time>2013-08-17T09:01:09.000Z</time>
      </trkpt>
      <trkpt lat="45.59432" lon="2.81541">
        <ele>1137.1999511719</ele>
        <time>2013-08-17T09:01:27.000Z</time>
      </trkpt>
      <trkpt lat="45.59433" lon="2.81543">
        <ele>1137.1999511719</ele>
        <time>2013-08-17T09:01:28.000Z</time>
      </trkpt>
      <trkpt lat="45.59446" lon="2.81562">
        <ele>1138.5999755859</ele>
        <time>2013-08-17T09:01:45.000Z</time>
      </trkpt>
      <trkpt lat="45.5946" lon="2.81578">
        <ele>1140</ele>
        <time>2013-08-17T09:02:02.000Z</time>
      </trkpt>
      <trkpt lat="45.59472" lon="2.81585">
        <ele>1142.1999511719</ele>
        <time>2013-08-17T09:02:18.000Z</time>
      </trkpt>
      <trkpt lat="45.59489" lon="2.81588">
        <ele>1147.4000244141</ele>
        <time>2013-08-17T09:02:35.000Z</time>
      </trkpt>
      <trkpt lat="45.59501" lon="2.81582">
        <ele>1151.4000244141</ele>
        <time>2013-08-17T09:02:51.000Z</time>
      </trkpt>
      <trkpt lat="45.59513" lon="2.81563">
        <ele>1155.1999511719</ele>
        <time>2013-08-17T09:03:10.000Z</time>
      </trkpt>
      <trkpt lat="45.59513" lon="2.81561">
        <ele>1155.4000244141</ele>
        <time>2013-08-17T09:03:12.000Z</time>
      </trkpt>
      <trkpt lat="45.59515" lon="2.81544">
        <ele>1156.1999511719</ele>
        <time>2013-08-17T09:03:22.000Z</time>
      </trkpt>
      <trkpt lat="45.59517" lon="2.81535">
        <ele>1157.5999755859</ele>
        <time>2013-08-17T09:03:29.000Z</time>
      </trkpt>
      <trkpt lat="45.59522" lon="2.81519">
        <ele>1160</ele>
        <time>2013-08-17T09:03:44.000Z</time>
      </trkpt>
      <trkpt lat="45.59523" lon="2.81518">
        <ele>1160.5999755859</ele>
        <time>2013-08-17T09:03:58.000Z</time>
      </trkpt>
      <trkpt lat="45.59525" lon="2.81519">
        <ele>1161</ele>
        <time>2013-08-17T09:04:20.000Z</time>
      </trkpt>
      <trkpt lat="45.59526" lon="2.81516">
        <ele>1161.4000244141</ele>
        <time>2013-08-17T09:04:37.000Z</time>
      </trkpt>
      <trkpt lat="45.59526" lon="2.81513">
        <ele>1161.8000488281</ele>
        <time>2013-08-17T09:04:54.000Z</time>
      </trkpt>
      <trkpt lat="45.59527" lon="2.81512">
        <ele>1162</ele>
        <time>2013-08-17T09:05:14.000Z</time>
      </trkpt>
      <trkpt lat="45.59528" lon="2.81507">
        <ele>1162.5999755859</ele>
        <time>2013-08-17T09:05:30.000Z</time>
      </trkpt>
      <trkpt lat="45.5953" lon="2.81491">
        <ele>1163.8000488281</ele>
        <time>2013-08-17T09:05:43.000Z</time>
      </trkpt>
      <trkpt lat="45.59532" lon="2.81485">
        <ele>1164.5999755859</ele>
        <time>2013-08-17T09:05:58.000Z</time>
      </trkpt>
      <trkpt lat="45.59532" lon="2.81481">
        <ele>1165.4000244141</ele>
        <time>2013-08-17T09:06:10.000Z</time>
      </trkpt>
      <trkpt lat="45.59532" lon="2.8148">
        <ele>1165.4000244141</ele>
        <time>2013-08-17T09:06:33.000Z</time>
      </trkpt>
      <trkpt lat="45.59535" lon="2.81468">
        <ele>1167.8000488281</ele>
        <time>2013-08-17T09:06:47.000Z</time>
      </trkpt>
      <trkpt lat="45.59535" lon="2.81469">
        <ele>1167.8000488281</ele>
        <time>2013-08-17T09:07:07.000Z</time>
      </trkpt>
      <trkpt lat="45.59535" lon="2.81468">
        <ele>1168</ele>
        <time>2013-08-17T09:07:37.000Z</time>
      </trkpt>
      <trkpt lat="45.59535" lon="2.81468">
        <ele>1168</ele>
        <time>2013-08-17T09:08:07.000Z</time>
      </trkpt>
      <trkpt lat="45.59535" lon="2.81469">
        <ele>1168</ele>
        <time>2013-08-17T09:08:29.000Z</time>
      </trkpt>
      <trkpt lat="45.59535" lon="2.81469">
        <ele>1168</ele>
        <time>2013-08-17T09:08:56.000Z</time>
      </trkpt>
      <trkpt lat="45.59535" lon="2.81469">
        <ele>1168</ele>
        <time>2013-08-17T09:09:24.000Z</time>
      </trkpt>
      <trkpt lat="45.59535" lon="2.81469">
        <ele>1168</ele>
        <time>2013-08-17T09:09:56.000Z</time>
      </trkpt>
      <trkpt lat="45.59535" lon="2.81467">
        <ele>1168.4000244141</ele>
        <time>2013-08-17T09:10:15.000Z</time>
      </trkpt>
      <trkpt lat="45.59536" lon="2.81462">
        <ele>1169.4000244141</ele>
        <time>2013-08-17T09:10:30.000Z</time>
      </trkpt>
      <trkpt lat="45.59543" lon="2.81463">
        <ele>1172.1999511719</ele>
        <time>2013-08-17T09:10:42.000Z</time>
      </trkpt>
      <trkpt lat="45.59547" lon="2.81471">
        <ele>1173.1999511719</ele>
        <time>2013-08-17T09:10:57.000Z</time>
      </trkpt>
      <trkpt lat="45.59554" lon="2.81484">
        <ele>1174.5999755859</ele>
        <time>2013-08-17T09:11:12.000Z</time>
      </trkpt>
      <trkpt lat="45.59561" lon="2.81493">
        <ele>1176.5999755859</ele>
        <time>2013-08-17T09:11:27.000Z</time>
      </trkpt>
      <trkpt lat="45.59566" lon="2.81497">
        <ele>1178</ele>
        <time>2013-08-17T09:11:40.000Z</time>
      </trkpt>
      <trkpt lat="45.59573" lon="2.81502">
        <ele>1180.4000244141</ele>
        <time>2013-08-17T09:11:59.000Z</time>
      </trkpt>
      <trkpt lat="45.59584" lon="2.81511">
        <ele>1183.8000488281</ele>
        <time>2013-08-17T09:12:16.000Z</time>
      </trkpt>
      <trkpt lat="45.59594" lon="2.81524">
        <ele>1186.4000244141</ele>
        <time>2013-08-17T09:12:32.000Z</time>
      </trkpt>
      <trkpt lat="45.59595" lon="2.81526">
        <ele>1186.8000488281</ele>
        <time>2013-08-17T09:12:53.000Z</time>
      </trkpt>
      <trkpt lat="45.59597" lon="2.81529">
        <ele>1187.4000244141</ele>
        <time>2013-08-17T09:13:08.000Z</time>
      </trkpt>
      <trkpt lat="45.59604" lon="2.81536">
        <ele>1189.1999511719</ele>
        <time>2013-08-17T09:13:24.000Z</time>
      </trkpt>
      <trkpt lat="45.59609" lon="2.81541">
        <ele>1190.8000488281</ele>
        <time>2013-08-17T09:13:37.000Z</time>
      </trkpt>
      <trkpt lat="45.59615" lon="2.81545">
        <ele>1192.8000488281</ele>
        <time>2013-08-17T09:13:50.000Z</time>
      </trkpt>
      <trkpt lat="45.59621" lon="2.81548">
        <ele>1195.1999511719</ele>
        <time>2013-08-17T09:14:02.000Z</time>
      </trkpt>
      <trkpt lat="45.59629" lon="2.81549">
        <ele>1198.4000244141</ele>
        <time>2013-08-17T09:14:17.000Z</time>
      </trkpt>
      <trkpt lat="45.59636" lon="2.81547">
        <ele>1201.1999511719</ele>
        <time>2013-08-17T09:14:33.000Z</time>
      </trkpt>
      <trkpt lat="45.59638" lon="2.81529">
        <ele>1204</ele>
        <time>2013-08-17T09:14:50.000Z</time>
      </trkpt>
      <trkpt lat="45.59637" lon="2.81518">
        <ele>1205</ele>
        <time>2013-08-17T09:15:06.000Z</time>
      </trkpt>
      <trkpt lat="45.5964" lon="2.81505">
        <ele>1207.1999511719</ele>
        <time>2013-08-17T09:15:22.000Z</time>
      </trkpt>
      <trkpt lat="45.59645" lon="2.81498">
        <ele>1208.5999755859</ele>
        <time>2013-08-17T09:15:40.000Z</time>
      </trkpt>
      <trkpt lat="45.59653" lon="2.81494">
        <ele>1211</ele>
        <time>2013-08-17T09:15:56.000Z</time>
      </trkpt>
      <trkpt lat="45.59659" lon="2.81491">
        <ele>1212.5999755859</ele>
        <time>2013-08-17T09:16:13.000Z</time>
      </trkpt>
      <trkpt lat="45.59664" lon="2.8149">
        <ele>1213.8000488281</ele>
        <time>2013-08-17T09:16:31.000Z</time>
      </trkpt>
      <trkpt lat="45.59673" lon="2.81496">
        <ele>1215.4000244141</ele>
        <time>2013-08-17T09:16:48.000Z</time>
      </trkpt>
      <trkpt lat="45.59676" lon="2.815">
        <ele>1215.8000488281</ele>
        <time>2013-08-17T09:17:05.000Z</time>
      </trkpt>
      <trkpt lat="45.59678" lon="2.81509">
        <ele>1215.4000244141</ele>
        <time>2013-08-17T09:17:19.000Z</time>
      </trkpt>
      <trkpt lat="45.59689" lon="2.81529">
        <ele>1216.1999511719</ele>
        <time>2013-08-17T09:17:35.000Z</time>
      </trkpt>
      <trkpt lat="45.59694" lon="2.81537">
        <ele>1216.8000488281</ele>
        <time>2013-08-17T09:17:50.000Z</time>
      </trkpt>
      <trkpt lat="45.59708" lon="2.81545">
        <ele>1219.1999511719</ele>
        <time>2013-08-17T09:18:06.000Z</time>
      </trkpt>
      <trkpt lat="45.59714" lon="2.81552">
        <ele>1220.1999511719</ele>
        <time>2013-08-17T09:18:20.000Z</time>
      </trkpt>
      <trkpt lat="45.59716" lon="2.81554">
        <ele>1220.4000244141</ele>
        <time>2013-08-17T09:18:32.000Z</time>
      </trkpt>
      <trkpt lat="45.59722" lon="2.81564">
        <ele>1220.8000488281</ele>
        <time>2013-08-17T09:18:46.000Z</time>
      </trkpt>
      <trkpt lat="45.59731" lon="2.81576">
        <ele>1222.1999511719</ele>
        <time>2013-08-17T09:19:02.000Z</time>
      </trkpt>
      <trkpt lat="45.59742" lon="2.81587">
        <ele>1223.8000488281</ele>
        <time>2013-08-17T09:19:19.000Z</time>
      </trkpt>
      <trkpt lat="45.59746" lon="2.81592">
        <ele>1224.5999755859</ele>
        <time>2013-08-17T09:19:24.000Z</time>
      </trkpt>
      <trkpt lat="45.5975" lon="2.81585">
        <ele>1226</ele>
        <time>2013-08-17T09:19:37.000Z</time>
      </trkpt>
      <trkpt lat="45.59753" lon="2.81561">
        <ele>1228.5999755859</ele>
        <time>2013-08-17T09:19:54.000Z</time>
      </trkpt>
      <trkpt lat="45.59756" lon="2.81538">
        <ele>1231</ele>
        <time>2013-08-17T09:20:11.000Z</time>
      </trkpt>
      <trkpt lat="45.59761" lon="2.81529">
        <ele>1232.5999755859</ele>
        <time>2013-08-17T09:20:28.000Z</time>
      </trkpt>
      <trkpt lat="45.59766" lon="2.81522">
        <ele>1234</ele>
        <time>2013-08-17T09:20:40.000Z</time>
      </trkpt>
      <trkpt lat="45.59769" lon="2.81509">
        <ele>1235.1999511719</ele>
        <time>2013-08-17T09:20:54.000Z</time>
      </trkpt>
      <trkpt lat="45.59775" lon="2.81498">
        <ele>1236.8000488281</ele>
        <time>2013-08-17T09:21:10.000Z</time>
      </trkpt>
      <trkpt lat="45.59778" lon="2.81493">
        <ele>1237.5999755859</ele>
        <time>2013-08-17T09:21:27.000Z</time>
      </trkpt>
      <trkpt lat="45.59784" lon="2.81471">
        <ele>1239.1999511719</ele>
        <time>2013-08-17T09:21:44.000Z</time>
      </trkpt>
      <trkpt lat="45.59783" lon="2.81465">
        <ele>1239.1999511719</ele>
        <time>2013-08-17T09:21:55.000Z</time>
      </trkpt>
      <trkpt lat="45.59783" lon="2.81465">
        <ele>1239.1999511719</ele>
        <time>2013-08-17T09:22:20.000Z</time>
      </trkpt>
      <trkpt lat="45.59783" lon="2.81465">
        <ele>1239.1999511719</ele>
        <time>2013-08-17T09:22:43.000Z</time>
      </trkpt>
      <trkpt lat="45.59783" lon="2.81465">
        <ele>1239.1999511719</ele>
        <time>2013-08-17T09:23:20.000Z</time>
      </trkpt>
      <trkpt lat="45.59784" lon="2.81465">
        <ele>1239.1999511719</ele>
        <time>2013-08-17T09:23:47.000Z</time>
      </trkpt>
      <trkpt lat="45.59784" lon="2.81464">
        <ele>1239.4000244141</ele>
        <time>2013-08-17T09:24:09.000Z</time>
      </trkpt>
      <trkpt lat="45.59784" lon="2.81464">
        <ele>1239.4000244141</ele>
        <time>2013-08-17T09:24:33.000Z</time>
      </trkpt>
      <trkpt lat="45.59785" lon="2.81463">
        <ele>1239.4000244141</ele>
        <time>2013-08-17T09:24:51.000Z</time>
      </trkpt>
      <trkpt lat="45.59786" lon="2.81463">
        <ele>1239.8000488281</ele>
        <time>2013-08-17T09:25:07.000Z</time>
      </trkpt>
      <trkpt lat="45.59786" lon="2.81463">
        <ele>1239.5999755859</ele>
        <time>2013-08-17T09:25:28.000Z</time>
      </trkpt>
      <trkpt lat="45.59785" lon="2.81463">
        <ele>1239.5999755859</ele>
        <time>2013-08-17T09:25:48.000Z</time>
      </trkpt>
      <trkpt lat="45.59785" lon="2.81463">
        <ele>1239.5999755859</ele>
        <time>2013-08-17T09:26:18.000Z</time>
      </trkpt>
      <trkpt lat="45.59786" lon="2.81463">
        <ele>1239.5999755859</ele>
        <time>2013-08-17T09:26:42.000Z</time>
      </trkpt>
      <trkpt lat="45.59786" lon="2.81463">
        <ele>1239.5999755859</ele>
        <time>2013-08-17T09:27:03.000Z</time>
      </trkpt>
      <trkpt lat="45.59786" lon="2.81463">
        <ele>1239.5999755859</ele>
        <time>2013-08-17T09:27:24.000Z</time>
      </trkpt>
      <trkpt lat="45.59786" lon="2.81464">
        <ele>1239.8000488281</ele>
        <time>2013-08-17T09:27:47.000Z</time>
      </trkpt>
      <trkpt lat="45.59786" lon="2.81463">
        <ele>1239.8000488281</ele>
        <time>2013-08-17T09:28:12.000Z</time>
      </trkpt>
      <trkpt lat="45.59787" lon="2.81463">
        <ele>1239.8000488281</ele>
        <time>2013-08-17T09:28:35.000Z</time>
      </trkpt>
      <trkpt lat="45.59787" lon="2.81464">
        <ele>1239.8000488281</ele>
        <time>2013-08-17T09:28:59.000Z</time>
      </trkpt>
      <trkpt lat="45.59787" lon="2.81463">
        <ele>1239.8000488281</ele>
        <time>2013-08-17T09:29:35.000Z</time>
      </trkpt>
      <trkpt lat="45.59787" lon="2.81463">
        <ele>1239.8000488281</ele>
        <time>2013-08-17T09:30:02.000Z</time>
      </trkpt>
      <trkpt lat="45.59787" lon="2.81463">
        <ele>1239.8000488281</ele>
        <time>2013-08-17T09:30:25.000Z</time>
      </trkpt>
      <trkpt lat="45.59787" lon="2.81463">
        <ele>1239.8000488281</ele>
        <time>2013-08-17T09:30:43.000Z</time>
      </trkpt>
      <trkpt lat="45.59784" lon="2.81463">
        <ele>1239.4000244141</ele>
        <time>2013-08-17T09:30:57.000Z</time>
      </trkpt>
      <trkpt lat="45.59786" lon="2.81457">
        <ele>1239.5999755859</ele>
        <time>2013-08-17T09:31:15.000Z</time>
      </trkpt>
      <trkpt lat="45.59792" lon="2.81445">
        <ele>1241</ele>
        <time>2013-08-17T09:31:28.000Z</time>
      </trkpt>
      <trkpt lat="45.59803" lon="2.81426">
        <ele>1243.4000244141</ele>
        <time>2013-08-17T09:31:43.000Z</time>
      </trkpt>
      <trkpt lat="45.59807" lon="2.81421">
        <ele>1244.5999755859</ele>
        <time>2013-08-17T09:31:48.000Z</time>
      </trkpt>
      <trkpt lat="45.59819" lon="2.81398">
        <ele>1248.4000244141</ele>
        <time>2013-08-17T09:32:06.000Z</time>
      </trkpt>
      <trkpt lat="45.59824" lon="2.81385">
        <ele>1249.8000488281</ele>
        <time>2013-08-17T09:32:18.000Z</time>
      </trkpt>
      <trkpt lat="45.59831" lon="2.81367">
        <ele>1252.1999511719</ele>
        <time>2013-08-17T09:32:33.000Z</time>
      </trkpt>
      <trkpt lat="45.59833" lon="2.8136">
        <ele>1252.4000244141</ele>
        <time>2013-08-17T09:32:39.000Z</time>
      </trkpt>
      <trkpt lat="45.5984" lon="2.81346">
        <ele>1253</ele>
        <time>2013-08-17T09:32:53.000Z</time>
      </trkpt>
      <trkpt lat="45.59844" lon="2.81333">
        <ele>1253.4000244141</ele>
        <time>2013-08-17T09:33:07.000Z</time>
      </trkpt>
      <trkpt lat="45.59849" lon="2.8132">
        <ele>1254.1999511719</ele>
        <time>2013-08-17T09:33:17.000Z</time>
      </trkpt>
      <trkpt lat="45.59851" lon="2.81317">
        <ele>1254.8000488281</ele>
        <time>2013-08-17T09:33:31.000Z</time>
      </trkpt>
      <trkpt lat="45.5986" lon="2.81302">
        <ele>1256.4000244141</ele>
        <time>2013-08-17T09:33:47.000Z</time>
      </trkpt>
      <trkpt lat="45.59873" lon="2.81296">
        <ele>1259.5999755859</ele>
        <time>2013-08-17T09:34:04.000Z</time>
      </trkpt>
      <trkpt lat="45.59879" lon="2.81294">
        <ele>1260.8000488281</ele>
        <time>2013-08-17T09:34:18.000Z</time>
      </trkpt>
      <trkpt lat="45.59882" lon="2.81297">
        <ele>1261.5999755859</ele>
        <time>2013-08-17T09:34:26.000Z</time>
      </trkpt>
      <trkpt lat="45.59889" lon="2.81298">
        <ele>1263.4000244141</ele>
        <time>2013-08-17T09:34:39.000Z</time>
      </trkpt>
      <trkpt lat="45.59888" lon="2.81304">
        <ele>1263.1999511719</ele>
        <time>2013-08-17T09:34:51.000Z</time>
      </trkpt>
      <trkpt lat="45.59889" lon="2.81307">
        <ele>1263.8000488281</ele>
        <time>2013-08-17T09:35:10.000Z</time>
      </trkpt>
      <trkpt lat="45.59901" lon="2.81302">
        <ele>1266</ele>
        <time>2013-08-17T09:35:24.000Z</time>
      </trkpt>
      <trkpt lat="45.59912" lon="2.81303">
        <ele>1268.1999511719</ele>
        <time>2013-08-17T09:35:41.000Z</time>
      </trkpt>
      <trkpt lat="45.59923" lon="2.81311">
        <ele>1270.8000488281</ele>
        <time>2013-08-17T09:35:56.000Z</time>
      </trkpt>
      <trkpt lat="45.59938" lon="2.81317">
        <ele>1274.1999511719</ele>
        <time>2013-08-17T09:36:13.000Z</time>
      </trkpt>
      <trkpt lat="45.59945" lon="2.81315">
        <ele>1275.4000244141</ele>
        <time>2013-08-17T09:36:26.000Z</time>
      </trkpt>
      <trkpt lat="45.59953" lon="2.81312">
        <ele>1276.4000244141</ele>
        <time>2013-08-17T09:36:40.000Z</time>
      </trkpt>
      <trkpt lat="45.59959" lon="2.81311">
        <ele>1277.1999511719</ele>
        <time>2013-08-17T09:36:55.000Z</time>
      </trkpt>
      <trkpt lat="45.59962" lon="2.81308">
        <ele>1277.4000244141</ele>
        <time>2013-08-17T09:37:06.000Z</time>
      </trkpt>
      <trkpt lat="45.59968" lon="2.81307">
        <ele>1278.1999511719</ele>
        <time>2013-08-17T09:37:21.000Z</time>
      </trkpt>
      <trkpt lat="45.59971" lon="2.81306">
        <ele>1278.5999755859</ele>
        <time>2013-08-17T09:37:35.000Z</time>
      </trkpt>
      <trkpt lat="45.59981" lon="2.81303">
        <ele>1279.8000488281</ele>
        <time>2013-08-17T09:37:52.000Z</time>
      </trkpt>
      <trkpt lat="45.59992" lon="2.81293">
        <ele>1280.5999755859</ele>
        <time>2013-08-17T09:38:08.000Z</time>
      </trkpt>
      <trkpt lat="45.60004" lon="2.81284">
        <ele>1282</ele>
        <time>2013-08-17T09:38:21.000Z</time>
      </trkpt>
      <trkpt lat="45.60012" lon="2.81282">
        <ele>1283.4000244141</ele>
        <time>2013-08-17T09:38:33.000Z</time>
      </trkpt>
      <trkpt lat="45.60025" lon="2.81284">
        <ele>1286</ele>
        <time>2013-08-17T09:38:49.000Z</time>
      </trkpt>
      <trkpt lat="45.60034" lon="2.81286">
        <ele>1287.5999755859</ele>
        <time>2013-08-17T09:39:02.000Z</time>
      </trkpt>
      <trkpt lat="45.60045" lon="2.81286">
        <ele>1289.8000488281</ele>
        <time>2013-08-17T09:39:18.000Z</time>
      </trkpt>
      <trkpt lat="45.60058" lon="2.81286">
        <ele>1292</ele>
        <time>2013-08-17T09:39:33.000Z</time>
      </trkpt>
      <trkpt lat="45.60063" lon="2.81288">
        <ele>1292.8000488281</ele>
        <time>2013-08-17T09:39:47.000Z</time>
      </trkpt>
      <trkpt lat="45.6007" lon="2.81292">
        <ele>1294</ele>
        <time>2013-08-17T09:40:02.000Z</time>
      </trkpt>
      <trkpt lat="45.60077" lon="2.81293">
        <ele>1295</ele>
        <time>2013-08-17T09:40:13.000Z</time>
      </trkpt>
      <trkpt lat="45.60083" lon="2.81293">
        <ele>1295.8000488281</ele>
        <time>2013-08-17T09:40:28.000Z</time>
      </trkpt>
      <trkpt lat="45.60089" lon="2.8129">
        <ele>1296.5999755859</ele>
        <time>2013-08-17T09:40:42.000Z</time>
      </trkpt>
      <trkpt lat="45.6009" lon="2.81291">
        <ele>1296.8000488281</ele>
        <time>2013-08-17T09:41:09.000Z</time>
      </trkpt>
      <trkpt lat="45.6009" lon="2.81292">
        <ele>1296.8000488281</ele>
        <time>2013-08-17T09:41:42.000Z</time>
      </trkpt>
      <trkpt lat="45.6009" lon="2.81292">
        <ele>1297</ele>
        <time>2013-08-17T09:42:12.000Z</time>
      </trkpt>
      <trkpt lat="45.60094" lon="2.81291">
        <ele>1297.5999755859</ele>
        <time>2013-08-17T09:42:26.000Z</time>
      </trkpt>
      <trkpt lat="45.60106" lon="2.81289">
        <ele>1299.8000488281</ele>
        <time>2013-08-17T09:42:40.000Z</time>
      </trkpt>
      <trkpt lat="45.60107" lon="2.8129">
        <ele>1300</ele>
        <time>2013-08-17T09:43:08.000Z</time>
      </trkpt>
      <trkpt lat="45.60115" lon="2.81289">
        <ele>1301.4000244141</ele>
        <time>2013-08-17T09:43:20.000Z</time>
      </trkpt>
      <trkpt lat="45.60131" lon="2.81287">
        <ele>1304.1999511719</ele>
        <time>2013-08-17T09:43:38.000Z</time>
      </trkpt>
      <trkpt lat="45.60143" lon="2.81286">
        <ele>1306</ele>
        <time>2013-08-17T09:43:52.000Z</time>
      </trkpt>
      <trkpt lat="45.60144" lon="2.81286">
        <ele>1306</ele>
        <time>2013-08-17T09:43:53.000Z</time>
      </trkpt>
      <trkpt lat="45.60157" lon="2.81284">
        <ele>1307.5999755859</ele>
        <time>2013-08-17T09:44:09.000Z</time>
      </trkpt>
      <trkpt lat="45.60162" lon="2.81284">
        <ele>1308.1999511719</ele>
        <time>2013-08-17T09:44:25.000Z</time>
      </trkpt>
      <trkpt lat="45.60162" lon="2.81285">
        <ele>1308.1999511719</ele>
        <time>2013-08-17T09:44:45.000Z</time>
      </trkpt>
      <trkpt lat="45.60163" lon="2.81284">
        <ele>1308.1999511719</ele>
        <time>2013-08-17T09:45:13.000Z</time>
      </trkpt>
      <trkpt lat="45.60172" lon="2.81284">
        <ele>1309.5999755859</ele>
        <time>2013-08-17T09:45:28.000Z</time>
      </trkpt>
      <trkpt lat="45.60188" lon="2.81282">
        <ele>1311.5999755859</ele>
        <time>2013-08-17T09:45:44.000Z</time>
      </trkpt>
      <trkpt lat="45.60198" lon="2.8128">
        <ele>1313</ele>
        <time>2013-08-17T09:46:00.000Z</time>
      </trkpt>
      <trkpt lat="45.60208" lon="2.8128">
        <ele>1314.4000244141</ele>
        <time>2013-08-17T09:46:12.000Z</time>
      </trkpt>
      <trkpt lat="45.60211" lon="2.81279">
        <ele>1314.8000488281</ele>
        <time>2013-08-17T09:46:15.000Z</time>
      </trkpt>
      <trkpt lat="45.60222" lon="2.81277">
        <ele>1316.1999511719</ele>
        <time>2013-08-17T09:46:31.000Z</time>
      </trkpt>
      <trkpt lat="45.60233" lon="2.81275">
        <ele>1317.5999755859</ele>
        <time>2013-08-17T09:46:45.000Z</time>
      </trkpt>
      <trkpt lat="45.60244" lon="2.81275">
        <ele>1319.1999511719</ele>
        <time>2013-08-17T09:47:00.000Z</time>
      </trkpt>
      <trkpt lat="45.60252" lon="2.81274">
        <ele>1320.1999511719</ele>
        <time>2013-08-17T09:47:13.000Z</time>
      </trkpt>
      <trkpt lat="45.60261" lon="2.81271">
        <ele>1321.4000244141</ele>
        <time>2013-08-17T09:47:27.000Z</time>
      </trkpt>
      <trkpt lat="45.60265" lon="2.8127">
        <ele>1322</ele>
        <time>2013-08-17T09:47:40.000Z</time>
      </trkpt>
      <trkpt lat="45.60269" lon="2.81269">
        <ele>1322.4000244141</ele>
        <time>2013-08-17T09:47:56.000Z</time>
      </trkpt>
      <trkpt lat="45.6028" lon="2.81267">
        <ele>1324</ele>
        <time>2013-08-17T09:48:08.000Z</time>
      </trkpt>
      <trkpt lat="45.60293" lon="2.81268">
        <ele>1325.8000488281</ele>
        <time>2013-08-17T09:48:22.000Z</time>
      </trkpt>
      <trkpt lat="45.60299" lon="2.81264">
        <ele>1326.5999755859</ele>
        <time>2013-08-17T09:48:38.000Z</time>
      </trkpt>
      <trkpt lat="45.60312" lon="2.81257">
        <ele>1327.8000488281</ele>
        <time>2013-08-17T09:48:52.000Z</time>
      </trkpt>
      <trkpt lat="45.60327" lon="2.81251">
        <ele>1328.8000488281</ele>
        <time>2013-08-17T09:49:07.000Z</time>
      </trkpt>
      <trkpt lat="45.60346" lon="2.81244">
        <ele>1330.4000244141</ele>
        <time>2013-08-17T09:49:25.000Z</time>
      </trkpt>
      <trkpt lat="45.60365" lon="2.8124">
        <ele>1332</ele>
        <time>2013-08-17T09:49:43.000Z</time>
      </trkpt>
      <trkpt lat="45.60368" lon="2.81239">
        <ele>1332.1999511719</ele>
        <time>2013-08-17T09:49:45.000Z</time>
      </trkpt>
      <trkpt lat="45.60373" lon="2.81239">
        <ele>1332.5999755859</ele>
        <time>2013-08-17T09:49:50.000Z</time>
      </trkpt>
      <trkpt lat="45.60389" lon="2.81237">
        <ele>1334</ele>
        <time>2013-08-17T09:50:06.000Z</time>
      </trkpt>
      <trkpt lat="45.60408" lon="2.81236">
        <ele>1335.5999755859</ele>
        <time>2013-08-17T09:50:24.000Z</time>
      </trkpt>
      <trkpt lat="45.60426" lon="2.81231">
        <ele>1337.1999511719</ele>
        <time>2013-08-17T09:50:41.000Z</time>
      </trkpt>
      <trkpt lat="45.60442" lon="2.8123">
        <ele>1338.8000488281</ele>
        <time>2013-08-17T09:50:57.000Z</time>
      </trkpt>
      <trkpt lat="45.60448" lon="2.81228">
        <ele>1339</ele>
        <time>2013-08-17T09:51:10.000Z</time>
      </trkpt>
      <trkpt lat="45.60454" lon="2.81227">
        <ele>1339.4000244141</ele>
        <time>2013-08-17T09:51:36.000Z</time>
      </trkpt>
      <trkpt lat="45.60461" lon="2.81226">
        <ele>1339.5999755859</ele>
        <time>2013-08-17T09:51:49.000Z</time>
      </trkpt>
      <trkpt lat="45.60481" lon="2.8122">
        <ele>1340.5999755859</ele>
        <time>2013-08-17T09:52:08.000Z</time>
      </trkpt>
      <trkpt lat="45.60484" lon="2.81218">
        <ele>1340.8000488281</ele>
        <time>2013-08-17T09:52:12.000Z</time>
      </trkpt>
      <trkpt lat="45.6049" lon="2.81215">
        <ele>1341</ele>
        <time>2013-08-17T09:52:26.000Z</time>
      </trkpt>
      <trkpt lat="45.60509" lon="2.81207">
        <ele>1342</ele>
        <time>2013-08-17T09:52:45.000Z</time>
      </trkpt>
      <trkpt lat="45.60517" lon="2.81203">
        <ele>1342.4000244141</ele>
        <time>2013-08-17T09:52:53.000Z</time>
      </trkpt>
      <trkpt lat="45.60531" lon="2.81195">
        <ele>1343</ele>
        <time>2013-08-17T09:53:08.000Z</time>
      </trkpt>
      <trkpt lat="45.60548" lon="2.81186">
        <ele>1343.8000488281</ele>
        <time>2013-08-17T09:53:26.000Z</time>
      </trkpt>
      <trkpt lat="45.60548" lon="2.81186">
        <ele>1343.8000488281</ele>
        <time>2013-08-17T09:53:27.000Z</time>
      </trkpt>
      <trkpt lat="45.60566" lon="2.81177">
        <ele>1343.5999755859</ele>
        <time>2013-08-17T09:53:44.000Z</time>
      </trkpt>
      <trkpt lat="45.60572" lon="2.81174">
        <ele>1343.4000244141</ele>
        <time>2013-08-17T09:53:50.000Z</time>
      </trkpt>
      <trkpt lat="45.60575" lon="2.81171">
        <ele>1343.1999511719</ele>
        <time>2013-08-17T09:53:54.000Z</time>
      </trkpt>
      <trkpt lat="45.60581" lon="2.81161">
        <ele>1342.8000488281</ele>
        <time>2013-08-17T09:54:03.000Z</time>
      </trkpt>
      <trkpt lat="45.6059" lon="2.81148">
        <ele>1342.4000244141</ele>
        <time>2013-08-17T09:54:15.000Z</time>
      </trkpt>
      <trkpt lat="45.60602" lon="2.81134">
        <ele>1341.5999755859</ele>
        <time>2013-08-17T09:54:32.000Z</time>
      </trkpt>
      <trkpt lat="45.60609" lon="2.81124">
        <ele>1340.8000488281</ele>
        <time>2013-08-17T09:54:42.000Z</time>
      </trkpt>
      <trkpt lat="45.60612" lon="2.81122">
        <ele>1340.5999755859</ele>
        <time>2013-08-17T09:54:45.000Z</time>
      </trkpt>
      <trkpt lat="45.60621" lon="2.81105">
        <ele>1339.4000244141</ele>
        <time>2013-08-17T09:55:00.000Z</time>
      </trkpt>
      <trkpt lat="45.60632" lon="2.8108">
        <ele>1338</ele>
        <time>2013-08-17T09:55:19.000Z</time>
      </trkpt>
      <trkpt lat="45.60637" lon="2.81059">
        <ele>1336.8000488281</ele>
        <time>2013-08-17T09:55:33.000Z</time>
      </trkpt>
      <trkpt lat="45.60638" lon="2.8103">
        <ele>1335.8000488281</ele>
        <time>2013-08-17T09:55:53.000Z</time>
      </trkpt>
      <trkpt lat="45.60637" lon="2.81005">
        <ele>1335</ele>
        <time>2013-08-17T09:56:09.000Z</time>
      </trkpt>
      <trkpt lat="45.60633" lon="2.80969">
        <ele>1334.4000244141</ele>
        <time>2013-08-17T09:56:31.000Z</time>
      </trkpt>
      <trkpt lat="45.60631" lon="2.80946">
        <ele>1334</ele>
        <time>2013-08-17T09:56:47.000Z</time>
      </trkpt>
      <trkpt lat="45.6063" lon="2.80926">
        <ele>1333.5999755859</ele>
        <time>2013-08-17T09:57:06.000Z</time>
      </trkpt>
      <trkpt lat="45.60627" lon="2.80905">
        <ele>1333.4000244141</ele>
        <time>2013-08-17T09:57:21.000Z</time>
      </trkpt>
      <trkpt lat="45.60626" lon="2.80883">
        <ele>1332.5999755859</ele>
        <time>2013-08-17T09:57:34.000Z</time>
      </trkpt>
      <trkpt lat="45.60617" lon="2.80851">
        <ele>1332.5999755859</ele>
        <time>2013-08-17T09:57:54.000Z</time>
      </trkpt>
      <trkpt lat="45.60609" lon="2.80826">
        <ele>1333</ele>
        <time>2013-08-17T09:58:11.000Z</time>
      </trkpt>
      <trkpt lat="45.60602" lon="2.808">
        <ele>1333.5999755859</ele>
        <time>2013-08-17T09:58:28.000Z</time>
      </trkpt>
      <trkpt lat="45.60592" lon="2.80776">
        <ele>1334.5999755859</ele>
        <time>2013-08-17T09:58:46.000Z</time>
      </trkpt>
      <trkpt lat="45.60587" lon="2.8077">
        <ele>1335.1999511719</ele>
        <time>2013-08-17T09:58:53.000Z</time>
      </trkpt>
      <trkpt lat="45.60581" lon="2.80762">
        <ele>1335.8000488281</ele>
        <time>2013-08-17T09:59:07.000Z</time>
      </trkpt>
      <trkpt lat="45.60582" lon="2.80757">
        <ele>1335.8000488281</ele>
        <time>2013-08-17T09:59:17.000Z</time>
      </trkpt>
      <trkpt lat="45.60584" lon="2.80745">
        <ele>1335.5999755859</ele>
        <time>2013-08-17T09:59:29.000Z</time>
      </trkpt>
      <trkpt lat="45.60585" lon="2.80741">
        <ele>1335.4000244141</ele>
        <time>2013-08-17T09:59:42.000Z</time>
      </trkpt>
      <trkpt lat="45.60585" lon="2.80738">
        <ele>1335.4000244141</ele>
        <time>2013-08-17T10:00:01.000Z</time>
      </trkpt>
      <trkpt lat="45.60591" lon="2.80716">
        <ele>1334.8000488281</ele>
        <time>2013-08-17T10:00:19.000Z</time>
      </trkpt>
      <trkpt lat="45.60592" lon="2.80709">
        <ele>1334.8000488281</ele>
        <time>2013-08-17T10:00:33.000Z</time>
      </trkpt>
      <trkpt lat="45.60592" lon="2.80708">
        <ele>1334.8000488281</ele>
        <time>2013-08-17T10:00:59.000Z</time>
      </trkpt>
      <trkpt lat="45.60597" lon="2.80687">
        <ele>1334.8000488281</ele>
        <time>2013-08-17T10:01:14.000Z</time>
      </trkpt>
      <trkpt lat="45.60599" lon="2.80662">
        <ele>1335.1999511719</ele>
        <time>2013-08-17T10:01:31.000Z</time>
      </trkpt>
      <trkpt lat="45.606" lon="2.80655">
        <ele>1335.4000244141</ele>
        <time>2013-08-17T10:01:36.000Z</time>
      </trkpt>
      <trkpt lat="45.60598" lon="2.80639">
        <ele>1336</ele>
        <time>2013-08-17T10:01:51.000Z</time>
      </trkpt>
      <trkpt lat="45.60598" lon="2.80635">
        <ele>1336</ele>
        <time>2013-08-17T10:02:00.000Z</time>
      </trkpt>
      <trkpt lat="45.60598" lon="2.80629">
        <ele>1336</ele>
        <time>2013-08-17T10:02:05.000Z</time>
      </trkpt>
      <trkpt lat="45.60599" lon="2.80622">
        <ele>1335.8000488281</ele>
        <time>2013-08-17T10:02:21.000Z</time>
      </trkpt>
      <trkpt lat="45.60602" lon="2.80605">
        <ele>1335.1999511719</ele>
        <time>2013-08-17T10:02:37.000Z</time>
      </trkpt>
      <trkpt lat="45.60603" lon="2.80583">
        <ele>1335.4000244141</ele>
        <time>2013-08-17T10:02:51.000Z</time>
      </trkpt>
      <trkpt lat="45.60604" lon="2.8058">
        <ele>1335.5999755859</ele>
        <time>2013-08-17T10:03:03.000Z</time>
      </trkpt>
      <trkpt lat="45.60604" lon="2.8058">
        <ele>1335.5999755859</ele>
        <time>2013-08-17T10:03:16.000Z</time>
      </trkpt>
      <trkpt lat="45.60605" lon="2.80581">
        <ele>1335.4000244141</ele>
        <time>2013-08-17T10:03:53.000Z</time>
      </trkpt>
      <trkpt lat="45.60605" lon="2.80575">
        <ele>1336</ele>
        <time>2013-08-17T10:04:06.000Z</time>
      </trkpt>
      <trkpt lat="45.60603" lon="2.80565">
        <ele>1337.4000244141</ele>
        <time>2013-08-17T10:04:17.000Z</time>
      </trkpt>
      <trkpt lat="45.60603" lon="2.80555">
        <ele>1338.4000244141</ele>
        <time>2013-08-17T10:04:24.000Z</time>
      </trkpt>
      <trkpt lat="45.60612" lon="2.80532">
        <ele>1337.5999755859</ele>
        <time>2013-08-17T10:04:40.000Z</time>
      </trkpt>
      <trkpt lat="45.60612" lon="2.8053">
        <ele>1337.5999755859</ele>
        <time>2013-08-17T10:04:41.000Z</time>
      </trkpt>
      <trkpt lat="45.60618" lon="2.80507">
        <ele>1337.1999511719</ele>
        <time>2013-08-17T10:04:58.000Z</time>
      </trkpt>
      <trkpt lat="45.60627" lon="2.8048">
        <ele>1336</ele>
        <time>2013-08-17T10:05:17.000Z</time>
      </trkpt>
      <trkpt lat="45.60632" lon="2.80454">
        <ele>1336.1999511719</ele>
        <time>2013-08-17T10:05:35.000Z</time>
      </trkpt>
      <trkpt lat="45.60633" lon="2.80447">
        <ele>1336.4000244141</ele>
        <time>2013-08-17T10:05:40.000Z</time>
      </trkpt>
      <trkpt lat="45.60633" lon="2.80423">
        <ele>1337.1999511719</ele>
        <time>2013-08-17T10:05:56.000Z</time>
      </trkpt>
      <trkpt lat="45.60634" lon="2.80419">
        <ele>1337</ele>
        <time>2013-08-17T10:05:59.000Z</time>
      </trkpt>
      <trkpt lat="45.60635" lon="2.80407">
        <ele>1336.8000488281</ele>
        <time>2013-08-17T10:06:07.000Z</time>
      </trkpt>
      <trkpt lat="45.60634" lon="2.804">
        <ele>1337</ele>
        <time>2013-08-17T10:06:12.000Z</time>
      </trkpt>
      <trkpt lat="45.60629" lon="2.80379">
        <ele>1337.1999511719</ele>
        <time>2013-08-17T10:06:28.000Z</time>
      </trkpt>
      <trkpt lat="45.60625" lon="2.80353">
        <ele>1337.1999511719</ele>
        <time>2013-08-17T10:06:46.000Z</time>
      </trkpt>
      <trkpt lat="45.60624" lon="2.80341">
        <ele>1337.1999511719</ele>
        <time>2013-08-17T10:06:54.000Z</time>
      </trkpt>
      <trkpt lat="45.60622" lon="2.80334">
        <ele>1337.1999511719</ele>
        <time>2013-08-17T10:06:59.000Z</time>
      </trkpt>
      <trkpt lat="45.60615" lon="2.80313">
        <ele>1337.4000244141</ele>
        <time>2013-08-17T10:07:13.000Z</time>
      </trkpt>
      <trkpt lat="45.60613" lon="2.80309">
        <ele>1337.5999755859</ele>
        <time>2013-08-17T10:07:17.000Z</time>
      </trkpt>
      <trkpt lat="45.60609" lon="2.80294">
        <ele>1337.5999755859</ele>
        <time>2013-08-17T10:07:32.000Z</time>
      </trkpt>
      <trkpt lat="45.60609" lon="2.80294">
        <ele>1337.5999755859</ele>
        <time>2013-08-17T10:07:58.000Z</time>
      </trkpt>
      <trkpt lat="45.60608" lon="2.8029">
        <ele>1337.5999755859</ele>
        <time>2013-08-17T10:08:22.000Z</time>
      </trkpt>
      <trkpt lat="45.60603" lon="2.80276">
        <ele>1338</ele>
        <time>2013-08-17T10:08:40.000Z</time>
      </trkpt>
      <trkpt lat="45.60596" lon="2.80261">
        <ele>1338.4000244141</ele>
        <time>2013-08-17T10:08:57.000Z</time>
      </trkpt>
      <trkpt lat="45.60585" lon="2.80241">
        <ele>1338.8000488281</ele>
        <time>2013-08-17T10:09:13.000Z</time>
      </trkpt>
      <trkpt lat="45.60575" lon="2.80225">
        <ele>1339</ele>
        <time>2013-08-17T10:09:28.000Z</time>
      </trkpt>
      <trkpt lat="45.60572" lon="2.8022">
        <ele>1339</ele>
        <time>2013-08-17T10:09:32.000Z</time>
      </trkpt>
      <trkpt lat="45.60568" lon="2.80214">
        <ele>1339.1999511719</ele>
        <time>2013-08-17T10:09:38.000Z</time>
      </trkpt>
      <trkpt lat="45.60564" lon="2.80209">
        <ele>1339.1999511719</ele>
        <time>2013-08-17T10:09:55.000Z</time>
      </trkpt>
      <trkpt lat="45.60556" lon="2.80193">
        <ele>1339.4000244141</ele>
        <time>2013-08-17T10:10:09.000Z</time>
      </trkpt>
      <trkpt lat="45.60542" lon="2.80174">
        <ele>1340</ele>
        <time>2013-08-17T10:10:27.000Z</time>
      </trkpt>
      <trkpt lat="45.60532" lon="2.80152">
        <ele>1339.8000488281</ele>
        <time>2013-08-17T10:10:44.000Z</time>
      </trkpt>
      <trkpt lat="45.60524" lon="2.80136">
        <ele>1339.8000488281</ele>
        <time>2013-08-17T10:10:56.000Z</time>
      </trkpt>
      <trkpt lat="45.60514" lon="2.80123">
        <ele>1340.1999511719</ele>
        <time>2013-08-17T10:11:08.000Z</time>
      </trkpt>
      <trkpt lat="45.60501" lon="2.80104">
        <ele>1340.5999755859</ele>
        <time>2013-08-17T10:11:25.000Z</time>
      </trkpt>
      <trkpt lat="45.60484" lon="2.8009">
        <ele>1341.1999511719</ele>
        <time>2013-08-17T10:11:43.000Z</time>
      </trkpt>
      <trkpt lat="45.60466" lon="2.80075">
        <ele>1341.1999511719</ele>
        <time>2013-08-17T10:12:02.000Z</time>
      </trkpt>
      <trkpt lat="45.60454" lon="2.80068">
        <ele>1341</ele>
        <time>2013-08-17T10:12:18.000Z</time>
      </trkpt>
      <trkpt lat="45.60448" lon="2.80065">
        <ele>1340.8000488281</ele>
        <time>2013-08-17T10:12:39.000Z</time>
      </trkpt>
      <trkpt lat="45.60443" lon="2.80062">
        <ele>1340.8000488281</ele>
        <time>2013-08-17T10:12:54.000Z</time>
      </trkpt>
      <trkpt lat="45.60436" lon="2.80057">
        <ele>1340.5999755859</ele>
        <time>2013-08-17T10:13:07.000Z</time>
      </trkpt>
      <trkpt lat="45.60431" lon="2.80056">
        <ele>1340.5999755859</ele>
        <time>2013-08-17T10:13:22.000Z</time>
      </trkpt>
      <trkpt lat="45.60418" lon="2.8005">
        <ele>1340.5999755859</ele>
        <time>2013-08-17T10:13:35.000Z</time>
      </trkpt>
      <trkpt lat="45.60407" lon="2.80048">
        <ele>1340.8000488281</ele>
        <time>2013-08-17T10:13:50.000Z</time>
      </trkpt>
      <trkpt lat="45.60405" lon="2.80049">
        <ele>1341</ele>
        <time>2013-08-17T10:14:03.000Z</time>
      </trkpt>
      <trkpt lat="45.60405" lon="2.8005">
        <ele>1341</ele>
        <time>2013-08-17T10:14:09.000Z</time>
      </trkpt>
      <trkpt lat="45.60382" lon="2.80048">
        <ele>1341.5999755859</ele>
        <time>2013-08-17T10:14:27.000Z</time>
      </trkpt>
      <trkpt lat="45.60363" lon="2.80049">
        <ele>1341.1999511719</ele>
        <time>2013-08-17T10:14:44.000Z</time>
      </trkpt>
      <trkpt lat="45.60358" lon="2.80049">
        <ele>1341</ele>
        <time>2013-08-17T10:14:58.000Z</time>
      </trkpt>
      <trkpt lat="45.60353" lon="2.80047">
        <ele>1340.8000488281</ele>
        <time>2013-08-17T10:15:21.000Z</time>
      </trkpt>
      <trkpt lat="45.60339" lon="2.80046">
        <ele>1340.1999511719</ele>
        <time>2013-08-17T10:15:35.000Z</time>
      </trkpt>
      <trkpt lat="45.60328" lon="2.80047">
        <ele>1339.8000488281</ele>
        <time>2013-08-17T10:15:45.000Z</time>
      </trkpt>
      <trkpt lat="45.60324" lon="2.80046">
        <ele>1339.5999755859</ele>
        <time>2013-08-17T10:15:49.000Z</time>
      </trkpt>
      <trkpt lat="45.60318" lon="2.80047">
        <ele>1339.1999511719</ele>
        <time>2013-08-17T10:15:55.000Z</time>
      </trkpt>
      <trkpt lat="45.60313" lon="2.80042">
        <ele>1338.8000488281</ele>
        <time>2013-08-17T10:16:01.000Z</time>
      </trkpt>
      <trkpt lat="45.60311" lon="2.80042">
        <ele>1338.5999755859</ele>
        <time>2013-08-17T10:16:04.000Z</time>
      </trkpt>
      <trkpt lat="45.60305" lon="2.8004">
        <ele>1338.1999511719</ele>
        <time>2013-08-17T10:16:10.000Z</time>
      </trkpt>
      <trkpt lat="45.60301" lon="2.80037">
        <ele>1338</ele>
        <time>2013-08-17T10:16:25.000Z</time>
      </trkpt>
      <trkpt lat="45.60301" lon="2.80036">
        <ele>1337.8000488281</ele>
        <time>2013-08-17T10:16:47.000Z</time>
      </trkpt>
      <trkpt lat="45.60301" lon="2.80032">
        <ele>1337.5999755859</ele>
        <time>2013-08-17T10:16:53.000Z</time>
      </trkpt>
      <trkpt lat="45.60302" lon="2.80026">
        <ele>1337.1999511719</ele>
        <time>2013-08-17T10:16:58.000Z</time>
      </trkpt>
      <trkpt lat="45.60311" lon="2.80011">
        <ele>1336.8000488281</ele>
        <time>2013-08-17T10:17:11.000Z</time>
      </trkpt>
      <trkpt lat="45.60322" lon="2.79995">
        <ele>1336.8000488281</ele>
        <time>2013-08-17T10:17:29.000Z</time>
      </trkpt>
      <trkpt lat="45.60321" lon="2.7999">
        <ele>1336.8000488281</ele>
        <time>2013-08-17T10:17:34.000Z</time>
      </trkpt>
      <trkpt lat="45.60313" lon="2.79978">
        <ele>1337</ele>
        <time>2013-08-17T10:17:49.000Z</time>
      </trkpt>
      <trkpt lat="45.60304" lon="2.79963">
        <ele>1337</ele>
        <time>2013-08-17T10:18:04.000Z</time>
      </trkpt>
      <trkpt lat="45.60301" lon="2.7996">
        <ele>1337.1999511719</ele>
        <time>2013-08-17T10:18:18.000Z</time>
      </trkpt>
      <trkpt lat="45.60302" lon="2.7996">
        <ele>1337</ele>
        <time>2013-08-17T10:18:43.000Z</time>
      </trkpt>
      <trkpt lat="45.60301" lon="2.79959">
        <ele>1337.1999511719</ele>
        <time>2013-08-17T10:18:58.000Z</time>
      </trkpt>
      <trkpt lat="45.60283" lon="2.79944">
        <ele>1338.1999511719</ele>
        <time>2013-08-17T10:19:16.000Z</time>
      </trkpt>
      <trkpt lat="45.60277" lon="2.7993">
        <ele>1338.5999755859</ele>
        <time>2013-08-17T10:19:27.000Z</time>
      </trkpt>
      <trkpt lat="45.60273" lon="2.79913">
        <ele>1340</ele>
        <time>2013-08-17T10:19:42.000Z</time>
      </trkpt>
      <trkpt lat="45.60271" lon="2.79903">
        <ele>1341.4000244141</ele>
        <time>2013-08-17T10:19:55.000Z</time>
      </trkpt>
      <trkpt lat="45.60272" lon="2.79904">
        <ele>1341.1999511719</ele>
        <time>2013-08-17T10:20:16.000Z</time>
      </trkpt>
      <trkpt lat="45.60269" lon="2.79899">
        <ele>1342</ele>
        <time>2013-08-17T10:20:38.000Z</time>
      </trkpt>
      <trkpt lat="45.60264" lon="2.79883">
        <ele>1343.8000488281</ele>
        <time>2013-08-17T10:20:50.000Z</time>
      </trkpt>
      <trkpt lat="45.60259" lon="2.79859">
        <ele>1346</ele>
        <time>2013-08-17T10:21:08.000Z</time>
      </trkpt>
      <trkpt lat="45.60254" lon="2.79843">
        <ele>1347.5999755859</ele>
        <time>2013-08-17T10:21:21.000Z</time>
      </trkpt>
      <trkpt lat="45.60251" lon="2.79829">
        <ele>1350</ele>
        <time>2013-08-17T10:21:34.000Z</time>
      </trkpt>
      <trkpt lat="45.60249" lon="2.79825">
        <ele>1351.1999511719</ele>
        <time>2013-08-17T10:21:38.000Z</time>
      </trkpt>
      <trkpt lat="45.60244" lon="2.79809">
        <ele>1355</ele>
        <time>2013-08-17T10:21:52.000Z</time>
      </trkpt>
      <trkpt lat="45.60239" lon="2.79801">
        <ele>1357</ele>
        <time>2013-08-17T10:22:03.000Z</time>
      </trkpt>
      <trkpt lat="45.60236" lon="2.79787">
        <ele>1360</ele>
        <time>2013-08-17T10:22:16.000Z</time>
      </trkpt>
      <trkpt lat="45.60232" lon="2.79776">
        <ele>1362.5999755859</ele>
        <time>2013-08-17T10:22:30.000Z</time>
      </trkpt>
      <trkpt lat="45.60226" lon="2.79768">
        <ele>1364.8000488281</ele>
        <time>2013-08-17T10:22:44.000Z</time>
      </trkpt>
      <trkpt lat="45.60225" lon="2.79768">
        <ele>1364.8000488281</ele>
        <time>2013-08-17T10:22:51.000Z</time>
      </trkpt>
      <trkpt lat="45.60219" lon="2.79766">
        <ele>1365.5999755859</ele>
        <time>2013-08-17T10:22:59.000Z</time>
      </trkpt>
      <trkpt lat="45.60207" lon="2.79761">
        <ele>1366.4000244141</ele>
        <time>2013-08-17T10:23:14.000Z</time>
      </trkpt>
      <trkpt lat="45.60196" lon="2.79753">
        <ele>1367.5999755859</ele>
        <time>2013-08-17T10:23:27.000Z</time>
      </trkpt>
      <trkpt lat="45.60194" lon="2.7975">
        <ele>1368</ele>
        <time>2013-08-17T10:23:30.000Z</time>
      </trkpt>
      <trkpt lat="45.60184" lon="2.79739">
        <ele>1369.5999755859</ele>
        <time>2013-08-17T10:23:43.000Z</time>
      </trkpt>
      <trkpt lat="45.6017" lon="2.79724">
        <ele>1371.8000488281</ele>
        <time>2013-08-17T10:24:00.000Z</time>
      </trkpt>
      <trkpt lat="45.60166" lon="2.79721">
        <ele>1372.1999511719</ele>
        <time>2013-08-17T10:24:04.000Z</time>
      </trkpt>
      <trkpt lat="45.6015" lon="2.79708">
        <ele>1374</ele>
        <time>2013-08-17T10:24:22.000Z</time>
      </trkpt>
      <trkpt lat="45.60142" lon="2.79698">
        <ele>1375.4000244141</ele>
        <time>2013-08-17T10:24:38.000Z</time>
      </trkpt>
      <trkpt lat="45.60139" lon="2.79697">
        <ele>1375.5999755859</ele>
        <time>2013-08-17T10:24:50.000Z</time>
      </trkpt>
      <trkpt lat="45.60131" lon="2.79693">
        <ele>1375.5999755859</ele>
        <time>2013-08-17T10:24:59.000Z</time>
      </trkpt>
      <trkpt lat="45.60118" lon="2.79684">
        <ele>1375.5999755859</ele>
        <time>2013-08-17T10:25:16.000Z</time>
      </trkpt>
      <trkpt lat="45.60118" lon="2.79684">
        <ele>1375.5999755859</ele>
        <time>2013-08-17T10:25:34.000Z</time>
      </trkpt>
      <trkpt lat="45.60109" lon="2.79676">
        <ele>1375.8000488281</ele>
        <time>2013-08-17T10:25:53.000Z</time>
      </trkpt>
      <trkpt lat="45.60097" lon="2.79668">
        <ele>1375.4000244141</ele>
        <time>2013-08-17T10:26:06.000Z</time>
      </trkpt>
      <trkpt lat="45.60089" lon="2.79666">
        <ele>1374.5999755859</ele>
        <time>2013-08-17T10:26:13.000Z</time>
      </trkpt>
      <trkpt lat="45.60082" lon="2.79662">
        <ele>1374.1999511719</ele>
        <time>2013-08-17T10:26:26.000Z</time>
      </trkpt>
      <trkpt lat="45.60082" lon="2.79662">
        <ele>1374.4000244141</ele>
        <time>2013-08-17T10:26:45.000Z</time>
      </trkpt>
      <trkpt lat="45.60082" lon="2.79662">
        <ele>1374.4000244141</ele>
        <time>2013-08-17T10:27:07.000Z</time>
      </trkpt>
      <trkpt lat="45.60082" lon="2.79662">
        <ele>1374.1999511719</ele>
        <time>2013-08-17T10:27:27.000Z</time>
      </trkpt>
      <trkpt lat="45.60068" lon="2.79645">
        <ele>1374.5999755859</ele>
        <time>2013-08-17T10:27:46.000Z</time>
      </trkpt>
      <trkpt lat="45.60067" lon="2.79641">
        <ele>1375</ele>
        <time>2013-08-17T10:28:04.000Z</time>
      </trkpt>
      <trkpt lat="45.60068" lon="2.79643">
        <ele>1374.8000488281</ele>
        <time>2013-08-17T10:28:30.000Z</time>
      </trkpt>
      <trkpt lat="45.60068" lon="2.79643">
        <ele>1374.8000488281</ele>
        <time>2013-08-17T10:28:54.000Z</time>
      </trkpt>
      <trkpt lat="45.60067" lon="2.79641">
        <ele>1375</ele>
        <time>2013-08-17T10:29:09.000Z</time>
      </trkpt>
      <trkpt lat="45.60069" lon="2.79634">
        <ele>1376.1999511719</ele>
        <time>2013-08-17T10:29:22.000Z</time>
      </trkpt>
      <trkpt lat="45.60071" lon="2.79628">
        <ele>1377.4000244141</ele>
        <time>2013-08-17T10:29:35.000Z</time>
      </trkpt>
      <trkpt lat="45.60075" lon="2.79617">
        <ele>1379.1999511719</ele>
        <time>2013-08-17T10:29:48.000Z</time>
      </trkpt>
      <trkpt lat="45.60079" lon="2.79612">
        <ele>1380.8000488281</ele>
        <time>2013-08-17T10:30:03.000Z</time>
      </trkpt>
      <trkpt lat="45.60087" lon="2.79609">
        <ele>1382.8000488281</ele>
        <time>2013-08-17T10:30:16.000Z</time>
      </trkpt>
      <trkpt lat="45.60092" lon="2.7961">
        <ele>1383.5999755859</ele>
        <time>2013-08-17T10:30:29.000Z</time>
      </trkpt>
      <trkpt lat="45.60095" lon="2.79604">
        <ele>1385.4000244141</ele>
        <time>2013-08-17T10:30:46.000Z</time>
      </trkpt>
      <trkpt lat="45.60102" lon="2.796">
        <ele>1387.4000244141</ele>
        <time>2013-08-17T10:30:58.000Z</time>
      </trkpt>
      <trkpt lat="45.60104" lon="2.79598">
        <ele>1388.1999511719</ele>
        <time>2013-08-17T10:31:12.000Z</time>
      </trkpt>
      <trkpt lat="45.60112" lon="2.79589">
        <ele>1391.4000244141</ele>
        <time>2013-08-17T10:31:24.000Z</time>
      </trkpt>
      <trkpt lat="45.60116" lon="2.79584">
        <ele>1392.8000488281</ele>
        <time>2013-08-17T10:31:36.000Z</time>
      </trkpt>
      <trkpt lat="45.60122" lon="2.7957">
        <ele>1395.1999511719</ele>
        <time>2013-08-17T10:31:51.000Z</time>
      </trkpt>
      <trkpt lat="45.60125" lon="2.79565">
        <ele>1395.8000488281</ele>
        <time>2013-08-17T10:32:03.000Z</time>
      </trkpt>
      <trkpt lat="45.60126" lon="2.79565">
        <ele>1396</ele>
        <time>2013-08-17T10:32:16.000Z</time>
      </trkpt>
      <trkpt lat="45.60126" lon="2.79563">
        <ele>1396</ele>
        <time>2013-08-17T10:32:31.000Z</time>
      </trkpt>
      <trkpt lat="45.60127" lon="2.79558">
        <ele>1396.5999755859</ele>
        <time>2013-08-17T10:32:57.000Z</time>
      </trkpt>
      <trkpt lat="45.60129" lon="2.79554">
        <ele>1397.1999511719</ele>
        <time>2013-08-17T10:33:04.000Z</time>
      </trkpt>
      <trkpt lat="45.60134" lon="2.79539">
        <ele>1398.8000488281</ele>
        <time>2013-08-17T10:33:19.000Z</time>
      </trkpt>
      <trkpt lat="45.60137" lon="2.79532">
        <ele>1399.1999511719</ele>
        <time>2013-08-17T10:33:29.000Z</time>
      </trkpt>
      <trkpt lat="45.6014" lon="2.79522">
        <ele>1399.5999755859</ele>
        <time>2013-08-17T10:33:43.000Z</time>
      </trkpt>
      <trkpt lat="45.60141" lon="2.79514">
        <ele>1400</ele>
        <time>2013-08-17T10:33:57.000Z</time>
      </trkpt>
      <trkpt lat="45.60141" lon="2.79513">
        <ele>1400.1999511719</ele>
        <time>2013-08-17T10:33:59.000Z</time>
      </trkpt>
      <trkpt lat="45.60147" lon="2.79491">
        <ele>1400.4000244141</ele>
        <time>2013-08-17T10:34:15.000Z</time>
      </trkpt>
      <trkpt lat="45.60153" lon="2.79472">
        <ele>1400.4000244141</ele>
        <time>2013-08-17T10:34:30.000Z</time>
      </trkpt>
      <trkpt lat="45.60153" lon="2.7946">
        <ele>1400.5999755859</ele>
        <time>2013-08-17T10:34:44.000Z</time>
      </trkpt>
      <trkpt lat="45.60152" lon="2.79452">
        <ele>1400.8000488281</ele>
        <time>2013-08-17T10:34:57.000Z</time>
      </trkpt>
      <trkpt lat="45.60151" lon="2.79438">
        <ele>1401.4000244141</ele>
        <time>2013-08-17T10:35:09.000Z</time>
      </trkpt>
      <trkpt lat="45.60146" lon="2.7942">
        <ele>1401.4000244141</ele>
        <time>2013-08-17T10:35:24.000Z</time>
      </trkpt>
      <trkpt lat="45.60144" lon="2.79407">
        <ele>1402.5999755859</ele>
        <time>2013-08-17T10:35:35.000Z</time>
      </trkpt>
      <trkpt lat="45.60139" lon="2.79386">
        <ele>1404.5999755859</ele>
        <time>2013-08-17T10:35:50.000Z</time>
      </trkpt>
      <trkpt lat="45.6014" lon="2.79374">
        <ele>1405</ele>
        <time>2013-08-17T10:36:02.000Z</time>
      </trkpt>
      <trkpt lat="45.60142" lon="2.79367">
        <ele>1405.4000244141</ele>
        <time>2013-08-17T10:36:16.000Z</time>
      </trkpt>
      <trkpt lat="45.60143" lon="2.79369">
        <ele>1405</ele>
        <time>2013-08-17T10:36:27.000Z</time>
      </trkpt>
      <trkpt lat="45.60143" lon="2.79368">
        <ele>1405</ele>
        <time>2013-08-17T10:36:56.000Z</time>
      </trkpt>
      <trkpt lat="45.60143" lon="2.79368">
        <ele>1405</ele>
        <time>2013-08-17T10:37:21.000Z</time>
      </trkpt>
      <trkpt lat="45.60143" lon="2.79368">
        <ele>1405</ele>
        <time>2013-08-17T10:37:54.000Z</time>
      </trkpt>
      <trkpt lat="45.60144" lon="2.79369">
        <ele>1405</ele>
        <time>2013-08-17T10:38:33.000Z</time>
      </trkpt>
      <trkpt lat="45.60144" lon="2.79368">
        <ele>1404.8000488281</ele>
        <time>2013-08-17T10:39:02.000Z</time>
      </trkpt>
      <trkpt lat="45.60144" lon="2.79369">
        <ele>1404.8000488281</ele>
        <time>2013-08-17T10:39:34.000Z</time>
      </trkpt>
      <trkpt lat="45.60144" lon="2.79369">
        <ele>1404.8000488281</ele>
        <time>2013-08-17T10:40:16.000Z</time>
      </trkpt>
      <trkpt lat="45.60144" lon="2.79369">
        <ele>1405</ele>
        <time>2013-08-17T10:40:54.000Z</time>
      </trkpt>
      <trkpt lat="45.60144" lon="2.79368">
        <ele>1404.8000488281</ele>
        <time>2013-08-17T10:41:43.000Z</time>
      </trkpt>
      <trkpt lat="45.60144" lon="2.7937">
        <ele>1404.8000488281</ele>
        <time>2013-08-17T10:42:21.000Z</time>
      </trkpt>
      <trkpt lat="45.60143" lon="2.79371">
        <ele>1404.8000488281</ele>
        <time>2013-08-17T10:42:56.000Z</time>
      </trkpt>
      <trkpt lat="45.60144" lon="2.79371">
        <ele>1404.8000488281</ele>
        <time>2013-08-17T10:43:36.000Z</time>
      </trkpt>
      <trkpt lat="45.60144" lon="2.7937">
        <ele>1404.8000488281</ele>
        <time>2013-08-17T10:44:07.000Z</time>
      </trkpt>
      <trkpt lat="45.60145" lon="2.79369">
        <ele>1404.8000488281</ele>
        <time>2013-08-17T10:44:35.000Z</time>
      </trkpt>
      <trkpt lat="45.60144" lon="2.7937">
        <ele>1404.8000488281</ele>
        <time>2013-08-17T10:45:09.000Z</time>
      </trkpt>
      <trkpt lat="45.60143" lon="2.79369">
        <ele>1405</ele>
        <time>2013-08-17T10:45:49.000Z</time>
      </trkpt>
      <trkpt lat="45.60144" lon="2.79369">
        <ele>1405</ele>
        <time>2013-08-17T10:46:20.000Z</time>
      </trkpt>
      <trkpt lat="45.60144" lon="2.79369">
        <ele>1404.8000488281</ele>
        <time>2013-08-17T10:46:55.000Z</time>
      </trkpt>
      <trkpt lat="45.60144" lon="2.79369">
        <ele>1405</ele>
        <time>2013-08-17T10:47:29.000Z</time>
      </trkpt>
      <trkpt lat="45.60144" lon="2.79368">
        <ele>1405</ele>
        <time>2013-08-17T10:48:12.000Z</time>
      </trkpt>
      <trkpt lat="45.60144" lon="2.79367">
        <ele>1405</ele>
        <time>2013-08-17T10:48:52.000Z</time>
      </trkpt>
      <trkpt lat="45.60144" lon="2.79368">
        <ele>1405</ele>
        <time>2013-08-17T10:49:31.000Z</time>
      </trkpt>
      <trkpt lat="45.60144" lon="2.79369">
        <ele>1405</ele>
        <time>2013-08-17T10:50:08.000Z</time>
      </trkpt>
      <trkpt lat="45.60143" lon="2.79368">
        <ele>1405</ele>
        <time>2013-08-17T10:50:39.000Z</time>
      </trkpt>
      <trkpt lat="45.60144" lon="2.79368">
        <ele>1405</ele>
        <time>2013-08-17T10:51:26.000Z</time>
      </trkpt>
      <trkpt lat="45.60143" lon="2.79369">
        <ele>1405</ele>
        <time>2013-08-17T10:51:59.000Z</time>
      </trkpt>
      <trkpt lat="45.60143" lon="2.7937">
        <ele>1405</ele>
        <time>2013-08-17T10:52:50.000Z</time>
      </trkpt>
      <trkpt lat="45.60143" lon="2.79369">
        <ele>1405</ele>
        <time>2013-08-17T10:53:16.000Z</time>
      </trkpt>
      <trkpt lat="45.60143" lon="2.79368">
        <ele>1405</ele>
        <time>2013-08-17T10:53:50.000Z</time>
      </trkpt>
      <trkpt lat="45.60143" lon="2.79367">
        <ele>1405.1999511719</ele>
        <time>2013-08-17T10:54:33.000Z</time>
      </trkpt>
      <trkpt lat="45.60143" lon="2.79368">
        <ele>1405</ele>
        <time>2013-08-17T10:55:12.000Z</time>
      </trkpt>
      <trkpt lat="45.60143" lon="2.79367">
        <ele>1405</ele>
        <time>2013-08-17T10:55:41.000Z</time>
      </trkpt>
      <trkpt lat="45.60143" lon="2.79366">
        <ele>1405.1999511719</ele>
        <time>2013-08-17T10:56:09.000Z</time>
      </trkpt>
      <trkpt lat="45.60144" lon="2.79367">
        <ele>1405</ele>
        <time>2013-08-17T10:56:42.000Z</time>
      </trkpt>
      <trkpt lat="45.60144" lon="2.79367">
        <ele>1405</ele>
        <time>2013-08-17T10:57:08.000Z</time>
      </trkpt>
      <trkpt lat="45.60144" lon="2.79367">
        <ele>1405</ele>
        <time>2013-08-17T10:57:33.000Z</time>
      </trkpt>
      <trkpt lat="45.60144" lon="2.79367">
        <ele>1405</ele>
        <time>2013-08-17T10:57:54.000Z</time>
      </trkpt>
      <trkpt lat="45.60145" lon="2.79367">
        <ele>1404.8000488281</ele>
        <time>2013-08-17T10:58:36.000Z</time>
      </trkpt>
      <trkpt lat="45.60144" lon="2.79367">
        <ele>1405</ele>
        <time>2013-08-17T10:59:07.000Z</time>
      </trkpt>
      <trkpt lat="45.60144" lon="2.79367">
        <ele>1405</ele>
        <time>2013-08-17T10:59:33.000Z</time>
      </trkpt>
      <trkpt lat="45.60144" lon="2.79367">
        <ele>1405</ele>
        <time>2013-08-17T11:00:14.000Z</time>
      </trkpt>
      <trkpt lat="45.60144" lon="2.79367">
        <ele>1405</ele>
        <time>2013-08-17T11:00:49.000Z</time>
      </trkpt>
      <trkpt lat="45.60144" lon="2.79367">
        <ele>1405</ele>
        <time>2013-08-17T11:01:20.000Z</time>
      </trkpt>
      <trkpt lat="45.60144" lon="2.79367">
        <ele>1405</ele>
        <time>2013-08-17T11:01:51.000Z</time>
      </trkpt>
      <trkpt lat="45.60143" lon="2.79369">
        <ele>1405</ele>
        <time>2013-08-17T11:02:23.000Z</time>
      </trkpt>
      <trkpt lat="45.60144" lon="2.79368">
        <ele>1405</ele>
        <time>2013-08-17T11:02:41.000Z</time>
      </trkpt>
      <trkpt lat="45.60143" lon="2.79367">
        <ele>1405</ele>
        <time>2013-08-17T11:02:57.000Z</time>
      </trkpt>
      <trkpt lat="45.60141" lon="2.79356">
        <ele>1406.1999511719</ele>
        <time>2013-08-17T11:03:12.000Z</time>
      </trkpt>
      <trkpt lat="45.60139" lon="2.79355">
        <ele>1406.4000244141</ele>
        <time>2013-08-17T11:03:15.000Z</time>
      </trkpt>
      <trkpt lat="45.60134" lon="2.79352">
        <ele>1407.4000244141</ele>
        <time>2013-08-17T11:03:30.000Z</time>
      </trkpt>
      <trkpt lat="45.60131" lon="2.79343">
        <ele>1408.4000244141</ele>
        <time>2013-08-17T11:03:41.000Z</time>
      </trkpt>
      <trkpt lat="45.6013" lon="2.7934">
        <ele>1409</ele>
        <time>2013-08-17T11:03:55.000Z</time>
      </trkpt>
      <trkpt lat="45.60129" lon="2.79338">
        <ele>1409.1999511719</ele>
        <time>2013-08-17T11:04:05.000Z</time>
      </trkpt>
      <trkpt lat="45.60127" lon="2.79336">
        <ele>1410</ele>
        <time>2013-08-17T11:04:23.000Z</time>
      </trkpt>
      <trkpt lat="45.60123" lon="2.79333">
        <ele>1411.8000488281</ele>
        <time>2013-08-17T11:04:36.000Z</time>
      </trkpt>
      <trkpt lat="45.60121" lon="2.79329">
        <ele>1413</ele>
        <time>2013-08-17T11:04:48.000Z</time>
      </trkpt>
      <trkpt lat="45.60122" lon="2.79325">
        <ele>1413.5999755859</ele>
        <time>2013-08-17T11:04:58.000Z</time>
      </trkpt>
      <trkpt lat="45.60121" lon="2.79323">
        <ele>1414</ele>
        <time>2013-08-17T11:05:10.000Z</time>
      </trkpt>
      <trkpt lat="45.60118" lon="2.79321">
        <ele>1415.1999511719</ele>
        <time>2013-08-17T11:05:28.000Z</time>
      </trkpt>
      <trkpt lat="45.60116" lon="2.79319">
        <ele>1416</ele>
        <time>2013-08-17T11:05:37.000Z</time>
      </trkpt>
      <trkpt lat="45.60113" lon="2.7932">
        <ele>1416.4000244141</ele>
        <time>2013-08-17T11:05:48.000Z</time>
      </trkpt>
      <trkpt lat="45.60112" lon="2.79319">
        <ele>1416.8000488281</ele>
        <time>2013-08-17T11:06:00.000Z</time>
      </trkpt>
      <trkpt lat="45.60113" lon="2.79318">
        <ele>1416.8000488281</ele>
        <time>2013-08-17T11:06:24.000Z</time>
      </trkpt>
      <trkpt lat="45.60113" lon="2.79319">
        <ele>1416.8000488281</ele>
        <time>2013-08-17T11:06:45.000Z</time>
      </trkpt>
      <trkpt lat="45.60109" lon="2.79317">
        <ele>1417.8000488281</ele>
        <time>2013-08-17T11:06:58.000Z</time>
      </trkpt>
      <trkpt lat="45.60108" lon="2.79315">
        <ele>1418.5999755859</ele>
        <time>2013-08-17T11:07:11.000Z</time>
      </trkpt>
      <trkpt lat="45.60107" lon="2.79315">
        <ele>1418.8000488281</ele>
        <time>2013-08-17T11:07:17.000Z</time>
      </trkpt>
      <trkpt lat="45.60106" lon="2.79311">
        <ele>1419.8000488281</ele>
        <time>2013-08-17T11:07:21.000Z</time>
      </trkpt>
      <trkpt lat="45.601" lon="2.79306">
        <ele>1422</ele>
        <time>2013-08-17T11:07:31.000Z</time>
      </trkpt>
      <trkpt lat="45.60098" lon="2.79304">
        <ele>1422.8000488281</ele>
        <time>2013-08-17T11:07:39.000Z</time>
      </trkpt>
      <trkpt lat="45.60096" lon="2.79299">
        <ele>1424.4000244141</ele>
        <time>2013-08-17T11:07:50.000Z</time>
      </trkpt>
      <trkpt lat="45.60095" lon="2.79298">
        <ele>1424.8000488281</ele>
        <time>2013-08-17T11:08:01.000Z</time>
      </trkpt>
      <trkpt lat="45.60091" lon="2.79292">
        <ele>1426.5999755859</ele>
        <time>2013-08-17T11:08:10.000Z</time>
      </trkpt>
      <trkpt lat="45.60085" lon="2.79288">
        <ele>1429</ele>
        <time>2013-08-17T11:08:21.000Z</time>
      </trkpt>
      <trkpt lat="45.60081" lon="2.79285">
        <ele>1430.4000244141</ele>
        <time>2013-08-17T11:08:31.000Z</time>
      </trkpt>
      <trkpt lat="45.60076" lon="2.79283">
        <ele>1432</ele>
        <time>2013-08-17T11:08:43.000Z</time>
      </trkpt>
      <trkpt lat="45.60075" lon="2.79283">
        <ele>1432.4000244141</ele>
        <time>2013-08-17T11:09:00.000Z</time>
      </trkpt>
      <trkpt lat="45.60074" lon="2.79283">
        <ele>1432.4000244141</ele>
        <time>2013-08-17T11:09:06.000Z</time>
      </trkpt>
      <trkpt lat="45.60069" lon="2.7928">
        <ele>1434</ele>
        <time>2013-08-17T11:09:15.000Z</time>
      </trkpt>
      <trkpt lat="45.6006" lon="2.79276">
        <ele>1436.8000488281</ele>
        <time>2013-08-17T11:09:27.000Z</time>
      </trkpt>
      <trkpt lat="45.60054" lon="2.79273">
        <ele>1438.8000488281</ele>
        <time>2013-08-17T11:09:38.000Z</time>
      </trkpt>
      <trkpt lat="45.60053" lon="2.79272">
        <ele>1439</ele>
        <time>2013-08-17T11:09:47.000Z</time>
      </trkpt>
      <trkpt lat="45.60051" lon="2.79271">
        <ele>1439.5999755859</ele>
        <time>2013-08-17T11:09:58.000Z</time>
      </trkpt>
      <trkpt lat="45.60048" lon="2.79268">
        <ele>1440.4000244141</ele>
        <time>2013-08-17T11:10:10.000Z</time>
      </trkpt>
      <trkpt lat="45.6004" lon="2.79266">
        <ele>1441.4000244141</ele>
        <time>2013-08-17T11:10:23.000Z</time>
      </trkpt>
      <trkpt lat="45.60034" lon="2.79265">
        <ele>1442.4000244141</ele>
        <time>2013-08-17T11:10:37.000Z</time>
      </trkpt>
      <trkpt lat="45.60028" lon="2.79265">
        <ele>1442.8000488281</ele>
        <time>2013-08-17T11:10:50.000Z</time>
      </trkpt>
      <trkpt lat="45.60019" lon="2.79262">
        <ele>1444.1999511719</ele>
        <time>2013-08-17T11:11:04.000Z</time>
      </trkpt>
      <trkpt lat="45.60016" lon="2.79261">
        <ele>1444.5999755859</ele>
        <time>2013-08-17T11:11:08.000Z</time>
      </trkpt>
      <trkpt lat="45.60013" lon="2.79259">
        <ele>1445.4000244141</ele>
        <time>2013-08-17T11:11:12.000Z</time>
      </trkpt>
      <trkpt lat="45.60008" lon="2.79256">
        <ele>1446.5999755859</ele>
        <time>2013-08-17T11:11:21.000Z</time>
      </trkpt>
      <trkpt lat="45.59998" lon="2.7925">
        <ele>1448.1999511719</ele>
        <time>2013-08-17T11:11:34.000Z</time>
      </trkpt>
      <trkpt lat="45.59987" lon="2.79245">
        <ele>1449.8000488281</ele>
        <time>2013-08-17T11:11:48.000Z</time>
      </trkpt>
      <trkpt lat="45.59981" lon="2.7924">
        <ele>1451</ele>
        <time>2013-08-17T11:11:59.000Z</time>
      </trkpt>
      <trkpt lat="45.5997" lon="2.79232">
        <ele>1453.1999511719</ele>
        <time>2013-08-17T11:12:15.000Z</time>
      </trkpt>
      <trkpt lat="45.59962" lon="2.79227">
        <ele>1454.1999511719</ele>
        <time>2013-08-17T11:12:26.000Z</time>
      </trkpt>
      <trkpt lat="45.59961" lon="2.79225">
        <ele>1454.5999755859</ele>
        <time>2013-08-17T11:12:43.000Z</time>
      </trkpt>
      <trkpt lat="45.59953" lon="2.79213">
        <ele>1456.4000244141</ele>
        <time>2013-08-17T11:12:58.000Z</time>
      </trkpt>
      <trkpt lat="45.59949" lon="2.79205">
        <ele>1457.5999755859</ele>
        <time>2013-08-17T11:13:15.000Z</time>
      </trkpt>
      <trkpt lat="45.59941" lon="2.79196">
        <ele>1459</ele>
        <time>2013-08-17T11:13:28.000Z</time>
      </trkpt>
      <trkpt lat="45.59935" lon="2.79188">
        <ele>1460.4000244141</ele>
        <time>2013-08-17T11:13:40.000Z</time>
      </trkpt>
      <trkpt lat="45.59926" lon="2.79178">
        <ele>1462.1999511719</ele>
        <time>2013-08-17T11:13:53.000Z</time>
      </trkpt>
      <trkpt lat="45.59918" lon="2.79169">
        <ele>1463.4000244141</ele>
        <time>2013-08-17T11:14:03.000Z</time>
      </trkpt>
      <trkpt lat="45.59906" lon="2.79156">
        <ele>1465</ele>
        <time>2013-08-17T11:14:20.000Z</time>
      </trkpt>
      <trkpt lat="45.59898" lon="2.79144">
        <ele>1466.4000244141</ele>
        <time>2013-08-17T11:14:33.000Z</time>
      </trkpt>
      <trkpt lat="45.59893" lon="2.79138">
        <ele>1467</ele>
        <time>2013-08-17T11:14:40.000Z</time>
      </trkpt>
      <trkpt lat="45.59889" lon="2.79135">
        <ele>1467.4000244141</ele>
        <time>2013-08-17T11:14:44.000Z</time>
      </trkpt>
      <trkpt lat="45.59884" lon="2.79129">
        <ele>1467.8000488281</ele>
        <time>2013-08-17T11:14:51.000Z</time>
      </trkpt>
      <trkpt lat="45.59883" lon="2.79125">
        <ele>1468</ele>
        <time>2013-08-17T11:15:06.000Z</time>
      </trkpt>
      <trkpt lat="45.59882" lon="2.79124">
        <ele>1467.8000488281</ele>
        <time>2013-08-17T11:15:23.000Z</time>
      </trkpt>
      <trkpt lat="45.59881" lon="2.79124">
        <ele>1467.5999755859</ele>
        <time>2013-08-17T11:15:57.000Z</time>
      </trkpt>
      <trkpt lat="45.59881" lon="2.79124">
        <ele>1467.5999755859</ele>
        <time>2013-08-17T11:16:16.000Z</time>
      </trkpt>
      <trkpt lat="45.59876" lon="2.79108">
        <ele>1467.8000488281</ele>
        <time>2013-08-17T11:16:29.000Z</time>
      </trkpt>
      <trkpt lat="45.59871" lon="2.79095">
        <ele>1468</ele>
        <time>2013-08-17T11:16:39.000Z</time>
      </trkpt>
      <trkpt lat="45.59868" lon="2.79085">
        <ele>1468.1999511719</ele>
        <time>2013-08-17T11:16:47.000Z</time>
      </trkpt>
      <trkpt lat="45.59862" lon="2.79068">
        <ele>1468.5999755859</ele>
        <time>2013-08-17T11:17:02.000Z</time>
      </trkpt>
      <trkpt lat="45.59862" lon="2.79065">
        <ele>1468.8000488281</ele>
        <time>2013-08-17T11:17:22.000Z</time>
      </trkpt>
      <trkpt lat="45.5986" lon="2.79058">
        <ele>1468.5999755859</ele>
        <time>2013-08-17T11:17:43.000Z</time>
      </trkpt>
      <trkpt lat="45.59853" lon="2.79045">
        <ele>1467.8000488281</ele>
        <time>2013-08-17T11:17:56.000Z</time>
      </trkpt>
      <trkpt lat="45.59846" lon="2.79031">
        <ele>1466.8000488281</ele>
        <time>2013-08-17T11:18:08.000Z</time>
      </trkpt>
      <trkpt lat="45.59845" lon="2.79026">
        <ele>1466.8000488281</ele>
        <time>2013-08-17T11:18:12.000Z</time>
      </trkpt>
      <trkpt lat="45.59841" lon="2.79009">
        <ele>1466.1999511719</ele>
        <time>2013-08-17T11:18:26.000Z</time>
      </trkpt>
      <trkpt lat="45.59841" lon="2.79007">
        <ele>1466.1999511719</ele>
        <time>2013-08-17T11:18:28.000Z</time>
      </trkpt>
      <trkpt lat="45.59837" lon="2.78999">
        <ele>1465.1999511719</ele>
        <time>2013-08-17T11:18:39.000Z</time>
      </trkpt>
      <trkpt lat="45.59835" lon="2.78985">
        <ele>1463.5999755859</ele>
        <time>2013-08-17T11:18:54.000Z</time>
      </trkpt>
      <trkpt lat="45.59832" lon="2.78964">
        <ele>1461.5999755859</ele>
        <time>2013-08-17T11:19:10.000Z</time>
      </trkpt>
      <trkpt lat="45.59831" lon="2.78945">
        <ele>1460.5999755859</ele>
        <time>2013-08-17T11:19:26.000Z</time>
      </trkpt>
      <trkpt lat="45.5983" lon="2.78943">
        <ele>1460.1999511719</ele>
        <time>2013-08-17T11:19:44.000Z</time>
      </trkpt>
      <trkpt lat="45.59828" lon="2.78942">
        <ele>1459.8000488281</ele>
        <time>2013-08-17T11:19:53.000Z</time>
      </trkpt>
      <trkpt lat="45.5982" lon="2.78937">
        <ele>1458.1999511719</ele>
        <time>2013-08-17T11:20:05.000Z</time>
      </trkpt>
      <trkpt lat="45.5982" lon="2.78937">
        <ele>1458</ele>
        <time>2013-08-17T11:20:23.000Z</time>
      </trkpt>
      <trkpt lat="45.5982" lon="2.78937">
        <ele>1458</ele>
        <time>2013-08-17T11:20:37.000Z</time>
      </trkpt>
      <trkpt lat="45.5982" lon="2.78937">
        <ele>1458.1999511719</ele>
        <time>2013-08-17T11:21:16.000Z</time>
      </trkpt>
      <trkpt lat="45.5982" lon="2.78937">
        <ele>1458</ele>
        <time>2013-08-17T11:21:59.000Z</time>
      </trkpt>
      <trkpt lat="45.5982" lon="2.78937">
        <ele>1458</ele>
        <time>2013-08-17T11:22:42.000Z</time>
      </trkpt>
      <trkpt lat="45.5982" lon="2.78937">
        <ele>1458</ele>
        <time>2013-08-17T11:23:19.000Z</time>
      </trkpt>
      <trkpt lat="45.5982" lon="2.78937">
        <ele>1458</ele>
        <time>2013-08-17T11:23:50.000Z</time>
      </trkpt>
      <trkpt lat="45.5982" lon="2.78937">
        <ele>1458.1999511719</ele>
        <time>2013-08-17T11:24:17.000Z</time>
      </trkpt>
      <trkpt lat="45.59821" lon="2.78936">
        <ele>1458.4000244141</ele>
        <time>2013-08-17T11:24:59.000Z</time>
      </trkpt>
      <trkpt lat="45.59822" lon="2.78936">
        <ele>1458.4000244141</ele>
        <time>2013-08-17T11:25:28.000Z</time>
      </trkpt>
      <trkpt lat="45.59822" lon="2.78936">
        <ele>1458.4000244141</ele>
        <time>2013-08-17T11:26:00.000Z</time>
      </trkpt>
      <trkpt lat="45.59822" lon="2.78937">
        <ele>1458.4000244141</ele>
        <time>2013-08-17T11:26:23.000Z</time>
      </trkpt>
      <trkpt lat="45.59822" lon="2.78943">
        <ele>1458.4000244141</ele>
        <time>2013-08-17T11:26:30.000Z</time>
      </trkpt>
      <trkpt lat="45.59817" lon="2.78946">
        <ele>1458.1999511719</ele>
        <time>2013-08-17T11:26:45.000Z</time>
      </trkpt>
      <trkpt lat="45.59817" lon="2.78947">
        <ele>1458.1999511719</ele>
        <time>2013-08-17T11:27:30.000Z</time>
      </trkpt>
      <trkpt lat="45.59817" lon="2.78947">
        <ele>1458.1999511719</ele>
        <time>2013-08-17T11:28:05.000Z</time>
      </trkpt>
      <trkpt lat="45.59817" lon="2.78947">
        <ele>1458.1999511719</ele>
        <time>2013-08-17T11:28:41.000Z</time>
      </trkpt>
      <trkpt lat="45.59817" lon="2.78948">
        <ele>1458.1999511719</ele>
        <time>2013-08-17T11:28:54.000Z</time>
      </trkpt>
      <trkpt lat="45.59823" lon="2.78944">
        <ele>1458.5999755859</ele>
        <time>2013-08-17T11:29:06.000Z</time>
      </trkpt>
      <trkpt lat="45.59826" lon="2.78942">
        <ele>1459.1999511719</ele>
        <time>2013-08-17T11:29:09.000Z</time>
      </trkpt>
      <trkpt lat="45.59834" lon="2.78934">
        <ele>1461.4000244141</ele>
        <time>2013-08-17T11:29:23.000Z</time>
      </trkpt>
      <trkpt lat="45.59847" lon="2.78914">
        <ele>1462.8000488281</ele>
        <time>2013-08-17T11:29:39.000Z</time>
      </trkpt>
      <trkpt lat="45.59858" lon="2.78893">
        <ele>1459.4000244141</ele>
        <time>2013-08-17T11:29:54.000Z</time>
      </trkpt>
      <trkpt lat="45.59875" lon="2.78879">
        <ele>1465.1999511719</ele>
        <time>2013-08-17T11:30:14.000Z</time>
      </trkpt>
      <trkpt lat="45.59884" lon="2.78869">
        <ele>1468</ele>
        <time>2013-08-17T11:30:28.000Z</time>
      </trkpt>
      <trkpt lat="45.5989" lon="2.78863">
        <ele>1466.8000488281</ele>
        <time>2013-08-17T11:30:42.000Z</time>
      </trkpt>
      <trkpt lat="45.59896" lon="2.78855">
        <ele>1465.4000244141</ele>
        <time>2013-08-17T11:30:56.000Z</time>
      </trkpt>
      <trkpt lat="45.59905" lon="2.78843">
        <ele>1464.1999511719</ele>
        <time>2013-08-17T11:31:10.000Z</time>
      </trkpt>
      <trkpt lat="45.59906" lon="2.78841">
        <ele>1464</ele>
        <time>2013-08-17T11:31:12.000Z</time>
      </trkpt>
      <trkpt lat="45.59913" lon="2.78823">
        <ele>1460.5999755859</ele>
        <time>2013-08-17T11:31:29.000Z</time>
      </trkpt>
      <trkpt lat="45.59918" lon="2.78813">
        <ele>1458.4000244141</ele>
        <time>2013-08-17T11:31:43.000Z</time>
      </trkpt>
      <trkpt lat="45.59917" lon="2.78813">
        <ele>1458.1999511719</ele>
        <time>2013-08-17T11:31:55.000Z</time>
      </trkpt>
      <trkpt lat="45.59918" lon="2.78806">
        <ele>1457</ele>
        <time>2013-08-17T11:32:05.000Z</time>
      </trkpt>
      <trkpt lat="45.59924" lon="2.78779">
        <ele>1454.8000488281</ele>
        <time>2013-08-17T11:32:25.000Z</time>
      </trkpt>
      <trkpt lat="45.59929" lon="2.78758">
        <ele>1456.8000488281</ele>
        <time>2013-08-17T11:32:42.000Z</time>
      </trkpt>
      <trkpt lat="45.59933" lon="2.78744">
        <ele>1454.5999755859</ele>
        <time>2013-08-17T11:32:54.000Z</time>
      </trkpt>
      <trkpt lat="45.59934" lon="2.78743">
        <ele>1454.4000244141</ele>
        <time>2013-08-17T11:32:55.000Z</time>
      </trkpt>
      <trkpt lat="45.59937" lon="2.78738">
        <ele>1453.8000488281</ele>
        <time>2013-08-17T11:33:00.000Z</time>
      </trkpt>
      <trkpt lat="45.59939" lon="2.78737">
        <ele>1453.8000488281</ele>
        <time>2013-08-17T11:33:17.000Z</time>
      </trkpt>
      <trkpt lat="45.59939" lon="2.78737">
        <ele>1453.5999755859</ele>
        <time>2013-08-17T11:33:30.000Z</time>
      </trkpt>
      <trkpt lat="45.5995" lon="2.78718">
        <ele>1454.5999755859</ele>
        <time>2013-08-17T11:33:45.000Z</time>
      </trkpt>
      <trkpt lat="45.59952" lon="2.78714">
        <ele>1455.1999511719</ele>
        <time>2013-08-17T11:33:49.000Z</time>
      </trkpt>
      <trkpt lat="45.59962" lon="2.78694">
        <ele>1458.1999511719</ele>
        <time>2013-08-17T11:34:07.000Z</time>
      </trkpt>
      <trkpt lat="45.59972" lon="2.78678">
        <ele>1458.8000488281</ele>
        <time>2013-08-17T11:34:23.000Z</time>
      </trkpt>
      <trkpt lat="45.59979" lon="2.78663">
        <ele>1457</ele>
        <time>2013-08-17T11:34:38.000Z</time>
      </trkpt>
      <trkpt lat="45.59979" lon="2.78662">
        <ele>1456.8000488281</ele>
        <time>2013-08-17T11:34:39.000Z</time>
      </trkpt>
      <trkpt lat="45.59983" lon="2.78656">
        <ele>1455.5999755859</ele>
        <time>2013-08-17T11:34:54.000Z</time>
      </trkpt>
      <trkpt lat="45.59983" lon="2.78656">
        <ele>1455.5999755859</ele>
        <time>2013-08-17T11:34:55.000Z</time>
      </trkpt>
      <trkpt lat="45.59985" lon="2.78651">
        <ele>1454.8000488281</ele>
        <time>2013-08-17T11:35:09.000Z</time>
      </trkpt>
      <trkpt lat="45.59988" lon="2.78643">
        <ele>1453.4000244141</ele>
        <time>2013-08-17T11:35:33.000Z</time>
      </trkpt>
      <trkpt lat="45.59995" lon="2.78634">
        <ele>1451.8000488281</ele>
        <time>2013-08-17T11:35:47.000Z</time>
      </trkpt>
      <trkpt lat="45.59996" lon="2.78633">
        <ele>1451.5999755859</ele>
        <time>2013-08-17T11:36:24.000Z</time>
      </trkpt>
      <trkpt lat="45.59993" lon="2.78636">
        <ele>1452</ele>
        <time>2013-08-17T11:36:35.000Z</time>
      </trkpt>
      <trkpt lat="45.59992" lon="2.78636">
        <ele>1452.1999511719</ele>
        <time>2013-08-17T11:36:54.000Z</time>
      </trkpt>
      <trkpt lat="45.59992" lon="2.78636">
        <ele>1452.1999511719</ele>
        <time>2013-08-17T11:37:25.000Z</time>
      </trkpt>
      <trkpt lat="45.59991" lon="2.78636">
        <ele>1452.1999511719</ele>
        <time>2013-08-17T11:37:33.000Z</time>
      </trkpt>
      <trkpt lat="45.59991" lon="2.78641">
        <ele>1453</ele>
        <time>2013-08-17T11:37:37.000Z</time>
      </trkpt>
      <trkpt lat="45.59984" lon="2.78654">
        <ele>1455.4000244141</ele>
        <time>2013-08-17T11:37:48.000Z</time>
      </trkpt>
      <trkpt lat="45.59974" lon="2.78674">
        <ele>1458.4000244141</ele>
        <time>2013-08-17T11:38:05.000Z</time>
      </trkpt>
      <trkpt lat="45.59965" lon="2.78689">
        <ele>1458.8000488281</ele>
        <time>2013-08-17T11:38:20.000Z</time>
      </trkpt>
      <trkpt lat="45.5996" lon="2.78699">
        <ele>1457.1999511719</ele>
        <time>2013-08-17T11:38:28.000Z</time>
      </trkpt>
      <trkpt lat="45.59952" lon="2.78714">
        <ele>1455.1999511719</ele>
        <time>2013-08-17T11:38:43.000Z</time>
      </trkpt>
      <trkpt lat="45.59944" lon="2.7873">
        <ele>1453</ele>
        <time>2013-08-17T11:38:57.000Z</time>
      </trkpt>
      <trkpt lat="45.59937" lon="2.78737">
        <ele>1453.5999755859</ele>
        <time>2013-08-17T11:39:05.000Z</time>
      </trkpt>
      <trkpt lat="45.59934" lon="2.78741">
        <ele>1454.1999511719</ele>
        <time>2013-08-17T11:39:22.000Z</time>
      </trkpt>
      <trkpt lat="45.59927" lon="2.7876">
        <ele>1456.1999511719</ele>
        <time>2013-08-17T11:39:37.000Z</time>
      </trkpt>
      <trkpt lat="45.59925" lon="2.78765">
        <ele>1455.8000488281</ele>
        <time>2013-08-17T11:39:51.000Z</time>
      </trkpt>
      <trkpt lat="45.59925" lon="2.78769">
        <ele>1455.4000244141</ele>
        <time>2013-08-17T11:39:56.000Z</time>
      </trkpt>
      <trkpt lat="45.5992" lon="2.78787">
        <ele>1453.4000244141</ele>
        <time>2013-08-17T11:40:10.000Z</time>
      </trkpt>
      <trkpt lat="45.59917" lon="2.78806">
        <ele>1456.8000488281</ele>
        <time>2013-08-17T11:40:25.000Z</time>
      </trkpt>
      <trkpt lat="45.59917" lon="2.78808">
        <ele>1457.1999511719</ele>
        <time>2013-08-17T11:40:36.000Z</time>
      </trkpt>
      <trkpt lat="45.59913" lon="2.78818">
        <ele>1459.5999755859</ele>
        <time>2013-08-17T11:40:49.000Z</time>
      </trkpt>
      <trkpt lat="45.59907" lon="2.78834">
        <ele>1463.1999511719</ele>
        <time>2013-08-17T11:41:03.000Z</time>
      </trkpt>
      <trkpt lat="45.59903" lon="2.78844">
        <ele>1464.1999511719</ele>
        <time>2013-08-17T11:41:16.000Z</time>
      </trkpt>
      <trkpt lat="45.59901" lon="2.78848">
        <ele>1464.4000244141</ele>
        <time>2013-08-17T11:41:19.000Z</time>
      </trkpt>
      <trkpt lat="45.59891" lon="2.78862">
        <ele>1466.5999755859</ele>
        <time>2013-08-17T11:41:33.000Z</time>
      </trkpt>
      <trkpt lat="45.5989" lon="2.78864">
        <ele>1467</ele>
        <time>2013-08-17T11:41:35.000Z</time>
      </trkpt>
      <trkpt lat="45.59877" lon="2.78876">
        <ele>1465.5999755859</ele>
        <time>2013-08-17T11:41:51.000Z</time>
      </trkpt>
      <trkpt lat="45.59869" lon="2.78882">
        <ele>1463</ele>
        <time>2013-08-17T11:42:01.000Z</time>
      </trkpt>
      <trkpt lat="45.59862" lon="2.78885">
        <ele>1460.5999755859</ele>
        <time>2013-08-17T11:42:09.000Z</time>
      </trkpt>
      <trkpt lat="45.59852" lon="2.78898">
        <ele>1459.1999511719</ele>
        <time>2013-08-17T11:42:23.000Z</time>
      </trkpt>
      <trkpt lat="45.59845" lon="2.78916">
        <ele>1463</ele>
        <time>2013-08-17T11:42:39.000Z</time>
      </trkpt>
      <trkpt lat="45.59841" lon="2.78925">
        <ele>1463.4000244141</ele>
        <time>2013-08-17T11:42:47.000Z</time>
      </trkpt>
      <trkpt lat="45.5983" lon="2.78937">
        <ele>1460.5999755859</ele>
        <time>2013-08-17T11:43:03.000Z</time>
      </trkpt>
      <trkpt lat="45.59826" lon="2.78945">
        <ele>1459.4000244141</ele>
        <time>2013-08-17T11:43:15.000Z</time>
      </trkpt>
      <trkpt lat="45.59833" lon="2.78962">
        <ele>1461.4000244141</ele>
        <time>2013-08-17T11:43:32.000Z</time>
      </trkpt>
      <trkpt lat="45.59833" lon="2.78966">
        <ele>1461.8000488281</ele>
        <time>2013-08-17T11:43:35.000Z</time>
      </trkpt>
      <trkpt lat="45.59839" lon="2.78989">
        <ele>1464.4000244141</ele>
        <time>2013-08-17T11:43:54.000Z</time>
      </trkpt>
      <trkpt lat="45.59845" lon="2.79012">
        <ele>1466.8000488281</ele>
        <time>2013-08-17T11:44:10.000Z</time>
      </trkpt>
      <trkpt lat="45.59853" lon="2.79036">
        <ele>1467.8000488281</ele>
        <time>2013-08-17T11:44:29.000Z</time>
      </trkpt>
      <trkpt lat="45.59857" lon="2.79044">
        <ele>1468.4000244141</ele>
        <time>2013-08-17T11:44:36.000Z</time>
      </trkpt>
      <trkpt lat="45.59864" lon="2.79065">
        <ele>1469.1999511719</ele>
        <time>2013-08-17T11:44:53.000Z</time>
      </trkpt>
      <trkpt lat="45.59871" lon="2.79085">
        <ele>1468.8000488281</ele>
        <time>2013-08-17T11:45:10.000Z</time>
      </trkpt>
      <trkpt lat="45.59875" lon="2.79103">
        <ele>1468</ele>
        <time>2013-08-17T11:45:25.000Z</time>
      </trkpt>
      <trkpt lat="45.59882" lon="2.7912">
        <ele>1468</ele>
        <time>2013-08-17T11:45:41.000Z</time>
      </trkpt>
      <trkpt lat="45.59891" lon="2.79133">
        <ele>1467.5999755859</ele>
        <time>2013-08-17T11:45:55.000Z</time>
      </trkpt>
      <trkpt lat="45.59897" lon="2.79139">
        <ele>1466.8000488281</ele>
        <time>2013-08-17T11:46:02.000Z</time>
      </trkpt>
      <trkpt lat="45.59913" lon="2.79159">
        <ele>1464.5999755859</ele>
        <time>2013-08-17T11:46:22.000Z</time>
      </trkpt>
      <trkpt lat="45.5992" lon="2.79168">
        <ele>1463.5999755859</ele>
        <time>2013-08-17T11:46:33.000Z</time>
      </trkpt>
      <trkpt lat="45.59932" lon="2.79181">
        <ele>1461.5999755859</ele>
        <time>2013-08-17T11:46:49.000Z</time>
      </trkpt>
      <trkpt lat="45.59934" lon="2.79181">
        <ele>1461.5999755859</ele>
        <time>2013-08-17T11:47:00.000Z</time>
      </trkpt>
      <trkpt lat="45.59939" lon="2.79188">
        <ele>1460.4000244141</ele>
        <time>2013-08-17T11:47:17.000Z</time>
      </trkpt>
      <trkpt lat="45.59943" lon="2.79194">
        <ele>1459.4000244141</ele>
        <time>2013-08-17T11:47:31.000Z</time>
      </trkpt>
      <trkpt lat="45.59952" lon="2.79209">
        <ele>1457</ele>
        <time>2013-08-17T11:47:47.000Z</time>
      </trkpt>
      <trkpt lat="45.59962" lon="2.79225">
        <ele>1454.4000244141</ele>
        <time>2013-08-17T11:48:02.000Z</time>
      </trkpt>
      <trkpt lat="45.5997" lon="2.79229">
        <ele>1453.5999755859</ele>
        <time>2013-08-17T11:48:14.000Z</time>
      </trkpt>
      <trkpt lat="45.59974" lon="2.79231">
        <ele>1452.8000488281</ele>
        <time>2013-08-17T11:48:20.000Z</time>
      </trkpt>
      <trkpt lat="45.5998" lon="2.79236">
        <ele>1451.8000488281</ele>
        <time>2013-08-17T11:48:26.000Z</time>
      </trkpt>
      <trkpt lat="45.59985" lon="2.79241">
        <ele>1450.5999755859</ele>
        <time>2013-08-17T11:48:32.000Z</time>
      </trkpt>
      <trkpt lat="45.59996" lon="2.79247">
        <ele>1448.8000488281</ele>
        <time>2013-08-17T11:48:46.000Z</time>
      </trkpt>
      <trkpt lat="45.60004" lon="2.79253">
        <ele>1447.4000244141</ele>
        <time>2013-08-17T11:49:00.000Z</time>
      </trkpt>
      <trkpt lat="45.60011" lon="2.79255">
        <ele>1446.4000244141</ele>
        <time>2013-08-17T11:49:15.000Z</time>
      </trkpt>
      <trkpt lat="45.60013" lon="2.79255">
        <ele>1446.1999511719</ele>
        <time>2013-08-17T11:49:31.000Z</time>
      </trkpt>
      <trkpt lat="45.60027" lon="2.79262">
        <ele>1443.5999755859</ele>
        <time>2013-08-17T11:49:46.000Z</time>
      </trkpt>
      <trkpt lat="45.60036" lon="2.79267">
        <ele>1441.5999755859</ele>
        <time>2013-08-17T11:49:58.000Z</time>
      </trkpt>
      <trkpt lat="45.60047" lon="2.79266">
        <ele>1441</ele>
        <time>2013-08-17T11:50:11.000Z</time>
      </trkpt>
      <trkpt lat="45.60049" lon="2.79268">
        <ele>1440.4000244141</ele>
        <time>2013-08-17T11:50:23.000Z</time>
      </trkpt>
      <trkpt lat="45.60051" lon="2.7927">
        <ele>1439.8000488281</ele>
        <time>2013-08-17T11:50:41.000Z</time>
      </trkpt>
      <trkpt lat="45.6006" lon="2.79274">
        <ele>1437.4000244141</ele>
        <time>2013-08-17T11:50:54.000Z</time>
      </trkpt>
      <trkpt lat="45.60064" lon="2.79277">
        <ele>1435.8000488281</ele>
        <time>2013-08-17T11:51:06.000Z</time>
      </trkpt>
      <trkpt lat="45.60071" lon="2.79282">
        <ele>1433.1999511719</ele>
        <time>2013-08-17T11:51:19.000Z</time>
      </trkpt>
      <trkpt lat="45.6008" lon="2.79283">
        <ele>1431.1999511719</ele>
        <time>2013-08-17T11:51:32.000Z</time>
      </trkpt>
      <trkpt lat="45.60088" lon="2.79287">
        <ele>1428.1999511719</ele>
        <time>2013-08-17T11:51:44.000Z</time>
      </trkpt>
      <trkpt lat="45.60089" lon="2.79288">
        <ele>1427.5999755859</ele>
        <time>2013-08-17T11:51:57.000Z</time>
      </trkpt>
      <trkpt lat="45.60091" lon="2.79291">
        <ele>1426.5999755859</ele>
        <time>2013-08-17T11:52:09.000Z</time>
      </trkpt>
      <trkpt lat="45.60093" lon="2.79293">
        <ele>1425.8000488281</ele>
        <time>2013-08-17T11:52:24.000Z</time>
      </trkpt>
      <trkpt lat="45.60094" lon="2.79295">
        <ele>1425.1999511719</ele>
        <time>2013-08-17T11:52:37.000Z</time>
      </trkpt>
      <trkpt lat="45.60097" lon="2.79297">
        <ele>1424.1999511719</ele>
        <time>2013-08-17T11:52:53.000Z</time>
      </trkpt>
      <trkpt lat="45.60098" lon="2.79298">
        <ele>1423.8000488281</ele>
        <time>2013-08-17T11:53:13.000Z</time>
      </trkpt>
      <trkpt lat="45.60098" lon="2.79299">
        <ele>1423.5999755859</ele>
        <time>2013-08-17T11:53:26.000Z</time>
      </trkpt>
      <trkpt lat="45.601" lon="2.79301">
        <ele>1422.8000488281</ele>
        <time>2013-08-17T11:53:44.000Z</time>
      </trkpt>
      <trkpt lat="45.60101" lon="2.79302">
        <ele>1422.4000244141</ele>
        <time>2013-08-17T11:53:54.000Z</time>
      </trkpt>
      <trkpt lat="45.60105" lon="2.79305">
        <ele>1420.5999755859</ele>
        <time>2013-08-17T11:54:07.000Z</time>
      </trkpt>
      <trkpt lat="45.60108" lon="2.79308">
        <ele>1419.5999755859</ele>
        <time>2013-08-17T11:54:16.000Z</time>
      </trkpt>
      <trkpt lat="45.60111" lon="2.79311">
        <ele>1418.4000244141</ele>
        <time>2013-08-17T11:54:29.000Z</time>
      </trkpt>
      <trkpt lat="45.60112" lon="2.79314">
        <ele>1417.5999755859</ele>
        <time>2013-08-17T11:54:44.000Z</time>
      </trkpt>
      <trkpt lat="45.60113" lon="2.79315">
        <ele>1417.1999511719</ele>
        <time>2013-08-17T11:55:03.000Z</time>
      </trkpt>
      <trkpt lat="45.60114" lon="2.79318">
        <ele>1416.8000488281</ele>
        <time>2013-08-17T11:55:18.000Z</time>
      </trkpt>
      <trkpt lat="45.60119" lon="2.7932">
        <ele>1415</ele>
        <time>2013-08-17T11:55:31.000Z</time>
      </trkpt>
      <trkpt lat="45.60119" lon="2.79322">
        <ele>1414.8000488281</ele>
        <time>2013-08-17T11:55:48.000Z</time>
      </trkpt>
      <trkpt lat="45.60121" lon="2.79329">
        <ele>1412.8000488281</ele>
        <time>2013-08-17T11:56:05.000Z</time>
      </trkpt>
      <trkpt lat="45.60123" lon="2.79332">
        <ele>1411.8000488281</ele>
        <time>2013-08-17T11:56:20.000Z</time>
      </trkpt>
      <trkpt lat="45.60125" lon="2.79337">
        <ele>1410.1999511719</ele>
        <time>2013-08-17T11:56:28.000Z</time>
      </trkpt>
      <trkpt lat="45.60128" lon="2.79346">
        <ele>1409</ele>
        <time>2013-08-17T11:56:34.000Z</time>
      </trkpt>
      <trkpt lat="45.60135" lon="2.79365">
        <ele>1406.4000244141</ele>
        <time>2013-08-17T11:56:46.000Z</time>
      </trkpt>
      <trkpt lat="45.60136" lon="2.79372">
        <ele>1405.8000488281</ele>
        <time>2013-08-17T11:56:50.000Z</time>
      </trkpt>
      <trkpt lat="45.6014" lon="2.79387">
        <ele>1404.4000244141</ele>
        <time>2013-08-17T11:57:01.000Z</time>
      </trkpt>
      <trkpt lat="45.6014" lon="2.7939">
        <ele>1404.1999511719</ele>
        <time>2013-08-17T11:57:03.000Z</time>
      </trkpt>
      <trkpt lat="45.60144" lon="2.79405">
        <ele>1402.5999755859</ele>
        <time>2013-08-17T11:57:14.000Z</time>
      </trkpt>
      <trkpt lat="45.60149" lon="2.7943">
        <ele>1401.4000244141</ele>
        <time>2013-08-17T11:57:31.000Z</time>
      </trkpt>
      <trkpt lat="45.60156" lon="2.79456">
        <ele>1400.4000244141</ele>
        <time>2013-08-17T11:57:49.000Z</time>
      </trkpt>
      <trkpt lat="45.60157" lon="2.79468">
        <ele>1400</ele>
        <time>2013-08-17T11:57:57.000Z</time>
      </trkpt>
      <trkpt lat="45.60153" lon="2.79488">
        <ele>1400</ele>
        <time>2013-08-17T11:58:13.000Z</time>
      </trkpt>
      <trkpt lat="45.60147" lon="2.79509">
        <ele>1399.8000488281</ele>
        <time>2013-08-17T11:58:29.000Z</time>
      </trkpt>
      <trkpt lat="45.60146" lon="2.79507">
        <ele>1400</ele>
        <time>2013-08-17T11:58:55.000Z</time>
      </trkpt>
      <trkpt lat="45.60146" lon="2.79511">
        <ele>1399.8000488281</ele>
        <time>2013-08-17T11:59:08.000Z</time>
      </trkpt>
      <trkpt lat="45.60145" lon="2.79515">
        <ele>1399.8000488281</ele>
        <time>2013-08-17T11:59:10.000Z</time>
      </trkpt>
      <trkpt lat="45.60137" lon="2.79542">
        <ele>1398.5999755859</ele>
        <time>2013-08-17T11:59:30.000Z</time>
      </trkpt>
      <trkpt lat="45.60133" lon="2.79558">
        <ele>1397.4000244141</ele>
        <time>2013-08-17T11:59:44.000Z</time>
      </trkpt>
      <trkpt lat="45.60124" lon="2.79574">
        <ele>1395.1999511719</ele>
        <time>2013-08-17T11:59:59.000Z</time>
      </trkpt>
      <trkpt lat="45.60114" lon="2.79591">
        <ele>1391.5999755859</ele>
        <time>2013-08-17T12:00:18.000Z</time>
      </trkpt>
      <trkpt lat="45.60113" lon="2.79597">
        <ele>1390</ele>
        <time>2013-08-17T12:00:32.000Z</time>
      </trkpt>
      <trkpt lat="45.60108" lon="2.79599">
        <ele>1388.8000488281</ele>
        <time>2013-08-17T12:00:40.000Z</time>
      </trkpt>
      <trkpt lat="45.60098" lon="2.79605">
        <ele>1385.5999755859</ele>
        <time>2013-08-17T12:00:53.000Z</time>
      </trkpt>
      <trkpt lat="45.60096" lon="2.79606">
        <ele>1385</ele>
        <time>2013-08-17T12:01:00.000Z</time>
      </trkpt>
      <trkpt lat="45.60089" lon="2.7961">
        <ele>1383</ele>
        <time>2013-08-17T12:01:08.000Z</time>
      </trkpt>
      <trkpt lat="45.60085" lon="2.79613">
        <ele>1381.5999755859</ele>
        <time>2013-08-17T12:01:12.000Z</time>
      </trkpt>
      <trkpt lat="45.60072" lon="2.79626">
        <ele>1377.5999755859</ele>
        <time>2013-08-17T12:01:32.000Z</time>
      </trkpt>
      <trkpt lat="45.60072" lon="2.79639">
        <ele>1376</ele>
        <time>2013-08-17T12:01:50.000Z</time>
      </trkpt>
      <trkpt lat="45.60067" lon="2.7964">
        <ele>1375.1999511719</ele>
        <time>2013-08-17T12:02:02.000Z</time>
      </trkpt>
      <trkpt lat="45.60061" lon="2.79643">
        <ele>1374</ele>
        <time>2013-08-17T12:02:15.000Z</time>
      </trkpt>
      <trkpt lat="45.60059" lon="2.79642">
        <ele>1374</ele>
        <time>2013-08-17T12:02:18.000Z</time>
      </trkpt>
      <trkpt lat="45.60048" lon="2.79645">
        <ele>1371.8000488281</ele>
        <time>2013-08-17T12:02:32.000Z</time>
      </trkpt>
      <trkpt lat="45.60033" lon="2.79653">
        <ele>1368.4000244141</ele>
        <time>2013-08-17T12:02:48.000Z</time>
      </trkpt>
      <trkpt lat="45.60031" lon="2.79656">
        <ele>1367.5999755859</ele>
        <time>2013-08-17T12:02:51.000Z</time>
      </trkpt>
      <trkpt lat="45.60026" lon="2.7966">
        <ele>1366.5999755859</ele>
        <time>2013-08-17T12:02:56.000Z</time>
      </trkpt>
      <trkpt lat="45.60022" lon="2.79661">
        <ele>1365.8000488281</ele>
        <time>2013-08-17T12:03:00.000Z</time>
      </trkpt>
      <trkpt lat="45.60017" lon="2.79665">
        <ele>1364.8000488281</ele>
        <time>2013-08-17T12:03:06.000Z</time>
      </trkpt>
      <trkpt lat="45.60003" lon="2.79678">
        <ele>1361</ele>
        <time>2013-08-17T12:03:23.000Z</time>
      </trkpt>
      <trkpt lat="45.6" lon="2.7968">
        <ele>1360.4000244141</ele>
        <time>2013-08-17T12:03:26.000Z</time>
      </trkpt>
      <trkpt lat="45.59992" lon="2.79684">
        <ele>1358.5999755859</ele>
        <time>2013-08-17T12:03:35.000Z</time>
      </trkpt>
      <trkpt lat="45.59988" lon="2.79686">
        <ele>1357.8000488281</ele>
        <time>2013-08-17T12:03:42.000Z</time>
      </trkpt>
      <trkpt lat="45.59986" lon="2.79688">
        <ele>1357</ele>
        <time>2013-08-17T12:03:45.000Z</time>
      </trkpt>
      <trkpt lat="45.59981" lon="2.79691">
        <ele>1356.4000244141</ele>
        <time>2013-08-17T12:03:50.000Z</time>
      </trkpt>
      <trkpt lat="45.59976" lon="2.7969">
        <ele>1356</ele>
        <time>2013-08-17T12:03:55.000Z</time>
      </trkpt>
      <trkpt lat="45.59966" lon="2.797">
        <ele>1353.8000488281</ele>
        <time>2013-08-17T12:04:09.000Z</time>
      </trkpt>
      <trkpt lat="45.59957" lon="2.79713">
        <ele>1351</ele>
        <time>2013-08-17T12:04:21.000Z</time>
      </trkpt>
      <trkpt lat="45.59943" lon="2.79733">
        <ele>1346.8000488281</ele>
        <time>2013-08-17T12:04:39.000Z</time>
      </trkpt>
      <trkpt lat="45.5993" lon="2.79746">
        <ele>1345.4000244141</ele>
        <time>2013-08-17T12:04:54.000Z</time>
      </trkpt>
      <trkpt lat="45.59929" lon="2.79753">
        <ele>1345.1999511719</ele>
        <time>2013-08-17T12:04:59.000Z</time>
      </trkpt>
      <trkpt lat="45.59916" lon="2.79768">
        <ele>1343.1999511719</ele>
        <time>2013-08-17T12:05:15.000Z</time>
      </trkpt>
      <trkpt lat="45.59904" lon="2.79784">
        <ele>1341.1999511719</ele>
        <time>2013-08-17T12:05:31.000Z</time>
      </trkpt>
      <trkpt lat="45.59891" lon="2.798">
        <ele>1339.8000488281</ele>
        <time>2013-08-17T12:05:47.000Z</time>
      </trkpt>
      <trkpt lat="45.59886" lon="2.79807">
        <ele>1339.1999511719</ele>
        <time>2013-08-17T12:06:00.000Z</time>
      </trkpt>
      <trkpt lat="45.59884" lon="2.79808">
        <ele>1339</ele>
        <time>2013-08-17T12:06:02.000Z</time>
      </trkpt>
      <trkpt lat="45.59872" lon="2.79811">
        <ele>1335.8000488281</ele>
        <time>2013-08-17T12:06:17.000Z</time>
      </trkpt>
      <trkpt lat="45.59862" lon="2.79806">
        <ele>1333.5999755859</ele>
        <time>2013-08-17T12:06:34.000Z</time>
      </trkpt>
      <trkpt lat="45.59856" lon="2.79806">
        <ele>1332.1999511719</ele>
        <time>2013-08-17T12:06:47.000Z</time>
      </trkpt>
      <trkpt lat="45.59849" lon="2.79818">
        <ele>1332.4000244141</ele>
        <time>2013-08-17T12:07:03.000Z</time>
      </trkpt>
      <trkpt lat="45.59845" lon="2.79822">
        <ele>1332.4000244141</ele>
        <time>2013-08-17T12:07:09.000Z</time>
      </trkpt>
      <trkpt lat="45.59838" lon="2.79828">
        <ele>1332.4000244141</ele>
        <time>2013-08-17T12:07:25.000Z</time>
      </trkpt>
      <trkpt lat="45.59832" lon="2.79832">
        <ele>1332.1999511719</ele>
        <time>2013-08-17T12:07:40.000Z</time>
      </trkpt>
      <trkpt lat="45.59831" lon="2.79831">
        <ele>1332</ele>
        <time>2013-08-17T12:07:57.000Z</time>
      </trkpt>
      <trkpt lat="45.59831" lon="2.7983">
        <ele>1332</ele>
        <time>2013-08-17T12:08:30.000Z</time>
      </trkpt>
      <trkpt lat="45.5983" lon="2.79829">
        <ele>1331.8000488281</ele>
        <time>2013-08-17T12:08:54.000Z</time>
      </trkpt>
      <trkpt lat="45.5983" lon="2.7983">
        <ele>1331.8000488281</ele>
        <time>2013-08-17T12:09:17.000Z</time>
      </trkpt>
      <trkpt lat="45.59822" lon="2.79835">
        <ele>1331.5999755859</ele>
        <time>2013-08-17T12:09:33.000Z</time>
      </trkpt>
      <trkpt lat="45.59814" lon="2.79839">
        <ele>1331.1999511719</ele>
        <time>2013-08-17T12:09:46.000Z</time>
      </trkpt>
      <trkpt lat="45.59805" lon="2.79844">
        <ele>1331</ele>
        <time>2013-08-17T12:10:02.000Z</time>
      </trkpt>
      <trkpt lat="45.59798" lon="2.79842">
        <ele>1330.1999511719</ele>
        <time>2013-08-17T12:10:16.000Z</time>
      </trkpt>
      <trkpt lat="45.59796" lon="2.7984">
        <ele>1329.4000244141</ele>
        <time>2013-08-17T12:10:28.000Z</time>
      </trkpt>
      <trkpt lat="45.59796" lon="2.7983">
        <ele>1327.5999755859</ele>
        <time>2013-08-17T12:10:44.000Z</time>
      </trkpt>
      <trkpt lat="45.59796" lon="2.79821">
        <ele>1326.5999755859</ele>
        <time>2013-08-17T12:11:01.000Z</time>
      </trkpt>
      <trkpt lat="45.59797" lon="2.79813">
        <ele>1326</ele>
        <time>2013-08-17T12:11:07.000Z</time>
      </trkpt>
      <trkpt lat="45.59797" lon="2.79793">
        <ele>1324</ele>
        <time>2013-08-17T12:11:21.000Z</time>
      </trkpt>
      <trkpt lat="45.59795" lon="2.79787">
        <ele>1322.5999755859</ele>
        <time>2013-08-17T12:11:37.000Z</time>
      </trkpt>
      <trkpt lat="45.59792" lon="2.7978">
        <ele>1321.1999511719</ele>
        <time>2013-08-17T12:11:53.000Z</time>
      </trkpt>
      <trkpt lat="45.59791" lon="2.7978">
        <ele>1321</ele>
        <time>2013-08-17T12:12:15.000Z</time>
      </trkpt>
      <trkpt lat="45.59785" lon="2.79779">
        <ele>1319.1999511719</ele>
        <time>2013-08-17T12:12:37.000Z</time>
      </trkpt>
      <trkpt lat="45.5978" lon="2.79776">
        <ele>1317.5999755859</ele>
        <time>2013-08-17T12:12:51.000Z</time>
      </trkpt>
      <trkpt lat="45.59773" lon="2.79762">
        <ele>1314.1999511719</ele>
        <time>2013-08-17T12:13:07.000Z</time>
      </trkpt>
      <trkpt lat="45.59767" lon="2.7975">
        <ele>1310.8000488281</ele>
        <time>2013-08-17T12:13:24.000Z</time>
      </trkpt>
      <trkpt lat="45.59767" lon="2.79749">
        <ele>1311</ele>
        <time>2013-08-17T12:13:37.000Z</time>
      </trkpt>
      <trkpt lat="45.59765" lon="2.79745">
        <ele>1309.5999755859</ele>
        <time>2013-08-17T12:13:54.000Z</time>
      </trkpt>
      <trkpt lat="45.59762" lon="2.79748">
        <ele>1309.4000244141</ele>
        <time>2013-08-17T12:14:13.000Z</time>
      </trkpt>
      <trkpt lat="45.59754" lon="2.79745">
        <ele>1306.8000488281</ele>
        <time>2013-08-17T12:14:29.000Z</time>
      </trkpt>
      <trkpt lat="45.59742" lon="2.79738">
        <ele>1302.4000244141</ele>
        <time>2013-08-17T12:14:45.000Z</time>
      </trkpt>
      <trkpt lat="45.59739" lon="2.79735">
        <ele>1301</ele>
        <time>2013-08-17T12:15:00.000Z</time>
      </trkpt>
      <trkpt lat="45.59737" lon="2.79732">
        <ele>1300.1999511719</ele>
        <time>2013-08-17T12:15:20.000Z</time>
      </trkpt>
      <trkpt lat="45.59735" lon="2.7973">
        <ele>1299.1999511719</ele>
        <time>2013-08-17T12:15:37.000Z</time>
      </trkpt>
      <trkpt lat="45.59734" lon="2.7973">
        <ele>1299</ele>
        <time>2013-08-17T12:16:11.000Z</time>
      </trkpt>
      <trkpt lat="45.59735" lon="2.79729">
        <ele>1299.1999511719</ele>
        <time>2013-08-17T12:16:34.000Z</time>
      </trkpt>
      <trkpt lat="45.59735" lon="2.79733">
        <ele>1299.8000488281</ele>
        <time>2013-08-17T12:16:56.000Z</time>
      </trkpt>
      <trkpt lat="45.59735" lon="2.79738">
        <ele>1300.5999755859</ele>
        <time>2013-08-17T12:17:25.000Z</time>
      </trkpt>
      <trkpt lat="45.59737" lon="2.79733">
        <ele>1300</ele>
        <time>2013-08-17T12:17:52.000Z</time>
      </trkpt>
      <trkpt lat="45.59734" lon="2.79738">
        <ele>1300.4000244141</ele>
        <time>2013-08-17T12:18:34.000Z</time>
      </trkpt>
      <trkpt lat="45.59735" lon="2.7973">
        <ele>1299.1999511719</ele>
        <time>2013-08-17T12:19:02.000Z</time>
      </trkpt>
      <trkpt lat="45.59734" lon="2.79728">
        <ele>1298.5999755859</ele>
        <time>2013-08-17T12:19:28.000Z</time>
      </trkpt>
      <trkpt lat="45.59734" lon="2.79728">
        <ele>1298.5999755859</ele>
        <time>2013-08-17T12:19:56.000Z</time>
      </trkpt>
      <trkpt lat="45.59734" lon="2.7973">
        <ele>1299</ele>
        <time>2013-08-17T12:20:11.000Z</time>
      </trkpt>
      <trkpt lat="45.59735" lon="2.79727">
        <ele>1298.5999755859</ele>
        <time>2013-08-17T12:20:30.000Z</time>
      </trkpt>
      <trkpt lat="45.59736" lon="2.79726">
        <ele>1298.8000488281</ele>
        <time>2013-08-17T12:20:47.000Z</time>
      </trkpt>
      <trkpt lat="45.59736" lon="2.79721">
        <ele>1298</ele>
        <time>2013-08-17T12:21:01.000Z</time>
      </trkpt>
      <trkpt lat="45.59737" lon="2.79715">
        <ele>1297.1999511719</ele>
        <time>2013-08-17T12:21:15.000Z</time>
      </trkpt>
      <trkpt lat="45.59735" lon="2.79704">
        <ele>1294.8000488281</ele>
        <time>2013-08-17T12:21:29.000Z</time>
      </trkpt>
      <trkpt lat="45.5973" lon="2.79699">
        <ele>1292.8000488281</ele>
        <time>2013-08-17T12:21:40.000Z</time>
      </trkpt>
      <trkpt lat="45.59726" lon="2.79689">
        <ele>1289.8000488281</ele>
        <time>2013-08-17T12:21:51.000Z</time>
      </trkpt>
      <trkpt lat="45.59724" lon="2.79686">
        <ele>1289</ele>
        <time>2013-08-17T12:21:53.000Z</time>
      </trkpt>
      <trkpt lat="45.59716" lon="2.79673">
        <ele>1284.4000244141</ele>
        <time>2013-08-17T12:22:05.000Z</time>
      </trkpt>
      <trkpt lat="45.5971" lon="2.79673">
        <ele>1282.5999755859</ele>
        <time>2013-08-17T12:22:16.000Z</time>
      </trkpt>
      <trkpt lat="45.59708" lon="2.79673">
        <ele>1281.8000488281</ele>
        <time>2013-08-17T12:22:20.000Z</time>
      </trkpt>
      <trkpt lat="45.59692" lon="2.79668">
        <ele>1276.5999755859</ele>
        <time>2013-08-17T12:22:33.000Z</time>
      </trkpt>
      <trkpt lat="45.59687" lon="2.79669">
        <ele>1274.8000488281</ele>
        <time>2013-08-17T12:22:40.000Z</time>
      </trkpt>
      <trkpt lat="45.59682" lon="2.79664">
        <ele>1273.1999511719</ele>
        <time>2013-08-17T12:22:44.000Z</time>
      </trkpt>
      <trkpt lat="45.59674" lon="2.79645">
        <ele>1270.4000244141</ele>
        <time>2013-08-17T12:22:58.000Z</time>
      </trkpt>
      <trkpt lat="45.59672" lon="2.79637">
        <ele>1269.5999755859</ele>
        <time>2013-08-17T12:23:12.000Z</time>
      </trkpt>
      <trkpt lat="45.59666" lon="2.79618">
        <ele>1267.4000244141</ele>
        <time>2013-08-17T12:23:25.000Z</time>
      </trkpt>
      <trkpt lat="45.59663" lon="2.79613">
        <ele>1266.4000244141</ele>
        <time>2013-08-17T12:23:30.000Z</time>
      </trkpt>
      <trkpt lat="45.5965" lon="2.79597">
        <ele>1262.1999511719</ele>
        <time>2013-08-17T12:23:46.000Z</time>
      </trkpt>
      <trkpt lat="45.59638" lon="2.79584">
        <ele>1259.4000244141</ele>
        <time>2013-08-17T12:24:02.000Z</time>
      </trkpt>
      <trkpt lat="45.59631" lon="2.79584">
        <ele>1257.4000244141</ele>
        <time>2013-08-17T12:24:13.000Z</time>
      </trkpt>
      <trkpt lat="45.59627" lon="2.79579">
        <ele>1257.8000488281</ele>
        <time>2013-08-17T12:24:18.000Z</time>
      </trkpt>
      <trkpt lat="45.59618" lon="2.79563">
        <ele>1260.1999511719</ele>
        <time>2013-08-17T12:24:34.000Z</time>
      </trkpt>
      <trkpt lat="45.59611" lon="2.79559">
        <ele>1259.8000488281</ele>
        <time>2013-08-17T12:24:48.000Z</time>
      </trkpt>
      <trkpt lat="45.59609" lon="2.79556">
        <ele>1260</ele>
        <time>2013-08-17T12:24:51.000Z</time>
      </trkpt>
      <trkpt lat="45.5959" lon="2.79549">
        <ele>1257.8000488281</ele>
        <time>2013-08-17T12:25:06.000Z</time>
      </trkpt>
      <trkpt lat="45.59577" lon="2.79551">
        <ele>1253.8000488281</ele>
        <time>2013-08-17T12:25:21.000Z</time>
      </trkpt>
      <trkpt lat="45.59575" lon="2.7955">
        <ele>1253.8000488281</ele>
        <time>2013-08-17T12:25:33.000Z</time>
      </trkpt>
      <trkpt lat="45.59569" lon="2.79552">
        <ele>1251.1999511719</ele>
        <time>2013-08-17T12:25:45.000Z</time>
      </trkpt>
      <trkpt lat="45.59556" lon="2.79554">
        <ele>1247</ele>
        <time>2013-08-17T12:25:57.000Z</time>
      </trkpt>
      <trkpt lat="45.59544" lon="2.7955">
        <ele>1245</ele>
        <time>2013-08-17T12:26:09.000Z</time>
      </trkpt>
      <trkpt lat="45.59529" lon="2.79544">
        <ele>1242.5999755859</ele>
        <time>2013-08-17T12:26:22.000Z</time>
      </trkpt>
      <trkpt lat="45.5952" lon="2.79547">
        <ele>1239</ele>
        <time>2013-08-17T12:26:35.000Z</time>
      </trkpt>
      <trkpt lat="45.59512" lon="2.79544">
        <ele>1237.5999755859</ele>
        <time>2013-08-17T12:26:47.000Z</time>
      </trkpt>
      <trkpt lat="45.59498" lon="2.79545">
        <ele>1234</ele>
        <time>2013-08-17T12:27:02.000Z</time>
      </trkpt>
      <trkpt lat="45.59489" lon="2.79541">
        <ele>1233.1999511719</ele>
        <time>2013-08-17T12:27:17.000Z</time>
      </trkpt>
      <trkpt lat="45.59474" lon="2.79545">
        <ele>1229</ele>
        <time>2013-08-17T12:27:31.000Z</time>
      </trkpt>
      <trkpt lat="45.59455" lon="2.79559">
        <ele>1220</ele>
        <time>2013-08-17T12:27:48.000Z</time>
      </trkpt>
      <trkpt lat="45.59442" lon="2.79569">
        <ele>1214.1999511719</ele>
        <time>2013-08-17T12:27:59.000Z</time>
      </trkpt>
      <trkpt lat="45.59435" lon="2.79573">
        <ele>1212.1999511719</ele>
        <time>2013-08-17T12:28:04.000Z</time>
      </trkpt>
      <trkpt lat="45.59428" lon="2.79573">
        <ele>1210.8000488281</ele>
        <time>2013-08-17T12:28:12.000Z</time>
      </trkpt>
      <trkpt lat="45.59421" lon="2.79576">
        <ele>1209</ele>
        <time>2013-08-17T12:28:23.000Z</time>
      </trkpt>
      <trkpt lat="45.59403" lon="2.79573">
        <ele>1205.4000244141</ele>
        <time>2013-08-17T12:28:40.000Z</time>
      </trkpt>
      <trkpt lat="45.59417" lon="2.7954">
        <ele>1211.5999755859</ele>
        <time>2013-08-17T12:28:56.000Z</time>
      </trkpt>
      <trkpt lat="45.59408" lon="2.79529">
        <ele>1210.5999755859</ele>
        <time>2013-08-17T12:29:09.000Z</time>
      </trkpt>
      <trkpt lat="45.59391" lon="2.79506">
        <ele>1209.8000488281</ele>
        <time>2013-08-17T12:29:22.000Z</time>
      </trkpt>
      <trkpt lat="45.59389" lon="2.79503">
        <ele>1209.4000244141</ele>
        <time>2013-08-17T12:29:25.000Z</time>
      </trkpt>
      <trkpt lat="45.59385" lon="2.79496">
        <ele>1208.1999511719</ele>
        <time>2013-08-17T12:29:32.000Z</time>
      </trkpt>
      <trkpt lat="45.59382" lon="2.79494">
        <ele>1207</ele>
        <time>2013-08-17T12:29:35.000Z</time>
      </trkpt>
      <trkpt lat="45.59378" lon="2.7949">
        <ele>1206</ele>
        <time>2013-08-17T12:29:40.000Z</time>
      </trkpt>
      <trkpt lat="45.59365" lon="2.79475">
        <ele>1201.5999755859</ele>
        <time>2013-08-17T12:29:57.000Z</time>
      </trkpt>
      <trkpt lat="45.59363" lon="2.79469">
        <ele>1201.1999511719</ele>
        <time>2013-08-17T12:30:12.000Z</time>
      </trkpt>
      <trkpt lat="45.59362" lon="2.79467">
        <ele>1200.5999755859</ele>
        <time>2013-08-17T12:30:23.000Z</time>
      </trkpt>
      <trkpt lat="45.59353" lon="2.79448">
        <ele>1198</ele>
        <time>2013-08-17T12:30:39.000Z</time>
      </trkpt>
      <trkpt lat="45.59352" lon="2.79444">
        <ele>1197.5999755859</ele>
        <time>2013-08-17T12:30:42.000Z</time>
      </trkpt>
      <trkpt lat="45.59347" lon="2.79435">
        <ele>1196.1999511719</ele>
        <time>2013-08-17T12:30:50.000Z</time>
      </trkpt>
      <trkpt lat="45.59349" lon="2.79429">
        <ele>1196.8000488281</ele>
        <time>2013-08-17T12:31:05.000Z</time>
      </trkpt>
      <trkpt lat="45.59347" lon="2.79423">
        <ele>1196.4000244141</ele>
        <time>2013-08-17T12:31:22.000Z</time>
      </trkpt>
      <trkpt lat="45.59347" lon="2.79418">
        <ele>1195.8000488281</ele>
        <time>2013-08-17T12:31:40.000Z</time>
      </trkpt>
      <trkpt lat="45.59347" lon="2.79401">
        <ele>1193.4000244141</ele>
        <time>2013-08-17T12:31:53.000Z</time>
      </trkpt>
      <trkpt lat="45.5935" lon="2.7939">
        <ele>1192.8000488281</ele>
        <time>2013-08-17T12:32:08.000Z</time>
      </trkpt>
      <trkpt lat="45.59349" lon="2.79375">
        <ele>1190.8000488281</ele>
        <time>2013-08-17T12:32:24.000Z</time>
      </trkpt>
      <trkpt lat="45.5935" lon="2.79355">
        <ele>1188.5999755859</ele>
        <time>2013-08-17T12:32:38.000Z</time>
      </trkpt>
      <trkpt lat="45.59352" lon="2.79342">
        <ele>1187.8000488281</ele>
        <time>2013-08-17T12:32:51.000Z</time>
      </trkpt>
      <trkpt lat="45.59355" lon="2.79318">
        <ele>1186.4000244141</ele>
        <time>2013-08-17T12:33:06.000Z</time>
      </trkpt>
      <trkpt lat="45.5936" lon="2.79295">
        <ele>1185.8000488281</ele>
        <time>2013-08-17T12:33:22.000Z</time>
      </trkpt>
      <trkpt lat="45.59362" lon="2.79289">
        <ele>1185.8000488281</ele>
        <time>2013-08-17T12:33:26.000Z</time>
      </trkpt>
      <trkpt lat="45.59371" lon="2.79266">
        <ele>1187</ele>
        <time>2013-08-17T12:33:42.000Z</time>
      </trkpt>
      <trkpt lat="45.59372" lon="2.79265">
        <ele>1187</ele>
        <time>2013-08-17T12:33:43.000Z</time>
      </trkpt>
      <trkpt lat="45.59384" lon="2.7925">
        <ele>1190.5999755859</ele>
        <time>2013-08-17T12:33:57.000Z</time>
      </trkpt>
      <trkpt lat="45.59393" lon="2.79236">
        <ele>1195</ele>
        <time>2013-08-17T12:34:10.000Z</time>
      </trkpt>
      <trkpt lat="45.59395" lon="2.79234">
        <ele>1196.1999511719</ele>
        <time>2013-08-17T12:34:12.000Z</time>
      </trkpt>
      <trkpt lat="45.59397" lon="2.79231">
        <ele>1197</ele>
        <time>2013-08-17T12:34:14.000Z</time>
      </trkpt>
      <trkpt lat="45.59407" lon="2.79214">
        <ele>1202.4000244141</ele>
        <time>2013-08-17T12:34:30.000Z</time>
      </trkpt>
      <trkpt lat="45.59408" lon="2.79204">
        <ele>1203</ele>
        <time>2013-08-17T12:34:43.000Z</time>
      </trkpt>
      <trkpt lat="45.59405" lon="2.79197">
        <ele>1201</ele>
        <time>2013-08-17T12:34:58.000Z</time>
      </trkpt>
      <trkpt lat="45.594" lon="2.79192">
        <ele>1198.4000244141</ele>
        <time>2013-08-17T12:35:12.000Z</time>
      </trkpt>
      <trkpt lat="45.59392" lon="2.79187">
        <ele>1193.8000488281</ele>
        <time>2013-08-17T12:35:24.000Z</time>
      </trkpt>
      <trkpt lat="45.59389" lon="2.79186">
        <ele>1192.5999755859</ele>
        <time>2013-08-17T12:35:27.000Z</time>
      </trkpt>
      <trkpt lat="45.59378" lon="2.79183">
        <ele>1187.5999755859</ele>
        <time>2013-08-17T12:35:41.000Z</time>
      </trkpt>
      <trkpt lat="45.5937" lon="2.79183">
        <ele>1184.4000244141</ele>
        <time>2013-08-17T12:35:54.000Z</time>
      </trkpt>
      <trkpt lat="45.59369" lon="2.79182">
        <ele>1183.8000488281</ele>
        <time>2013-08-17T12:36:11.000Z</time>
      </trkpt>
      <trkpt lat="45.59367" lon="2.79182">
        <ele>1183.1999511719</ele>
        <time>2013-08-17T12:36:48.000Z</time>
      </trkpt>
      <trkpt lat="45.59367" lon="2.79181">
        <ele>1183.1999511719</ele>
        <time>2013-08-17T12:37:20.000Z</time>
      </trkpt>
      <trkpt lat="45.59364" lon="2.79178">
        <ele>1182</ele>
        <time>2013-08-17T12:37:36.000Z</time>
      </trkpt>
      <trkpt lat="45.5936" lon="2.79176">
        <ele>1180.4000244141</ele>
        <time>2013-08-17T12:37:51.000Z</time>
      </trkpt>
      <trkpt lat="45.59353" lon="2.79178">
        <ele>1177.8000488281</ele>
        <time>2013-08-17T12:38:06.000Z</time>
      </trkpt>
      <trkpt lat="45.5935" lon="2.79174">
        <ele>1176.5999755859</ele>
        <time>2013-08-17T12:38:18.000Z</time>
      </trkpt>
      <trkpt lat="45.59339" lon="2.79175">
        <ele>1172.4000244141</ele>
        <time>2013-08-17T12:38:31.000Z</time>
      </trkpt>
      <trkpt lat="45.59332" lon="2.79173">
        <ele>1169.8000488281</ele>
        <time>2013-08-17T12:38:44.000Z</time>
      </trkpt>
      <trkpt lat="45.59326" lon="2.79173">
        <ele>1167.1999511719</ele>
        <time>2013-08-17T12:38:58.000Z</time>
      </trkpt>
      <trkpt lat="45.59317" lon="2.79175">
        <ele>1164</ele>
        <time>2013-08-17T12:39:14.000Z</time>
      </trkpt>
      <trkpt lat="45.59307" lon="2.79181">
        <ele>1160.4000244141</ele>
        <time>2013-08-17T12:39:28.000Z</time>
      </trkpt>
      <trkpt lat="45.59298" lon="2.79177">
        <ele>1157.1999511719</ele>
        <time>2013-08-17T12:39:43.000Z</time>
      </trkpt>
      <trkpt lat="45.59291" lon="2.79177">
        <ele>1155.1999511719</ele>
        <time>2013-08-17T12:39:57.000Z</time>
      </trkpt>
      <trkpt lat="45.59289" lon="2.79179">
        <ele>1154.5999755859</ele>
        <time>2013-08-17T12:40:12.000Z</time>
      </trkpt>
      <trkpt lat="45.59287" lon="2.79179">
        <ele>1154</ele>
        <time>2013-08-17T12:40:25.000Z</time>
      </trkpt>
      <trkpt lat="45.59273" lon="2.79181">
        <ele>1150.1999511719</ele>
        <time>2013-08-17T12:40:37.000Z</time>
      </trkpt>
      <trkpt lat="45.59261" lon="2.79187">
        <ele>1147.1999511719</ele>
        <time>2013-08-17T12:40:50.000Z</time>
      </trkpt>
      <trkpt lat="45.59255" lon="2.79191">
        <ele>1145.4000244141</ele>
        <time>2013-08-17T12:41:05.000Z</time>
      </trkpt>
      <trkpt lat="45.59242" lon="2.79196">
        <ele>1142</ele>
        <time>2013-08-17T12:41:20.000Z</time>
      </trkpt>
      <trkpt lat="45.59238" lon="2.79198">
        <ele>1140.1999511719</ele>
        <time>2013-08-17T12:41:35.000Z</time>
      </trkpt>
      <trkpt lat="45.59235" lon="2.79199">
        <ele>1139</ele>
        <time>2013-08-17T12:41:47.000Z</time>
      </trkpt>
      <trkpt lat="45.59231" lon="2.792">
        <ele>1137.5999755859</ele>
        <time>2013-08-17T12:42:04.000Z</time>
      </trkpt>
      <trkpt lat="45.59225" lon="2.79198">
        <ele>1135.5999755859</ele>
        <time>2013-08-17T12:42:19.000Z</time>
      </trkpt>
      <trkpt lat="45.59216" lon="2.79201">
        <ele>1132.1999511719</ele>
        <time>2013-08-17T12:42:34.000Z</time>
      </trkpt>
      <trkpt lat="45.59213" lon="2.79203">
        <ele>1131.1999511719</ele>
        <time>2013-08-17T12:42:54.000Z</time>
      </trkpt>
      <trkpt lat="45.59212" lon="2.79203">
        <ele>1131</ele>
        <time>2013-08-17T12:43:08.000Z</time>
      </trkpt>
      <trkpt lat="45.5921" lon="2.79203">
        <ele>1130.4000244141</ele>
        <time>2013-08-17T12:43:21.000Z</time>
      </trkpt>
      <trkpt lat="45.59209" lon="2.79201">
        <ele>1130.1999511719</ele>
        <time>2013-08-17T12:43:39.000Z</time>
      </trkpt>
      <trkpt lat="45.59207" lon="2.79201">
        <ele>1129.5999755859</ele>
        <time>2013-08-17T12:43:51.000Z</time>
      </trkpt>
      <trkpt lat="45.59205" lon="2.79201">
        <ele>1129</ele>
        <time>2013-08-17T12:44:07.000Z</time>
      </trkpt>
      <trkpt lat="45.59203" lon="2.79201">
        <ele>1128.5999755859</ele>
        <time>2013-08-17T12:44:20.000Z</time>
      </trkpt>
      <trkpt lat="45.592" lon="2.79202">
        <ele>1127.5999755859</ele>
        <time>2013-08-17T12:44:37.000Z</time>
      </trkpt>
      <trkpt lat="45.59196" lon="2.79203">
        <ele>1126.4000244141</ele>
        <time>2013-08-17T12:44:51.000Z</time>
      </trkpt>
      <trkpt lat="45.59194" lon="2.79205">
        <ele>1125.5999755859</ele>
        <time>2013-08-17T12:45:04.000Z</time>
      </trkpt>
      <trkpt lat="45.59189" lon="2.79209">
        <ele>1124</ele>
        <time>2013-08-17T12:45:19.000Z</time>
      </trkpt>
      <trkpt lat="45.59188" lon="2.79209">
        <ele>1123.4000244141</ele>
        <time>2013-08-17T12:45:36.000Z</time>
      </trkpt>
      <trkpt lat="45.59183" lon="2.79212">
        <ele>1121.8000488281</ele>
        <time>2013-08-17T12:46:14.000Z</time>
      </trkpt>
      <trkpt lat="45.59173" lon="2.79222">
        <ele>1117.8000488281</ele>
        <time>2013-08-17T12:46:34.000Z</time>
      </trkpt>
      <trkpt lat="45.59168" lon="2.79228">
        <ele>1115.5999755859</ele>
        <time>2013-08-17T12:46:53.000Z</time>
      </trkpt>
      <trkpt lat="45.59164" lon="2.79232">
        <ele>1114</ele>
        <time>2013-08-17T12:47:19.000Z</time>
      </trkpt>
      <trkpt lat="45.59158" lon="2.79245">
        <ele>1110.4000244141</ele>
        <time>2013-08-17T12:47:43.000Z</time>
      </trkpt>
      <trkpt lat="45.59155" lon="2.79247">
        <ele>1109.4000244141</ele>
        <time>2013-08-17T12:47:56.000Z</time>
      </trkpt>
      <trkpt lat="45.59151" lon="2.79245">
        <ele>1108.1999511719</ele>
        <time>2013-08-17T12:48:08.000Z</time>
      </trkpt>
      <trkpt lat="45.59149" lon="2.79243">
        <ele>1107.5999755859</ele>
        <time>2013-08-17T12:48:22.000Z</time>
      </trkpt>
      <trkpt lat="45.59146" lon="2.79242">
        <ele>1107</ele>
        <time>2013-08-17T12:48:35.000Z</time>
      </trkpt>
      <trkpt lat="45.59144" lon="2.7924">
        <ele>1106.4000244141</ele>
        <time>2013-08-17T12:48:48.000Z</time>
      </trkpt>
      <trkpt lat="45.59137" lon="2.79238">
        <ele>1104.4000244141</ele>
        <time>2013-08-17T12:49:12.000Z</time>
      </trkpt>
      <trkpt lat="45.59133" lon="2.79238">
        <ele>1103.1999511719</ele>
        <time>2013-08-17T12:49:27.000Z</time>
      </trkpt>
      <trkpt lat="45.59127" lon="2.79237">
        <ele>1101.1999511719</ele>
        <time>2013-08-17T12:49:39.000Z</time>
      </trkpt>
      <trkpt lat="45.59117" lon="2.79253">
        <ele>1096</ele>
        <time>2013-08-17T12:49:54.000Z</time>
      </trkpt>
      <trkpt lat="45.59112" lon="2.79267">
        <ele>1093.5999755859</ele>
        <time>2013-08-17T12:50:09.000Z</time>
      </trkpt>
      <trkpt lat="45.59109" lon="2.79284">
        <ele>1092.1999511719</ele>
        <time>2013-08-17T12:50:25.000Z</time>
      </trkpt>
      <trkpt lat="45.59103" lon="2.79278">
        <ele>1090.1999511719</ele>
        <time>2013-08-17T12:50:37.000Z</time>
      </trkpt>
      <trkpt lat="45.59087" lon="2.79263">
        <ele>1085.1999511719</ele>
        <time>2013-08-17T12:50:53.000Z</time>
      </trkpt>
      <trkpt lat="45.59078" lon="2.79256">
        <ele>1082.4000244141</ele>
        <time>2013-08-17T12:51:01.000Z</time>
      </trkpt>
      <trkpt lat="45.59055" lon="2.79248">
        <ele>1074.8000488281</ele>
        <time>2013-08-17T12:51:20.000Z</time>
      </trkpt>
      <trkpt lat="45.5904" lon="2.79239">
        <ele>1070</ele>
        <time>2013-08-17T12:51:35.000Z</time>
      </trkpt>
      <trkpt lat="45.59037" lon="2.79237">
        <ele>1069.1999511719</ele>
        <time>2013-08-17T12:51:38.000Z</time>
      </trkpt>
      <trkpt lat="45.59026" lon="2.79222">
        <ele>1066.4000244141</ele>
        <time>2013-08-17T12:51:53.000Z</time>
      </trkpt>
      <trkpt lat="45.5902" lon="2.79212">
        <ele>1065</ele>
        <time>2013-08-17T12:52:07.000Z</time>
      </trkpt>
      <trkpt lat="45.5901" lon="2.79205">
        <ele>1062.1999511719</ele>
        <time>2013-08-17T12:52:20.000Z</time>
      </trkpt>
      <trkpt lat="45.59003" lon="2.79195">
        <ele>1060.1999511719</ele>
        <time>2013-08-17T12:52:30.000Z</time>
      </trkpt>
      <trkpt lat="45.58989" lon="2.79181">
        <ele>1056.4000244141</ele>
        <time>2013-08-17T12:52:44.000Z</time>
      </trkpt>
      <trkpt lat="45.58975" lon="2.79163">
        <ele>1051.8000488281</ele>
        <time>2013-08-17T12:53:02.000Z</time>
      </trkpt>
      <trkpt lat="45.58969" lon="2.79143">
        <ele>1049.4000244141</ele>
        <time>2013-08-17T12:53:18.000Z</time>
      </trkpt>
      <trkpt lat="45.5897" lon="2.79132">
        <ele>1049.5999755859</ele>
        <time>2013-08-17T12:53:35.000Z</time>
      </trkpt>
      <trkpt lat="45.5897" lon="2.79124">
        <ele>1049.8000488281</ele>
        <time>2013-08-17T12:53:58.000Z</time>
      </trkpt>
      <trkpt lat="45.5897" lon="2.79113">
        <ele>1049.8000488281</ele>
        <time>2013-08-17T12:54:15.000Z</time>
      </trkpt>
      <trkpt lat="45.58967" lon="2.79079">
        <ele>1047.8000488281</ele>
        <time>2013-08-17T12:54:36.000Z</time>
      </trkpt>
      <trkpt lat="45.5896" lon="2.79064">
        <ele>1044.1999511719</ele>
        <time>2013-08-17T12:54:50.000Z</time>
      </trkpt>
      <trkpt lat="45.58957" lon="2.79061">
        <ele>1043.1999511719</ele>
        <time>2013-08-17T12:54:53.000Z</time>
      </trkpt>
      <trkpt lat="45.58949" lon="2.79053">
        <ele>1039.8000488281</ele>
        <time>2013-08-17T12:55:02.000Z</time>
      </trkpt>
      <trkpt lat="45.58941" lon="2.79047">
        <ele>1036.8000488281</ele>
        <time>2013-08-17T12:55:10.000Z</time>
      </trkpt>
      <trkpt lat="45.58941" lon="2.79044">
        <ele>1036.4000244141</ele>
        <time>2013-08-17T12:55:13.000Z</time>
      </trkpt>
      <trkpt lat="45.5894" lon="2.79052">
        <ele>1036.8000488281</ele>
        <time>2013-08-17T12:55:20.000Z</time>
      </trkpt>
      <trkpt lat="45.58936" lon="2.79066">
        <ele>1036.4000244141</ele>
        <time>2013-08-17T12:55:31.000Z</time>
      </trkpt>
      <trkpt lat="45.58931" lon="2.79069">
        <ele>1034.8000488281</ele>
        <time>2013-08-17T12:55:37.000Z</time>
      </trkpt>
      <trkpt lat="45.58924" lon="2.79081">
        <ele>1033.1999511719</ele>
        <time>2013-08-17T12:55:52.000Z</time>
      </trkpt>
      <trkpt lat="45.58921" lon="2.79093">
        <ele>1032.4000244141</ele>
        <time>2013-08-17T12:56:01.000Z</time>
      </trkpt>
      <trkpt lat="45.5892" lon="2.7912">
        <ele>1032.4000244141</ele>
        <time>2013-08-17T12:56:18.000Z</time>
      </trkpt>
      <trkpt lat="45.58922" lon="2.79127">
        <ele>1032.8000488281</ele>
        <time>2013-08-17T12:56:23.000Z</time>
      </trkpt>
      <trkpt lat="45.58931" lon="2.79165">
        <ele>1034.4000244141</ele>
        <time>2013-08-17T12:56:43.000Z</time>
      </trkpt>
      <trkpt lat="45.58932" lon="2.79184">
        <ele>1032.8000488281</ele>
        <time>2013-08-17T12:56:49.000Z</time>
      </trkpt>
      <trkpt lat="45.58932" lon="2.79196">
        <ele>1031.1999511719</ele>
        <time>2013-08-17T12:56:57.000Z</time>
      </trkpt>
      <trkpt lat="45.58931" lon="2.79209">
        <ele>1029.4000244141</ele>
        <time>2013-08-17T12:57:05.000Z</time>
      </trkpt>
      <trkpt lat="45.58927" lon="2.7923">
        <ele>1025.1999511719</ele>
        <time>2013-08-17T12:57:19.000Z</time>
      </trkpt>
      <trkpt lat="45.58926" lon="2.79235">
        <ele>1024.5999755859</ele>
        <time>2013-08-17T12:57:21.000Z</time>
      </trkpt>
      <trkpt lat="45.58924" lon="2.79244">
        <ele>1022.799987793</ele>
        <time>2013-08-17T12:57:25.000Z</time>
      </trkpt>
      <trkpt lat="45.58927" lon="2.79257">
        <ele>1022.5999755859</ele>
        <time>2013-08-17T12:57:32.000Z</time>
      </trkpt>
      <trkpt lat="45.58927" lon="2.79264">
        <ele>1021.5999755859</ele>
        <time>2013-08-17T12:57:38.000Z</time>
      </trkpt>
      <trkpt lat="45.58925" lon="2.79276">
        <ele>1019.4000244141</ele>
        <time>2013-08-17T12:57:53.000Z</time>
      </trkpt>
      <trkpt lat="45.58924" lon="2.79279">
        <ele>1018.5999755859</ele>
        <time>2013-08-17T12:57:58.000Z</time>
      </trkpt>
      <trkpt lat="45.58912" lon="2.79285">
        <ele>1013.4000244141</ele>
        <time>2013-08-17T12:58:13.000Z</time>
      </trkpt>
      <trkpt lat="45.58902" lon="2.7929">
        <ele>1009.799987793</ele>
        <time>2013-08-17T12:58:25.000Z</time>
      </trkpt>
      <trkpt lat="45.589" lon="2.79293">
        <ele>1009</ele>
        <time>2013-08-17T12:58:27.000Z</time>
      </trkpt>
      <trkpt lat="45.58895" lon="2.79304">
        <ele>1006.799987793</ele>
        <time>2013-08-17T12:58:33.000Z</time>
      </trkpt>
      <trkpt lat="45.58889" lon="2.79323">
        <ele>1004</ele>
        <time>2013-08-17T12:58:43.000Z</time>
      </trkpt>
      <trkpt lat="45.58886" lon="2.79337">
        <ele>1002.4000244141</ele>
        <time>2013-08-17T12:58:55.000Z</time>
      </trkpt>
      <trkpt lat="45.58883" lon="2.79341">
        <ele>1001.4000244141</ele>
        <time>2013-08-17T12:59:06.000Z</time>
      </trkpt>
      <trkpt lat="45.58878" lon="2.79354">
        <ele>999.20001220703</ele>
        <time>2013-08-17T12:59:16.000Z</time>
      </trkpt>
      <trkpt lat="45.58877" lon="2.79368">
        <ele>998</ele>
        <time>2013-08-17T12:59:23.000Z</time>
      </trkpt>
      <trkpt lat="45.58875" lon="2.79381">
        <ele>996.40002441406</ele>
        <time>2013-08-17T12:59:30.000Z</time>
      </trkpt>
      <trkpt lat="45.58875" lon="2.79385">
        <ele>996.20001220703</ele>
        <time>2013-08-17T12:59:32.000Z</time>
      </trkpt>
      <trkpt lat="45.58874" lon="2.79391">
        <ele>995.59997558594</ele>
        <time>2013-08-17T12:59:35.000Z</time>
      </trkpt>
      <trkpt lat="45.58875" lon="2.79406">
        <ele>994.79998779297</ele>
        <time>2013-08-17T12:59:44.000Z</time>
      </trkpt>
      <trkpt lat="45.5888" lon="2.79434">
        <ele>994.59997558594</ele>
        <time>2013-08-17T13:00:00.000Z</time>
      </trkpt>
      <trkpt lat="45.58876" lon="2.79455">
        <ele>993.40002441406</ele>
        <time>2013-08-17T13:00:15.000Z</time>
      </trkpt>
      <trkpt lat="45.58869" lon="2.79483">
        <ele>991.20001220703</ele>
        <time>2013-08-17T13:00:33.000Z</time>
      </trkpt>
      <trkpt lat="45.5886" lon="2.79508">
        <ele>989.20001220703</ele>
        <time>2013-08-17T13:00:51.000Z</time>
      </trkpt>
      <trkpt lat="45.58858" lon="2.7951">
        <ele>989</ele>
        <time>2013-08-17T13:00:54.000Z</time>
      </trkpt>
      <trkpt lat="45.58847" lon="2.79517">
        <ele>987.20001220703</ele>
        <time>2013-08-17T13:01:06.000Z</time>
      </trkpt>
      <trkpt lat="45.58843" lon="2.79518">
        <ele>986.20001220703</ele>
        <time>2013-08-17T13:01:10.000Z</time>
      </trkpt>
      <trkpt lat="45.58834" lon="2.79517">
        <ele>984.59997558594</ele>
        <time>2013-08-17T13:01:17.000Z</time>
      </trkpt>
      <trkpt lat="45.58811" lon="2.7951">
        <ele>980</ele>
        <time>2013-08-17T13:01:36.000Z</time>
      </trkpt>
      <trkpt lat="45.58807" lon="2.79507">
        <ele>979</ele>
        <time>2013-08-17T13:01:40.000Z</time>
      </trkpt>
      <trkpt lat="45.58788" lon="2.79494">
        <ele>977</ele>
        <time>2013-08-17T13:01:59.000Z</time>
      </trkpt>
      <trkpt lat="45.58767" lon="2.79487">
        <ele>975.40002441406</ele>
        <time>2013-08-17T13:02:17.000Z</time>
      </trkpt>
      <trkpt lat="45.58749" lon="2.79488">
        <ele>973.79998779297</ele>
        <time>2013-08-17T13:02:36.000Z</time>
      </trkpt>
      <trkpt lat="45.58747" lon="2.79495">
        <ele>973.59997558594</ele>
        <time>2013-08-17T13:02:42.000Z</time>
      </trkpt>
      <trkpt lat="45.58744" lon="2.79504">
        <ele>973.20001220703</ele>
        <time>2013-08-17T13:02:48.000Z</time>
      </trkpt>
      <trkpt lat="45.58744" lon="2.79508">
        <ele>973.20001220703</ele>
        <time>2013-08-17T13:02:51.000Z</time>
      </trkpt>
      <trkpt lat="45.58742" lon="2.7951">
        <ele>973.20001220703</ele>
        <time>2013-08-17T13:02:53.000Z</time>
      </trkpt>
      <trkpt lat="45.5874" lon="2.79527">
        <ele>973.59997558594</ele>
        <time>2013-08-17T13:03:07.000Z</time>
      </trkpt>
      <trkpt lat="45.58737" lon="2.79551">
        <ele>974.20001220703</ele>
        <time>2013-08-17T13:03:24.000Z</time>
      </trkpt>
      <trkpt lat="45.58736" lon="2.79559">
        <ele>974.40002441406</ele>
        <time>2013-08-17T13:03:36.000Z</time>
      </trkpt>
      <trkpt lat="45.58731" lon="2.79583">
        <ele>975</ele>
        <time>2013-08-17T13:03:52.000Z</time>
      </trkpt>
      <trkpt lat="45.5873" lon="2.79588">
        <ele>975</ele>
        <time>2013-08-17T13:03:55.000Z</time>
      </trkpt>
      <trkpt lat="45.58727" lon="2.796">
        <ele>975.20001220703</ele>
        <time>2013-08-17T13:04:02.000Z</time>
      </trkpt>
      <trkpt lat="45.58722" lon="2.79621">
        <ele>975.59997558594</ele>
        <time>2013-08-17T13:04:15.000Z</time>
      </trkpt>
      <trkpt lat="45.58715" lon="2.79651">
        <ele>976.20001220703</ele>
        <time>2013-08-17T13:04:33.000Z</time>
      </trkpt>
      <trkpt lat="45.58712" lon="2.79674">
        <ele>976.59997558594</ele>
        <time>2013-08-17T13:04:47.000Z</time>
      </trkpt>
      <trkpt lat="45.58711" lon="2.79679">
        <ele>976.59997558594</ele>
        <time>2013-08-17T13:04:50.000Z</time>
      </trkpt>
      <trkpt lat="45.58712" lon="2.79704">
        <ele>977</ele>
        <time>2013-08-17T13:05:05.000Z</time>
      </trkpt>
      <trkpt lat="45.58714" lon="2.79728">
        <ele>977.40002441406</ele>
        <time>2013-08-17T13:05:18.000Z</time>
      </trkpt>
      <trkpt lat="45.58716" lon="2.79759">
        <ele>978</ele>
        <time>2013-08-17T13:05:37.000Z</time>
      </trkpt>
      <trkpt lat="45.58715" lon="2.79766">
        <ele>978.20001220703</ele>
        <time>2013-08-17T13:05:41.000Z</time>
      </trkpt>
      <trkpt lat="45.58719" lon="2.79798">
        <ele>979</ele>
        <time>2013-08-17T13:06:00.000Z</time>
      </trkpt>
      <trkpt lat="45.58719" lon="2.79825">
        <ele>979.79998779297</ele>
        <time>2013-08-17T13:06:18.000Z</time>
      </trkpt>
      <trkpt lat="45.5872" lon="2.79852">
        <ele>980.79998779297</ele>
        <time>2013-08-17T13:06:34.000Z</time>
      </trkpt>
      <trkpt lat="45.5872" lon="2.79857">
        <ele>981</ele>
        <time>2013-08-17T13:06:37.000Z</time>
      </trkpt>
      <trkpt lat="45.58716" lon="2.79887">
        <ele>982.40002441406</ele>
        <time>2013-08-17T13:06:56.000Z</time>
      </trkpt>
      <trkpt lat="45.58703" lon="2.79917">
        <ele>983.20001220703</ele>
        <time>2013-08-17T13:07:17.000Z</time>
      </trkpt>
      <trkpt lat="45.5869" lon="2.79936">
        <ele>985.20001220703</ele>
        <time>2013-08-17T13:07:33.000Z</time>
      </trkpt>
      <trkpt lat="45.58677" lon="2.79957">
        <ele>988.40002441406</ele>
        <time>2013-08-17T13:07:52.000Z</time>
      </trkpt>
      <trkpt lat="45.58671" lon="2.79966">
        <ele>989</ele>
        <time>2013-08-17T13:08:13.000Z</time>
      </trkpt>
      <trkpt lat="45.58656" lon="2.79985">
        <ele>989.40002441406</ele>
        <time>2013-08-17T13:08:32.000Z</time>
      </trkpt>
      <trkpt lat="45.58642" lon="2.80003">
        <ele>989.59997558594</ele>
        <time>2013-08-17T13:08:50.000Z</time>
      </trkpt>
      <trkpt lat="45.58628" lon="2.80024">
        <ele>991.59997558594</ele>
        <time>2013-08-17T13:09:08.000Z</time>
      </trkpt>
      <trkpt lat="45.58627" lon="2.80027">
        <ele>992</ele>
        <time>2013-08-17T13:09:09.000Z</time>
      </trkpt>
      <trkpt lat="45.58615" lon="2.80045">
        <ele>993.79998779297</ele>
        <time>2013-08-17T13:09:26.000Z</time>
      </trkpt>
      <trkpt lat="45.58599" lon="2.80076">
        <ele>994.59997558594</ele>
        <time>2013-08-17T13:09:45.000Z</time>
      </trkpt>
      <trkpt lat="45.58591" lon="2.80089">
        <ele>993.59997558594</ele>
        <time>2013-08-17T13:09:55.000Z</time>
      </trkpt>
      <trkpt lat="45.58575" lon="2.80113">
        <ele>993.40002441406</ele>
        <time>2013-08-17T13:10:15.000Z</time>
      </trkpt>
      <trkpt lat="45.58561" lon="2.80128">
        <ele>994.40002441406</ele>
        <time>2013-08-17T13:10:30.000Z</time>
      </trkpt>
      <trkpt lat="45.58549" lon="2.80146">
        <ele>996.59997558594</ele>
        <time>2013-08-17T13:10:47.000Z</time>
      </trkpt>
      <trkpt lat="45.58528" lon="2.80171">
        <ele>998.59997558594</ele>
        <time>2013-08-17T13:11:10.000Z</time>
      </trkpt>
      <trkpt lat="45.58525" lon="2.80172">
        <ele>998.20001220703</ele>
        <time>2013-08-17T13:11:14.000Z</time>
      </trkpt>
      <trkpt lat="45.58509" lon="2.80177">
        <ele>997.40002441406</ele>
        <time>2013-08-17T13:11:30.000Z</time>
      </trkpt>
      <trkpt lat="45.58489" lon="2.80189">
        <ele>997.40002441406</ele>
        <time>2013-08-17T13:11:47.000Z</time>
      </trkpt>
      <trkpt lat="45.58473" lon="2.80202">
        <ele>995.79998779297</ele>
        <time>2013-08-17T13:12:03.000Z</time>
      </trkpt>
      <trkpt lat="45.58462" lon="2.80211">
        <ele>996</ele>
        <time>2013-08-17T13:12:20.000Z</time>
      </trkpt>
      <trkpt lat="45.58444" lon="2.80227">
        <ele>998</ele>
        <time>2013-08-17T13:12:39.000Z</time>
      </trkpt>
      <trkpt lat="45.58424" lon="2.80243">
        <ele>996.59997558594</ele>
        <time>2013-08-17T13:12:59.000Z</time>
      </trkpt>
      <trkpt lat="45.58409" lon="2.80258">
        <ele>996.20001220703</ele>
        <time>2013-08-17T13:13:16.000Z</time>
      </trkpt>
      <trkpt lat="45.58388" lon="2.80283">
        <ele>997.59997558594</ele>
        <time>2013-08-17T13:13:35.000Z</time>
      </trkpt>
      <trkpt lat="45.58382" lon="2.80289">
        <ele>998</ele>
        <time>2013-08-17T13:13:41.000Z</time>
      </trkpt>
      <trkpt lat="45.58368" lon="2.80302">
        <ele>1000.200012207</ele>
        <time>2013-08-17T13:13:59.000Z</time>
      </trkpt>
      <trkpt lat="45.58351" lon="2.8032">
        <ele>1001.4000244141</ele>
        <time>2013-08-17T13:14:16.000Z</time>
      </trkpt>
      <trkpt lat="45.58334" lon="2.80338">
        <ele>1000.4000244141</ele>
        <time>2013-08-17T13:14:34.000Z</time>
      </trkpt>
      <trkpt lat="45.5832" lon="2.80353">
        <ele>1004.4000244141</ele>
        <time>2013-08-17T13:14:52.000Z</time>
      </trkpt>
      <trkpt lat="45.58308" lon="2.80369">
        <ele>1003.799987793</ele>
        <time>2013-08-17T13:15:08.000Z</time>
      </trkpt>
      <trkpt lat="45.58301" lon="2.80378">
        <ele>1003.5999755859</ele>
        <time>2013-08-17T13:15:24.000Z</time>
      </trkpt>
      <trkpt lat="45.58292" lon="2.80386">
        <ele>1005.200012207</ele>
        <time>2013-08-17T13:15:41.000Z</time>
      </trkpt>
      <trkpt lat="45.5828" lon="2.80397">
        <ele>1007.4000244141</ele>
        <time>2013-08-17T13:15:57.000Z</time>
      </trkpt>
      <trkpt lat="45.58265" lon="2.80418">
        <ele>1006.5999755859</ele>
        <time>2013-08-17T13:16:15.000Z</time>
      </trkpt>
      <trkpt lat="45.58251" lon="2.80437">
        <ele>1010.4000244141</ele>
        <time>2013-08-17T13:16:30.000Z</time>
      </trkpt>
      <trkpt lat="45.5824" lon="2.80451">
        <ele>1012</ele>
        <time>2013-08-17T13:16:46.000Z</time>
      </trkpt>
      <trkpt lat="45.58227" lon="2.80466">
        <ele>1009.799987793</ele>
        <time>2013-08-17T13:17:03.000Z</time>
      </trkpt>
      <trkpt lat="45.58221" lon="2.80475">
        <ele>1008.799987793</ele>
        <time>2013-08-17T13:17:10.000Z</time>
      </trkpt>
      <trkpt lat="45.58209" lon="2.80499">
        <ele>1011</ele>
        <time>2013-08-17T13:17:30.000Z</time>
      </trkpt>
      <trkpt lat="45.58213" lon="2.80509">
        <ele>1013</ele>
        <time>2013-08-17T13:17:39.000Z</time>
      </trkpt>
      <trkpt lat="45.58193" lon="2.80527">
        <ele>1017.5999755859</ele>
        <time>2013-08-17T13:17:58.000Z</time>
      </trkpt>
      <trkpt lat="45.58179" lon="2.80532">
        <ele>1017.799987793</ele>
        <time>2013-08-17T13:18:05.000Z</time>
      </trkpt>
      <trkpt lat="45.58157" lon="2.80553">
        <ele>1017.5999755859</ele>
        <time>2013-08-17T13:18:26.000Z</time>
      </trkpt>
      <trkpt lat="45.58152" lon="2.80563">
        <ele>1017.5999755859</ele>
        <time>2013-08-17T13:18:42.000Z</time>
      </trkpt>
      <trkpt lat="45.58139" lon="2.80582">
        <ele>1016.4000244141</ele>
        <time>2013-08-17T13:19:00.000Z</time>
      </trkpt>
      <trkpt lat="45.58112" lon="2.80592">
        <ele>1015.4000244141</ele>
        <time>2013-08-17T13:19:16.000Z</time>
      </trkpt>
      <trkpt lat="45.58091" lon="2.80609">
        <ele>1019.799987793</ele>
        <time>2013-08-17T13:19:37.000Z</time>
      </trkpt>
      <trkpt lat="45.5807" lon="2.80625">
        <ele>1020.5999755859</ele>
        <time>2013-08-17T13:19:56.000Z</time>
      </trkpt>
      <trkpt lat="45.58054" lon="2.80641">
        <ele>1019.200012207</ele>
        <time>2013-08-17T13:20:14.000Z</time>
      </trkpt>
      <trkpt lat="45.58033" lon="2.80656">
        <ele>1021.4000244141</ele>
        <time>2013-08-17T13:20:33.000Z</time>
      </trkpt>
      <trkpt lat="45.58013" lon="2.80665">
        <ele>1020.5999755859</ele>
        <time>2013-08-17T13:20:50.000Z</time>
      </trkpt>
      <trkpt lat="45.58006" lon="2.8067">
        <ele>1020.5999755859</ele>
        <time>2013-08-17T13:21:02.000Z</time>
      </trkpt>
      <trkpt lat="45.57992" lon="2.80676">
        <ele>1021.200012207</ele>
        <time>2013-08-17T13:21:15.000Z</time>
      </trkpt>
      <trkpt lat="45.57972" lon="2.80684">
        <ele>1021.200012207</ele>
        <time>2013-08-17T13:21:32.000Z</time>
      </trkpt>
      <trkpt lat="45.57964" lon="2.80687">
        <ele>1021</ele>
        <time>2013-08-17T13:21:39.000Z</time>
      </trkpt>
      <trkpt lat="45.57952" lon="2.80688">
        <ele>1021</ele>
        <time>2013-08-17T13:21:48.000Z</time>
      </trkpt>
      <trkpt lat="45.57934" lon="2.80696">
        <ele>1022</ele>
        <time>2013-08-17T13:22:04.000Z</time>
      </trkpt>
      <trkpt lat="45.57916" lon="2.80704">
        <ele>1023</ele>
        <time>2013-08-17T13:22:22.000Z</time>
      </trkpt>
      <trkpt lat="45.57898" lon="2.8071">
        <ele>1021.5999755859</ele>
        <time>2013-08-17T13:22:41.000Z</time>
      </trkpt>
      <trkpt lat="45.5788" lon="2.80722">
        <ele>1021.5999755859</ele>
        <time>2013-08-17T13:22:59.000Z</time>
      </trkpt>
      <trkpt lat="45.5786" lon="2.80737">
        <ele>1023</ele>
        <time>2013-08-17T13:23:16.000Z</time>
      </trkpt>
      <trkpt lat="45.57846" lon="2.80757">
        <ele>1023.4000244141</ele>
        <time>2013-08-17T13:23:35.000Z</time>
      </trkpt>
      <trkpt lat="45.57846" lon="2.80767">
        <ele>1025.4000244141</ele>
        <time>2013-08-17T13:23:52.000Z</time>
      </trkpt>
      <trkpt lat="45.57837" lon="2.80764">
        <ele>1024</ele>
        <time>2013-08-17T13:24:00.000Z</time>
      </trkpt>
      <trkpt lat="45.57833" lon="2.80767">
        <ele>1024.4000244141</ele>
        <time>2013-08-17T13:24:04.000Z</time>
      </trkpt>
      <trkpt lat="45.57816" lon="2.80795">
        <ele>1027.4000244141</ele>
        <time>2013-08-17T13:24:23.000Z</time>
      </trkpt>
      <trkpt lat="45.57796" lon="2.80813">
        <ele>1028.1999511719</ele>
        <time>2013-08-17T13:24:38.000Z</time>
      </trkpt>
      <trkpt lat="45.57791" lon="2.80839">
        <ele>1031.8000488281</ele>
        <time>2013-08-17T13:24:57.000Z</time>
      </trkpt>
      <trkpt lat="45.57759" lon="2.80851">
        <ele>1033.8000488281</ele>
        <time>2013-08-17T13:25:18.000Z</time>
      </trkpt>
      <trkpt lat="45.5775" lon="2.80874">
        <ele>1039.5999755859</ele>
        <time>2013-08-17T13:25:37.000Z</time>
      </trkpt>
      <trkpt lat="45.57724" lon="2.8089">
        <ele>1036.5999755859</ele>
        <time>2013-08-17T13:25:57.000Z</time>
      </trkpt>
      <trkpt lat="45.57714" lon="2.80901">
        <ele>1037</ele>
        <time>2013-08-17T13:26:15.000Z</time>
      </trkpt>
      <trkpt lat="45.57699" lon="2.80921">
        <ele>1037.8000488281</ele>
        <time>2013-08-17T13:26:34.000Z</time>
      </trkpt>
      <trkpt lat="45.57672" lon="2.80931">
        <ele>1039.5999755859</ele>
        <time>2013-08-17T13:26:53.000Z</time>
      </trkpt>
      <trkpt lat="45.57662" lon="2.80952">
        <ele>1048</ele>
        <time>2013-08-17T13:27:09.000Z</time>
      </trkpt>
      <trkpt lat="45.57633" lon="2.80967">
        <ele>1046</ele>
        <time>2013-08-17T13:27:29.000Z</time>
      </trkpt>
      <trkpt lat="45.57619" lon="2.80978">
        <ele>1049.8000488281</ele>
        <time>2013-08-17T13:27:50.000Z</time>
      </trkpt>
      <trkpt lat="45.57594" lon="2.8099">
        <ele>1048.8000488281</ele>
        <time>2013-08-17T13:28:12.000Z</time>
      </trkpt>
      <trkpt lat="45.57569" lon="2.81">
        <ele>1045</ele>
        <time>2013-08-17T13:28:31.000Z</time>
      </trkpt>
      <trkpt lat="45.57556" lon="2.80982">
        <ele>1040.1999511719</ele>
        <time>2013-08-17T13:28:43.000Z</time>
      </trkpt>
      <trkpt lat="45.57553" lon="2.80981">
        <ele>1039.4000244141</ele>
        <time>2013-08-17T13:28:46.000Z</time>
      </trkpt>
      <trkpt lat="45.57536" lon="2.80981">
        <ele>1040</ele>
        <time>2013-08-17T13:29:00.000Z</time>
      </trkpt>
      <trkpt lat="45.57524" lon="2.8101">
        <ele>1043.4000244141</ele>
        <time>2013-08-17T13:29:18.000Z</time>
      </trkpt>
      <trkpt lat="45.57497" lon="2.81033">
        <ele>1051</ele>
        <time>2013-08-17T13:29:38.000Z</time>
      </trkpt>
      <trkpt lat="45.57482" lon="2.8103">
        <ele>1048</ele>
        <time>2013-08-17T13:30:00.000Z</time>
      </trkpt>
      <trkpt lat="45.57462" lon="2.81049">
        <ele>1047.8000488281</ele>
        <time>2013-08-17T13:30:20.000Z</time>
      </trkpt>
      <trkpt lat="45.57447" lon="2.81036">
        <ele>1046.5999755859</ele>
        <time>2013-08-17T13:30:33.000Z</time>
      </trkpt>
      <trkpt lat="45.57432" lon="2.8104">
        <ele>1047.4000244141</ele>
        <time>2013-08-17T13:30:49.000Z</time>
      </trkpt>
      <trkpt lat="45.57413" lon="2.81042">
        <ele>1047.5999755859</ele>
        <time>2013-08-17T13:31:03.000Z</time>
      </trkpt>
      <trkpt lat="45.57394" lon="2.81047">
        <ele>1047.4000244141</ele>
        <time>2013-08-17T13:31:18.000Z</time>
      </trkpt>
      <trkpt lat="45.57373" lon="2.81049">
        <ele>1047.8000488281</ele>
        <time>2013-08-17T13:31:36.000Z</time>
      </trkpt>
      <trkpt lat="45.57365" lon="2.81099">
        <ele>1053.4000244141</ele>
        <time>2013-08-17T13:31:57.000Z</time>
      </trkpt>
      <trkpt lat="45.57347" lon="2.81137">
        <ele>1063.5999755859</ele>
        <time>2013-08-17T13:32:19.000Z</time>
      </trkpt>
      <trkpt lat="45.57337" lon="2.81149">
        <ele>1063</ele>
        <time>2013-08-17T13:32:38.000Z</time>
      </trkpt>
      <trkpt lat="45.57328" lon="2.8115">
        <ele>1061.5999755859</ele>
        <time>2013-08-17T13:33:01.000Z</time>
      </trkpt>
      <trkpt lat="45.57288" lon="2.81158">
        <ele>1057.4000244141</ele>
        <time>2013-08-17T13:33:26.000Z</time>
      </trkpt>
      <trkpt lat="45.5728" lon="2.81151">
        <ele>1056.8000488281</ele>
        <time>2013-08-17T13:33:37.000Z</time>
      </trkpt>
      <trkpt lat="45.57259" lon="2.8115">
        <ele>1056</ele>
        <time>2013-08-17T13:34:02.000Z</time>
      </trkpt>
      <trkpt lat="45.57258" lon="2.81148">
        <ele>1055.5999755859</ele>
        <time>2013-08-17T13:34:16.000Z</time>
      </trkpt>
      <trkpt lat="45.57261" lon="2.81144">
        <ele>1055.5999755859</ele>
        <time>2013-08-17T13:34:39.000Z</time>
      </trkpt>
      <trkpt lat="45.5726" lon="2.81144">
        <ele>1055.4000244141</ele>
        <time>2013-08-17T13:35:10.000Z</time>
      </trkpt>
      <trkpt lat="45.5726" lon="2.81143">
        <ele>1055.4000244141</ele>
        <time>2013-08-17T13:35:27.000Z</time>
      </trkpt>
      <trkpt lat="45.57261" lon="2.81142">
        <ele>1055.4000244141</ele>
        <time>2013-08-17T13:35:50.000Z</time>
      </trkpt>
      <trkpt lat="45.57261" lon="2.81141">
        <ele>1055.4000244141</ele>
        <time>2013-08-17T13:36:16.000Z</time>
      </trkpt>
      <trkpt lat="45.5726" lon="2.81142">
        <ele>1055.4000244141</ele>
        <time>2013-08-17T13:36:44.000Z</time>
      </trkpt>
    </trkseg>
  </trk>
</gpx>